<?xml version="1.0" encoding="UTF-8" standalone="no" ?>
<gpx xmlns="http://www.topografix.com/GPX/1/1" xmlns:xsi="http://www.w3.org/2001/XMLSchema-instance" xsi:schemaLocation="http://www.topografix.com/GPX/1/1 http://www.topografix.com/GPX/1/1/gpx.xsd" version="1.1" creator="VisuGPX - https://www.visugpx.com">
  <metadata>
    <name>Cretes de la Molière - Revue 01</name>
    <desc><![CDATA[<p>Type: Mountain biking<br/>Start time: 10:27 Oct 28, 2022<br/>Finish time: 15:07 Oct 28, 2022<br/>Distance: 30.9 km (04:39)<br/>Moving time: 03:51<br/>Average speed: 6.62 km/h<br/>Avg. Speed Mov.: 7.99 km/h<br/>Max. speed: 41.99 km/h<br/>Minimum altitude: 1034 m<br/>Maximum altitude: 1698 m<br/>Ascent speed: 459.1 m/h<br/>Descent speed: 1005.1 m/h<br/>Elevation gain: 1048 m<br/>Elevation loss: 1047 m<br/>Ascent time: 02:17<br/>Descent time: 01:02<br/></p><hr align="center" width="480" style="height: 2px; width: 517px"/>]]></desc>
  </metadata>
  <trk>
    <name><![CDATA[2022-10-28 10:27:46]]></name>
    <desc><![CDATA[<p>Type: Mountain biking<br/>Start time: 10:27 Oct 28, 2022<br/>Finish time: 15:07 Oct 28, 2022<br/>Distance: 30.9 km (04:39)<br/>Moving time: 03:51<br/>Average speed: 6.62 km/h<br/>Avg. Speed Mov.: 7.99 km/h<br/>Max. speed: 41.99 km/h<br/>Minimum altitude: 1034 m<br/>Maximum altitude: 1698 m<br/>Ascent speed: 459.1 m/h<br/>Descent speed: 1005.1 m/h<br/>Elevation gain: 1048 m<br/>Elevation loss: 1047 m<br/>Ascent time: 02:17<br/>Descent time: 01:02<br/></p><hr align="center" width="480" style="height: 2px; width: 517px"/>]]></desc>
    <extensions>
      <line xmlns="http://www.topografix.com/GPX/gpx_style/0/2">
        <color>0000FF</color>
        <width>4</width>
      </line>
    </extensions>
    <trkseg>
      <trkpt lat="45.17486" lon="5.54314">
        <ele>1037.66</ele>
        <time>2022-10-28T08:27:58.000Z</time>
      </trkpt>
      <trkpt lat="45.17466" lon="5.54306">
        <ele>1037.77</ele>
        <time>2022-10-28T08:28:22.000Z</time>
      </trkpt>
      <trkpt lat="45.17469" lon="5.54276">
        <ele>1038.02</ele>
        <time>2022-10-28T08:28:32.000Z</time>
      </trkpt>
      <trkpt lat="45.17476" lon="5.54251">
        <ele>1038.92</ele>
        <time>2022-10-28T08:28:42.000Z</time>
      </trkpt>
      <trkpt lat="45.17485" lon="5.54222">
        <ele>1039.01</ele>
        <time>2022-10-28T08:28:52.000Z</time>
      </trkpt>
      <trkpt lat="45.17494" lon="5.54195">
        <ele>1039.68</ele>
        <time>2022-10-28T08:29:00.000Z</time>
      </trkpt>
      <trkpt lat="45.17486" lon="5.54166">
        <ele>1039.04</ele>
        <time>2022-10-28T08:29:10.000Z</time>
      </trkpt>
      <trkpt lat="45.17485" lon="5.54136">
        <ele>1038.09</ele>
        <time>2022-10-28T08:29:16.000Z</time>
      </trkpt>
      <trkpt lat="45.17495" lon="5.54106">
        <ele>1037.74</ele>
        <time>2022-10-28T08:29:22.000Z</time>
      </trkpt>
      <trkpt lat="45.17507" lon="5.54076">
        <ele>1037.26</ele>
        <time>2022-10-28T08:29:48.000Z</time>
      </trkpt>
      <trkpt lat="45.17514" lon="5.54042">
        <ele>1036.83</ele>
        <time>2022-10-28T08:29:54.000Z</time>
      </trkpt>
      <trkpt lat="45.17529" lon="5.54014">
        <ele>1036.55</ele>
        <time>2022-10-28T08:30:00.000Z</time>
      </trkpt>
      <trkpt lat="45.17542" lon="5.53989">
        <ele>1036.32</ele>
        <time>2022-10-28T08:30:08.000Z</time>
      </trkpt>
      <trkpt lat="45.17553" lon="5.53966">
        <ele>1036.02</ele>
        <time>2022-10-28T08:30:14.000Z</time>
      </trkpt>
      <trkpt lat="45.17575" lon="5.53964">
        <ele>1036.6</ele>
        <time>2022-10-28T08:30:24.000Z</time>
      </trkpt>
      <trkpt lat="45.17594" lon="5.53954">
        <ele>1037.2</ele>
        <time>2022-10-28T08:30:40.000Z</time>
      </trkpt>
      <trkpt lat="45.17603" lon="5.5393">
        <ele>1037.66</ele>
        <time>2022-10-28T08:30:46.000Z</time>
      </trkpt>
      <trkpt lat="45.17614" lon="5.53903">
        <ele>1037.62</ele>
        <time>2022-10-28T08:30:52.000Z</time>
      </trkpt>
      <trkpt lat="45.17623" lon="5.53872">
        <ele>1037.2</ele>
        <time>2022-10-28T08:30:58.000Z</time>
      </trkpt>
      <trkpt lat="45.17633" lon="5.53842">
        <ele>1037.43</ele>
        <time>2022-10-28T08:31:04.000Z</time>
      </trkpt>
      <trkpt lat="45.17644" lon="5.53815">
        <ele>1038.77</ele>
        <time>2022-10-28T08:31:10.000Z</time>
      </trkpt>
      <trkpt lat="45.17645" lon="5.53786">
        <ele>1040.5</ele>
        <time>2022-10-28T08:31:18.000Z</time>
      </trkpt>
      <trkpt lat="45.17648" lon="5.53761">
        <ele>1041.99</ele>
        <time>2022-10-28T08:31:28.000Z</time>
      </trkpt>
      <trkpt lat="45.17655" lon="5.53736">
        <ele>1043.25</ele>
        <time>2022-10-28T08:31:38.000Z</time>
      </trkpt>
      <trkpt lat="45.17662" lon="5.5371">
        <ele>1043.82</ele>
        <time>2022-10-28T08:31:48.000Z</time>
      </trkpt>
      <trkpt lat="45.1767" lon="5.5368">
        <ele>1044.19</ele>
        <time>2022-10-28T08:31:58.000Z</time>
      </trkpt>
      <trkpt lat="45.17671" lon="5.5365">
        <ele>1043.44</ele>
        <time>2022-10-28T08:32:04.000Z</time>
      </trkpt>
      <trkpt lat="45.17679" lon="5.53621">
        <ele>1042.54</ele>
        <time>2022-10-28T08:32:08.000Z</time>
      </trkpt>
      <trkpt lat="45.17694" lon="5.53588">
        <ele>1041.49</ele>
        <time>2022-10-28T08:32:12.000Z</time>
      </trkpt>
      <trkpt lat="45.17712" lon="5.5355">
        <ele>1040.02</ele>
        <time>2022-10-28T08:32:16.000Z</time>
      </trkpt>
      <trkpt lat="45.17722" lon="5.53529">
        <ele>1038.65</ele>
        <time>2022-10-28T08:32:18.000Z</time>
      </trkpt>
      <trkpt lat="45.17731" lon="5.53506">
        <ele>1037.56</ele>
        <time>2022-10-28T08:32:20.000Z</time>
      </trkpt>
      <trkpt lat="45.17741" lon="5.53483">
        <ele>1036.13</ele>
        <time>2022-10-28T08:32:22.000Z</time>
      </trkpt>
      <trkpt lat="45.17751" lon="5.53461">
        <ele>1035.07</ele>
        <time>2022-10-28T08:32:24.000Z</time>
      </trkpt>
      <trkpt lat="45.17768" lon="5.53419">
        <ele>1033.93</ele>
        <time>2022-10-28T08:32:28.000Z</time>
      </trkpt>
      <trkpt lat="45.17782" lon="5.53381">
        <ele>1034.08</ele>
        <time>2022-10-28T08:32:32.000Z</time>
      </trkpt>
      <trkpt lat="45.17795" lon="5.53345">
        <ele>1034.53</ele>
        <time>2022-10-28T08:32:36.000Z</time>
      </trkpt>
      <trkpt lat="45.17808" lon="5.53312">
        <ele>1034.93</ele>
        <time>2022-10-28T08:32:40.000Z</time>
      </trkpt>
      <trkpt lat="45.17819" lon="5.53284">
        <ele>1034.99</ele>
        <time>2022-10-28T08:32:44.000Z</time>
      </trkpt>
      <trkpt lat="45.17838" lon="5.53282">
        <ele>1035.11</ele>
        <time>2022-10-28T08:32:48.000Z</time>
      </trkpt>
      <trkpt lat="45.17863" lon="5.53292">
        <ele>1035.94</ele>
        <time>2022-10-28T08:32:54.000Z</time>
      </trkpt>
      <trkpt lat="45.17887" lon="5.533">
        <ele>1036.8</ele>
        <time>2022-10-28T08:33:00.000Z</time>
      </trkpt>
      <trkpt lat="45.17909" lon="5.5331">
        <ele>1037.62</ele>
        <time>2022-10-28T08:33:06.000Z</time>
      </trkpt>
      <trkpt lat="45.1793" lon="5.53331">
        <ele>1038.37</ele>
        <time>2022-10-28T08:33:12.000Z</time>
      </trkpt>
      <trkpt lat="45.17954" lon="5.53345">
        <ele>1039.2</ele>
        <time>2022-10-28T08:33:18.000Z</time>
      </trkpt>
      <trkpt lat="45.17979" lon="5.53345">
        <ele>1040.11</ele>
        <time>2022-10-28T08:33:24.000Z</time>
      </trkpt>
      <trkpt lat="45.18003" lon="5.53337">
        <ele>1040.91</ele>
        <time>2022-10-28T08:33:30.000Z</time>
      </trkpt>
      <trkpt lat="45.18025" lon="5.53346">
        <ele>1041</ele>
        <time>2022-10-28T08:33:36.000Z</time>
      </trkpt>
      <trkpt lat="45.18047" lon="5.53349">
        <ele>1041.82</ele>
        <time>2022-10-28T08:33:42.000Z</time>
      </trkpt>
      <trkpt lat="45.18067" lon="5.53347">
        <ele>1042.8</ele>
        <time>2022-10-28T08:33:48.000Z</time>
      </trkpt>
      <trkpt lat="45.18088" lon="5.5334">
        <ele>1043.8</ele>
        <time>2022-10-28T08:33:54.000Z</time>
      </trkpt>
      <trkpt lat="45.18106" lon="5.53335">
        <ele>1044.7</ele>
        <time>2022-10-28T08:34:00.000Z</time>
      </trkpt>
      <trkpt lat="45.1813" lon="5.53338">
        <ele>1045.57</ele>
        <time>2022-10-28T08:34:08.000Z</time>
      </trkpt>
      <trkpt lat="45.18149" lon="5.53336">
        <ele>1046.26</ele>
        <time>2022-10-28T08:34:14.000Z</time>
      </trkpt>
      <trkpt lat="45.1817" lon="5.53331">
        <ele>1047.04</ele>
        <time>2022-10-28T08:34:22.000Z</time>
      </trkpt>
      <trkpt lat="45.18193" lon="5.53333">
        <ele>1047.84</ele>
        <time>2022-10-28T08:34:30.000Z</time>
      </trkpt>
      <trkpt lat="45.18215" lon="5.53326">
        <ele>1048.65</ele>
        <time>2022-10-28T08:34:38.000Z</time>
      </trkpt>
      <trkpt lat="45.18236" lon="5.53331">
        <ele>1049.42</ele>
        <time>2022-10-28T08:34:46.000Z</time>
      </trkpt>
      <trkpt lat="45.18255" lon="5.53347">
        <ele>1050.59</ele>
        <time>2022-10-28T08:34:54.000Z</time>
      </trkpt>
      <trkpt lat="45.18269" lon="5.53365">
        <ele>1051.63</ele>
        <time>2022-10-28T08:35:00.000Z</time>
      </trkpt>
      <trkpt lat="45.18286" lon="5.53388">
        <ele>1053.14</ele>
        <time>2022-10-28T08:35:08.000Z</time>
      </trkpt>
      <trkpt lat="45.18298" lon="5.53413">
        <ele>1053.7</ele>
        <time>2022-10-28T08:35:16.000Z</time>
      </trkpt>
      <trkpt lat="45.18305" lon="5.53444">
        <ele>1054.77</ele>
        <time>2022-10-28T08:35:24.000Z</time>
      </trkpt>
      <trkpt lat="45.1831" lon="5.53474">
        <ele>1056.21</ele>
        <time>2022-10-28T08:35:32.000Z</time>
      </trkpt>
      <trkpt lat="45.18316" lon="5.53506">
        <ele>1058.2</ele>
        <time>2022-10-28T08:35:40.000Z</time>
      </trkpt>
      <trkpt lat="45.18317" lon="5.53538">
        <ele>1059.96</ele>
        <time>2022-10-28T08:35:48.000Z</time>
      </trkpt>
      <trkpt lat="45.18307" lon="5.53567">
        <ele>1060.38</ele>
        <time>2022-10-28T08:35:56.000Z</time>
      </trkpt>
      <trkpt lat="45.18308" lon="5.53594">
        <ele>1061.34</ele>
        <time>2022-10-28T08:36:04.000Z</time>
      </trkpt>
      <trkpt lat="45.18326" lon="5.53615">
        <ele>1062.03</ele>
        <time>2022-10-28T08:36:12.000Z</time>
      </trkpt>
      <trkpt lat="45.18344" lon="5.53632">
        <ele>1062.71</ele>
        <time>2022-10-28T08:36:20.000Z</time>
      </trkpt>
      <trkpt lat="45.18364" lon="5.53641">
        <ele>1063.95</ele>
        <time>2022-10-28T08:36:28.000Z</time>
      </trkpt>
      <trkpt lat="45.18379" lon="5.53657">
        <ele>1064.37</ele>
        <time>2022-10-28T08:36:36.000Z</time>
      </trkpt>
      <trkpt lat="45.18392" lon="5.53682">
        <ele>1065.12</ele>
        <time>2022-10-28T08:36:44.000Z</time>
      </trkpt>
      <trkpt lat="45.18406" lon="5.53698">
        <ele>1066.06</ele>
        <time>2022-10-28T08:36:52.000Z</time>
      </trkpt>
      <trkpt lat="45.18418" lon="5.53726">
        <ele>1066.23</ele>
        <time>2022-10-28T08:37:02.000Z</time>
      </trkpt>
      <trkpt lat="45.18436" lon="5.53743">
        <ele>1066.87</ele>
        <time>2022-10-28T08:37:10.000Z</time>
      </trkpt>
      <trkpt lat="45.18455" lon="5.53759">
        <ele>1067.64</ele>
        <time>2022-10-28T08:37:18.000Z</time>
      </trkpt>
      <trkpt lat="45.18472" lon="5.53777">
        <ele>1068.24</ele>
        <time>2022-10-28T08:37:26.000Z</time>
      </trkpt>
      <trkpt lat="45.1849" lon="5.5379">
        <ele>1070.29</ele>
        <time>2022-10-28T08:37:34.000Z</time>
      </trkpt>
      <trkpt lat="45.1851" lon="5.53802">
        <ele>1071.02</ele>
        <time>2022-10-28T08:37:42.000Z</time>
      </trkpt>
      <trkpt lat="45.18529" lon="5.53813">
        <ele>1072.31</ele>
        <time>2022-10-28T08:37:50.000Z</time>
      </trkpt>
      <trkpt lat="45.18548" lon="5.53819">
        <ele>1073.76</ele>
        <time>2022-10-28T08:37:58.000Z</time>
      </trkpt>
      <trkpt lat="45.18568" lon="5.5382">
        <ele>1074.45</ele>
        <time>2022-10-28T08:38:06.000Z</time>
      </trkpt>
      <trkpt lat="45.18587" lon="5.53816">
        <ele>1074.61</ele>
        <time>2022-10-28T08:38:14.000Z</time>
      </trkpt>
      <trkpt lat="45.18608" lon="5.53822">
        <ele>1075.56</ele>
        <time>2022-10-28T08:38:24.000Z</time>
      </trkpt>
      <trkpt lat="45.18626" lon="5.53831">
        <ele>1077.3</ele>
        <time>2022-10-28T08:38:34.000Z</time>
      </trkpt>
      <trkpt lat="45.18644" lon="5.53819">
        <ele>1077.75</ele>
        <time>2022-10-28T08:38:42.000Z</time>
      </trkpt>
      <trkpt lat="45.18661" lon="5.53813">
        <ele>1079.1</ele>
        <time>2022-10-28T08:38:50.000Z</time>
      </trkpt>
      <trkpt lat="45.18678" lon="5.53822">
        <ele>1080.1</ele>
        <time>2022-10-28T08:38:58.000Z</time>
      </trkpt>
      <trkpt lat="45.18693" lon="5.53839">
        <ele>1080.5</ele>
        <extensions>
          <visugpx:TrkExtension xmlns:visugpx="https://www.visugpx.com/editgpx/">
            <visugpx:node>1</visugpx:node>
            </visugpx:TrkExtension>
        </extensions>
      </trkpt>
      <trkpt lat="45.18693" lon="5.53837">
        <ele>1080.3</ele>
      </trkpt>
      <trkpt lat="45.18717" lon="5.53857">
        <ele>1084.3</ele>
      </trkpt>
      <trkpt lat="45.18766" lon="5.53878">
        <ele>1089.1</ele>
      </trkpt>
      <trkpt lat="45.18813" lon="5.5388">
        <ele>1093.6</ele>
      </trkpt>
      <trkpt lat="45.18824" lon="5.53878">
        <ele>1094.8</ele>
        <extensions>
          <visugpx:TrkExtension xmlns:visugpx="https://www.visugpx.com/editgpx/">
            <visugpx:node>2</visugpx:node>
            </visugpx:TrkExtension>
        </extensions>
      </trkpt>
      <trkpt lat="45.18824" lon="5.53877">
        <ele>1094.8</ele>
      </trkpt>
      <trkpt lat="45.18838" lon="5.53874">
        <ele>1096.9</ele>
      </trkpt>
      <trkpt lat="45.18852" lon="5.5387">
        <ele>1099.8</ele>
      </trkpt>
      <trkpt lat="45.18883" lon="5.53872">
        <ele>1104.6</ele>
      </trkpt>
      <trkpt lat="45.18922" lon="5.53881">
        <ele>1110.1</ele>
      </trkpt>
      <trkpt lat="45.1894" lon="5.53871">
        <ele>1112.8</ele>
        <extensions>
          <visugpx:TrkExtension xmlns:visugpx="https://www.visugpx.com/editgpx/">
            <visugpx:node>3</visugpx:node>
            </visugpx:TrkExtension>
        </extensions>
      </trkpt>
      <trkpt lat="45.1895" lon="5.53866">
        <ele>1114.2</ele>
      </trkpt>
      <trkpt lat="45.18956" lon="5.53859">
        <ele>1115.2</ele>
      </trkpt>
      <trkpt lat="45.18958" lon="5.53845">
        <ele>1116.3</ele>
      </trkpt>
      <trkpt lat="45.18956" lon="5.53763">
        <ele>1125.9</ele>
      </trkpt>
      <trkpt lat="45.18952" lon="5.53735">
        <ele>1128</ele>
      </trkpt>
      <trkpt lat="45.18949" lon="5.53711">
        <ele>1129.1</ele>
      </trkpt>
      <trkpt lat="45.1894" lon="5.53685">
        <ele>1128.8</ele>
      </trkpt>
      <trkpt lat="45.18949" lon="5.53711">
        <ele>1129.1</ele>
      </trkpt>
      <trkpt lat="45.1894" lon="5.53685">
        <ele>1128.9</ele>
        <extensions>
          <visugpx:TrkExtension xmlns:visugpx="https://www.visugpx.com/editgpx/">
            <visugpx:node>4</visugpx:node>
            </visugpx:TrkExtension>
        </extensions>
      </trkpt>
      <trkpt lat="45.18934" lon="5.53667">
        <ele>1129.1</ele>
      </trkpt>
      <trkpt lat="45.18916" lon="5.53647">
        <ele>1128</ele>
      </trkpt>
      <trkpt lat="45.18898" lon="5.53634">
        <ele>1127.7</ele>
      </trkpt>
      <trkpt lat="45.18878" lon="5.53627">
        <ele>1126</ele>
      </trkpt>
      <trkpt lat="45.18864" lon="5.53619">
        <ele>1124.6</ele>
      </trkpt>
      <trkpt lat="45.18842" lon="5.53603">
        <ele>1122.1</ele>
      </trkpt>
      <trkpt lat="45.1882" lon="5.5358">
        <ele>1120.3</ele>
      </trkpt>
      <trkpt lat="45.18785" lon="5.53557">
        <ele>1118.3</ele>
      </trkpt>
      <trkpt lat="45.18794" lon="5.53554">
        <ele>1119.4</ele>
      </trkpt>
      <trkpt lat="45.18814" lon="5.53542">
        <ele>1122.6</ele>
      </trkpt>
      <trkpt lat="45.18829" lon="5.53518">
        <ele>1126.4</ele>
      </trkpt>
      <trkpt lat="45.18839" lon="5.53503">
        <ele>1129.2</ele>
      </trkpt>
      <trkpt lat="45.18845" lon="5.53495">
        <ele>1131.1</ele>
      </trkpt>
      <trkpt lat="45.18852" lon="5.53486">
        <ele>1133.2</ele>
      </trkpt>
      <trkpt lat="45.18859" lon="5.53483">
        <ele>1134.3</ele>
      </trkpt>
      <trkpt lat="45.18867" lon="5.53497">
        <ele>1133.9</ele>
      </trkpt>
      <trkpt lat="45.18882" lon="5.5354">
        <ele>1134.4</ele>
      </trkpt>
      <trkpt lat="45.1889" lon="5.53553">
        <ele>1135.4</ele>
      </trkpt>
      <trkpt lat="45.18902" lon="5.53559">
        <ele>1137.1</ele>
      </trkpt>
      <trkpt lat="45.18917" lon="5.53559">
        <ele>1139.7</ele>
      </trkpt>
      <trkpt lat="45.18922" lon="5.53559">
        <ele>1140.4</ele>
      </trkpt>
      <trkpt lat="45.18925" lon="5.53559">
        <ele>1140.8</ele>
      </trkpt>
      <trkpt lat="45.18938" lon="5.53557">
        <ele>1142.9</ele>
      </trkpt>
      <trkpt lat="45.1896" lon="5.5355">
        <ele>1146.6</ele>
      </trkpt>
      <trkpt lat="45.18997" lon="5.53527">
        <ele>1154.8</ele>
      </trkpt>
      <trkpt lat="45.19009" lon="5.53528">
        <ele>1156.3</ele>
      </trkpt>
      <trkpt lat="45.19024" lon="5.53534">
        <ele>1157.9</ele>
      </trkpt>
      <trkpt lat="45.19047" lon="5.53575">
        <ele>1161.1</ele>
      </trkpt>
      <trkpt lat="45.19075" lon="5.53644">
        <ele>1165.4</ele>
      </trkpt>
      <trkpt lat="45.19089" lon="5.53654">
        <ele>1166.1</ele>
      </trkpt>
      <trkpt lat="45.19105" lon="5.53655">
        <ele>1168.1</ele>
      </trkpt>
      <trkpt lat="45.19154" lon="5.53649">
        <ele>1173.5</ele>
      </trkpt>
      <trkpt lat="45.19166" lon="5.53648">
        <ele>1175</ele>
        <extensions>
          <visugpx:TrkExtension xmlns:visugpx="https://www.visugpx.com/editgpx/">
            <visugpx:node>5</visugpx:node>
            </visugpx:TrkExtension>
        </extensions>
      </trkpt>
      <trkpt lat="45.19187" lon="5.53648">
        <ele>1177.5</ele>
      </trkpt>
      <trkpt lat="45.19221" lon="5.53658">
        <ele>1181.9</ele>
      </trkpt>
      <trkpt lat="45.19251" lon="5.53677">
        <ele>1183.9</ele>
      </trkpt>
      <trkpt lat="45.19281" lon="5.53688">
        <ele>1187.4</ele>
      </trkpt>
      <trkpt lat="45.19326" lon="5.53694">
        <ele>1191.6</ele>
      </trkpt>
      <trkpt lat="45.1935" lon="5.53693">
        <ele>1193</ele>
      </trkpt>
      <trkpt lat="45.19386" lon="5.53676">
        <ele>1197.6</ele>
      </trkpt>
      <trkpt lat="45.19408" lon="5.53679">
        <ele>1198.6</ele>
      </trkpt>
      <trkpt lat="45.19478" lon="5.53694">
        <ele>1205.9</ele>
      </trkpt>
      <trkpt lat="45.19499" lon="5.53692">
        <ele>1209.2</ele>
      </trkpt>
      <trkpt lat="45.19513" lon="5.53695">
        <ele>1210.3</ele>
      </trkpt>
      <trkpt lat="45.19518" lon="5.53697">
        <ele>1210.6</ele>
      </trkpt>
      <trkpt lat="45.19532" lon="5.53703">
        <ele>1211.5</ele>
      </trkpt>
      <trkpt lat="45.19518" lon="5.53697">
        <ele>1210.6</ele>
        <extensions>
          <visugpx:TrkExtension xmlns:visugpx="https://www.visugpx.com/editgpx/">
            <visugpx:node>6</visugpx:node>
            </visugpx:TrkExtension>
        </extensions>
      </trkpt>
      <trkpt lat="45.19532" lon="5.53703">
        <ele>1211.5</ele>
      </trkpt>
      <trkpt lat="45.19558" lon="5.53718">
        <ele>1212.7</ele>
      </trkpt>
      <trkpt lat="45.19604" lon="5.53747">
        <ele>1214.6</ele>
      </trkpt>
      <trkpt lat="45.19628" lon="5.5375">
        <ele>1217.4</ele>
      </trkpt>
      <trkpt lat="45.19646" lon="5.53768">
        <ele>1220.1</ele>
      </trkpt>
      <trkpt lat="45.19653" lon="5.53775">
        <ele>1221.1</ele>
      </trkpt>
      <trkpt lat="45.1966" lon="5.53789">
        <ele>1222.8</ele>
      </trkpt>
      <trkpt lat="45.19661" lon="5.53798">
        <ele>1223.6</ele>
      </trkpt>
      <trkpt lat="45.19658" lon="5.5381">
        <ele>1224.4</ele>
      </trkpt>
      <trkpt lat="45.19651" lon="5.53825">
        <ele>1225.5</ele>
      </trkpt>
      <trkpt lat="45.19646" lon="5.53834">
        <ele>1226.1</ele>
      </trkpt>
      <trkpt lat="45.19635" lon="5.53846">
        <ele>1226.9</ele>
      </trkpt>
      <trkpt lat="45.1963" lon="5.53849">
        <ele>1226.9</ele>
      </trkpt>
      <trkpt lat="45.19637" lon="5.53828">
        <ele>1223.87</ele>
        <time>2022-10-28T08:59:32.000Z</time>
      </trkpt>
      <trkpt lat="45.1963" lon="5.53851">
        <ele>1227.3</ele>
        <extensions>
          <visugpx:TrkExtension xmlns:visugpx="https://www.visugpx.com/editgpx/">
            <visugpx:node>7</visugpx:node>
            </visugpx:TrkExtension>
        </extensions>
      </trkpt>
      <trkpt lat="45.1963" lon="5.53853">
        <ele>1227.58</ele>
        <time>2022-10-28T08:59:48.000Z</time>
      </trkpt>
      <trkpt lat="45.19609" lon="5.53865">
        <ele>1227.64</ele>
        <time>2022-10-28T08:59:54.000Z</time>
      </trkpt>
      <trkpt lat="45.19584" lon="5.53871">
        <ele>1225.56</ele>
        <time>2022-10-28T09:00:00.000Z</time>
      </trkpt>
      <trkpt lat="45.1956" lon="5.53877">
        <ele>1224.9</ele>
        <time>2022-10-28T09:00:06.000Z</time>
      </trkpt>
      <trkpt lat="45.19539" lon="5.53882">
        <ele>1223.81</ele>
        <time>2022-10-28T09:00:12.000Z</time>
      </trkpt>
      <trkpt lat="45.19517" lon="5.53895">
        <ele>1224.08</ele>
        <time>2022-10-28T09:00:18.000Z</time>
      </trkpt>
      <trkpt lat="45.19499" lon="5.53903">
        <ele>1223.6</ele>
        <time>2022-10-28T09:00:22.000Z</time>
      </trkpt>
      <trkpt lat="45.1948" lon="5.5392">
        <ele>1224.04</ele>
        <time>2022-10-28T09:00:26.000Z</time>
      </trkpt>
      <trkpt lat="45.19464" lon="5.53946">
        <ele>1224.96</ele>
        <time>2022-10-28T09:00:32.000Z</time>
      </trkpt>
      <trkpt lat="45.19452" lon="5.53981">
        <ele>1225.16</ele>
        <time>2022-10-28T09:00:38.000Z</time>
      </trkpt>
      <trkpt lat="45.19445" lon="5.54011">
        <ele>1225.38</ele>
        <time>2022-10-28T09:00:42.000Z</time>
      </trkpt>
      <trkpt lat="45.19441" lon="5.5404">
        <ele>1225.58</ele>
        <time>2022-10-28T09:00:46.000Z</time>
      </trkpt>
      <trkpt lat="45.19442" lon="5.54071">
        <ele>1225.12</ele>
        <time>2022-10-28T09:00:52.000Z</time>
      </trkpt>
      <trkpt lat="45.19456" lon="5.54088">
        <ele>1226.35</ele>
        <time>2022-10-28T09:01:00.000Z</time>
      </trkpt>
      <trkpt lat="45.19467" lon="5.5411">
        <ele>1227.88</ele>
        <time>2022-10-28T09:01:08.000Z</time>
      </trkpt>
      <trkpt lat="45.19471" lon="5.54139">
        <ele>1227.78</ele>
        <time>2022-10-28T09:01:12.000Z</time>
      </trkpt>
      <trkpt lat="45.19473" lon="5.54171">
        <ele>1227.26</ele>
        <time>2022-10-28T09:01:16.000Z</time>
      </trkpt>
      <trkpt lat="45.19472" lon="5.54202">
        <ele>1227.29</ele>
        <time>2022-10-28T09:01:24.000Z</time>
      </trkpt>
      <trkpt lat="45.1947" lon="5.5423">
        <ele>1227.68</ele>
        <time>2022-10-28T09:01:34.000Z</time>
      </trkpt>
      <trkpt lat="45.19472" lon="5.54264">
        <ele>1227.83</ele>
        <time>2022-10-28T09:01:42.000Z</time>
      </trkpt>
      <trkpt lat="45.19484" lon="5.54293">
        <ele>1230.19</ele>
        <time>2022-10-28T09:01:50.000Z</time>
      </trkpt>
      <trkpt lat="45.1948" lon="5.54322">
        <ele>1230.4</ele>
        <time>2022-10-28T09:01:56.000Z</time>
      </trkpt>
      <trkpt lat="45.19459" lon="5.54339">
        <ele>1227.83</ele>
        <time>2022-10-28T09:02:00.000Z</time>
      </trkpt>
      <trkpt lat="45.19437" lon="5.54355">
        <ele>1225.01</ele>
        <time>2022-10-28T09:02:06.000Z</time>
      </trkpt>
      <trkpt lat="45.19426" lon="5.54379">
        <ele>1225.59</ele>
        <time>2022-10-28T09:02:14.000Z</time>
      </trkpt>
      <trkpt lat="45.19421" lon="5.54406">
        <ele>1227.78</ele>
        <time>2022-10-28T09:02:28.000Z</time>
      </trkpt>
      <trkpt lat="45.19416" lon="5.54431">
        <ele>1229.09</ele>
        <time>2022-10-28T09:02:38.000Z</time>
      </trkpt>
      <trkpt lat="45.19412" lon="5.5446">
        <ele>1230.33</ele>
        <time>2022-10-28T09:02:50.000Z</time>
      </trkpt>
      <trkpt lat="45.19413" lon="5.54487">
        <ele>1233.24</ele>
        <time>2022-10-28T09:03:02.000Z</time>
      </trkpt>
      <trkpt lat="45.19409" lon="5.54515">
        <ele>1236.4</ele>
        <time>2022-10-28T09:03:16.000Z</time>
      </trkpt>
      <trkpt lat="45.19399" lon="5.54541">
        <ele>1238.6</ele>
        <time>2022-10-28T09:03:30.000Z</time>
      </trkpt>
      <trkpt lat="45.19386" lon="5.54562">
        <ele>1239.85</ele>
        <time>2022-10-28T09:03:44.000Z</time>
      </trkpt>
      <trkpt lat="45.19366" lon="5.54575">
        <ele>1241.27</ele>
        <time>2022-10-28T09:03:58.000Z</time>
      </trkpt>
      <trkpt lat="45.19349" lon="5.54585">
        <ele>1243.13</ele>
        <time>2022-10-28T09:04:10.000Z</time>
      </trkpt>
      <trkpt lat="45.19331" lon="5.54591">
        <ele>1245.11</ele>
        <time>2022-10-28T09:04:22.000Z</time>
      </trkpt>
      <trkpt lat="45.19313" lon="5.54602">
        <ele>1248.17</ele>
        <time>2022-10-28T09:04:36.000Z</time>
      </trkpt>
      <trkpt lat="45.19295" lon="5.54613">
        <ele>1251.41</ele>
        <time>2022-10-28T09:04:50.000Z</time>
      </trkpt>
      <trkpt lat="45.19277" lon="5.54625">
        <ele>1255.24</ele>
        <time>2022-10-28T09:05:06.000Z</time>
      </trkpt>
      <trkpt lat="45.19258" lon="5.5464">
        <ele>1258.48</ele>
        <time>2022-10-28T09:05:16.000Z</time>
      </trkpt>
      <trkpt lat="45.19243" lon="5.54657">
        <ele>1261.63</ele>
        <time>2022-10-28T09:05:26.000Z</time>
      </trkpt>
      <trkpt lat="45.19225" lon="5.54665">
        <ele>1262.78</ele>
        <time>2022-10-28T09:05:34.000Z</time>
      </trkpt>
      <trkpt lat="45.19206" lon="5.54663">
        <ele>1262.85</ele>
        <time>2022-10-28T09:05:42.000Z</time>
      </trkpt>
      <trkpt lat="45.19188" lon="5.54656">
        <ele>1262.44</ele>
        <time>2022-10-28T09:05:50.000Z</time>
      </trkpt>
      <trkpt lat="45.19168" lon="5.54645">
        <ele>1261.04</ele>
        <time>2022-10-28T09:06:00.000Z</time>
      </trkpt>
      <trkpt lat="45.19149" lon="5.54634">
        <ele>1259.5</ele>
        <time>2022-10-28T09:06:06.000Z</time>
      </trkpt>
      <trkpt lat="45.1913" lon="5.54638">
        <ele>1258.74</ele>
        <time>2022-10-28T09:07:26.000Z</time>
      </trkpt>
      <trkpt lat="45.19133" lon="5.5467">
        <ele>1261.5</ele>
        <time>2022-10-28T09:07:36.000Z</time>
      </trkpt>
      <trkpt lat="45.19147" lon="5.54687">
        <ele>1265.15</ele>
        <time>2022-10-28T09:07:44.000Z</time>
      </trkpt>
      <trkpt lat="45.19164" lon="5.54696">
        <ele>1268.43</ele>
        <time>2022-10-28T09:08:00.000Z</time>
      </trkpt>
      <trkpt lat="45.19183" lon="5.54703">
        <ele>1270.21</ele>
        <time>2022-10-28T09:08:12.000Z</time>
      </trkpt>
      <trkpt lat="45.19202" lon="5.54713">
        <ele>1272.6</ele>
        <time>2022-10-28T09:08:24.000Z</time>
      </trkpt>
      <trkpt lat="45.1922" lon="5.54726">
        <ele>1275.97</ele>
        <time>2022-10-28T09:08:36.000Z</time>
      </trkpt>
      <trkpt lat="45.19238" lon="5.54738">
        <ele>1278.25</ele>
        <time>2022-10-28T09:08:50.000Z</time>
      </trkpt>
      <trkpt lat="45.19259" lon="5.54747">
        <ele>1279.44</ele>
        <time>2022-10-28T09:09:06.000Z</time>
      </trkpt>
      <trkpt lat="45.19278" lon="5.54752">
        <ele>1280.06</ele>
        <time>2022-10-28T09:09:16.000Z</time>
      </trkpt>
      <trkpt lat="45.19297" lon="5.54756">
        <ele>1280.41</ele>
        <time>2022-10-28T09:09:24.000Z</time>
      </trkpt>
      <trkpt lat="45.19316" lon="5.54768">
        <ele>1281.4</ele>
        <time>2022-10-28T09:09:32.000Z</time>
      </trkpt>
      <trkpt lat="45.19335" lon="5.54776">
        <ele>1282.75</ele>
        <time>2022-10-28T09:09:42.000Z</time>
      </trkpt>
      <trkpt lat="45.19355" lon="5.5479">
        <ele>1283.81</ele>
        <time>2022-10-28T09:09:52.000Z</time>
      </trkpt>
      <trkpt lat="45.19375" lon="5.54796">
        <ele>1284.26</ele>
        <time>2022-10-28T09:10:00.000Z</time>
      </trkpt>
      <trkpt lat="45.19395" lon="5.54795">
        <ele>1284.59</ele>
        <time>2022-10-28T09:10:10.000Z</time>
      </trkpt>
      <trkpt lat="45.19415" lon="5.54795">
        <ele>1284.4</ele>
        <time>2022-10-28T09:10:18.000Z</time>
      </trkpt>
      <trkpt lat="45.19434" lon="5.54797">
        <ele>1284.49</ele>
        <time>2022-10-28T09:10:26.000Z</time>
      </trkpt>
      <trkpt lat="45.19452" lon="5.54803">
        <ele>1284.7</ele>
        <time>2022-10-28T09:10:34.000Z</time>
      </trkpt>
      <trkpt lat="45.19471" lon="5.54813">
        <ele>1284.86</ele>
        <time>2022-10-28T09:10:48.000Z</time>
      </trkpt>
      <trkpt lat="45.19488" lon="5.54823">
        <ele>1285.77</ele>
        <time>2022-10-28T09:11:02.000Z</time>
      </trkpt>
      <trkpt lat="45.19506" lon="5.5483">
        <ele>1288.18</ele>
        <time>2022-10-28T09:11:18.000Z</time>
      </trkpt>
      <trkpt lat="45.19524" lon="5.54826">
        <ele>1291.65</ele>
        <time>2022-10-28T09:11:32.000Z</time>
      </trkpt>
      <trkpt lat="45.19545" lon="5.54828">
        <ele>1295.9</ele>
        <time>2022-10-28T09:11:46.000Z</time>
      </trkpt>
      <trkpt lat="45.19562" lon="5.54833">
        <ele>1299.31</ele>
        <time>2022-10-28T09:12:00.000Z</time>
      </trkpt>
      <trkpt lat="45.19586" lon="5.54837">
        <ele>1303.53</ele>
        <time>2022-10-28T09:12:20.000Z</time>
      </trkpt>
      <trkpt lat="45.19605" lon="5.54838">
        <ele>1305.85</ele>
        <time>2022-10-28T09:12:34.000Z</time>
      </trkpt>
      <trkpt lat="45.19624" lon="5.54838">
        <ele>1307.3</ele>
        <time>2022-10-28T09:12:44.000Z</time>
      </trkpt>
      <trkpt lat="45.19643" lon="5.54835">
        <ele>1308.17</ele>
        <time>2022-10-28T09:12:54.000Z</time>
      </trkpt>
      <trkpt lat="45.19663" lon="5.54829">
        <ele>1309.78</ele>
        <time>2022-10-28T09:13:08.000Z</time>
      </trkpt>
      <trkpt lat="45.19682" lon="5.5483">
        <ele>1312.07</ele>
        <time>2022-10-28T09:13:20.000Z</time>
      </trkpt>
      <trkpt lat="45.19683" lon="5.54858">
        <ele>1311.69</ele>
        <time>2022-10-28T09:13:30.000Z</time>
      </trkpt>
      <trkpt lat="45.19679" lon="5.54887">
        <ele>1310.46</ele>
        <time>2022-10-28T09:13:38.000Z</time>
      </trkpt>
      <trkpt lat="45.19696" lon="5.54912">
        <ele>1309.57</ele>
        <time>2022-10-28T09:13:46.000Z</time>
      </trkpt>
      <trkpt lat="45.19715" lon="5.5492">
        <ele>1309.21</ele>
        <time>2022-10-28T09:14:18.000Z</time>
      </trkpt>
      <trkpt lat="45.1974" lon="5.54925">
        <ele>1307.23</ele>
        <time>2022-10-28T09:14:24.000Z</time>
      </trkpt>
      <trkpt lat="45.1976" lon="5.54913">
        <ele>1307.37</ele>
        <time>2022-10-28T09:14:28.000Z</time>
      </trkpt>
      <trkpt lat="45.19783" lon="5.54895">
        <ele>1307.73</ele>
        <time>2022-10-28T09:14:32.000Z</time>
      </trkpt>
      <trkpt lat="45.19806" lon="5.54875">
        <ele>1306.66</ele>
        <time>2022-10-28T09:14:36.000Z</time>
      </trkpt>
      <trkpt lat="45.19835" lon="5.54858">
        <ele>1302.79</ele>
        <time>2022-10-28T09:14:40.000Z</time>
      </trkpt>
      <trkpt lat="45.19851" lon="5.54843">
        <ele>1299.18</ele>
        <time>2022-10-28T09:14:42.000Z</time>
      </trkpt>
      <trkpt lat="45.19867" lon="5.54827">
        <ele>1295.7</ele>
        <time>2022-10-28T09:14:44.000Z</time>
      </trkpt>
      <trkpt lat="45.19882" lon="5.54812">
        <ele>1292.66</ele>
        <time>2022-10-28T09:14:46.000Z</time>
      </trkpt>
      <trkpt lat="45.19897" lon="5.54797">
        <ele>1290.73</ele>
        <time>2022-10-28T09:14:48.000Z</time>
      </trkpt>
      <trkpt lat="45.19913" lon="5.54783">
        <ele>1289.49</ele>
        <time>2022-10-28T09:14:50.000Z</time>
      </trkpt>
      <trkpt lat="45.1994" lon="5.5477">
        <ele>1290.34</ele>
        <time>2022-10-28T09:14:54.000Z</time>
      </trkpt>
      <trkpt lat="45.19953" lon="5.54799">
        <ele>1289.47</ele>
        <time>2022-10-28T09:14:58.000Z</time>
      </trkpt>
      <trkpt lat="45.19953" lon="5.54828">
        <ele>1288.54</ele>
        <time>2022-10-28T09:15:02.000Z</time>
      </trkpt>
      <trkpt lat="45.19957" lon="5.54855">
        <ele>1288.68</ele>
        <time>2022-10-28T09:15:06.000Z</time>
      </trkpt>
      <trkpt lat="45.19968" lon="5.54878">
        <ele>1289.66</ele>
        <time>2022-10-28T09:15:10.000Z</time>
      </trkpt>
      <trkpt lat="45.19982" lon="5.549">
        <ele>1290.79</ele>
        <time>2022-10-28T09:15:14.000Z</time>
      </trkpt>
      <trkpt lat="45.19985" lon="5.54927">
        <ele>1290.46</ele>
        <time>2022-10-28T09:15:18.000Z</time>
      </trkpt>
      <trkpt lat="45.19966" lon="5.54949">
        <ele>1287.98</ele>
        <time>2022-10-28T09:15:22.000Z</time>
      </trkpt>
      <trkpt lat="45.19947" lon="5.54976">
        <ele>1286.03</ele>
        <time>2022-10-28T09:15:26.000Z</time>
      </trkpt>
      <trkpt lat="45.19929" lon="5.55004">
        <ele>1284.68</ele>
        <time>2022-10-28T09:15:30.000Z</time>
      </trkpt>
      <trkpt lat="45.19919" lon="5.55039">
        <ele>1283.59</ele>
        <time>2022-10-28T09:15:34.000Z</time>
      </trkpt>
      <trkpt lat="45.19919" lon="5.55081">
        <ele>1282.04</ele>
        <time>2022-10-28T09:15:38.000Z</time>
      </trkpt>
      <trkpt lat="45.19908" lon="5.55129">
        <ele>1276.65</ele>
        <time>2022-10-28T09:15:42.000Z</time>
      </trkpt>
      <trkpt lat="45.19901" lon="5.55169">
        <ele>1275.44</ele>
        <time>2022-10-28T09:15:46.000Z</time>
      </trkpt>
      <trkpt lat="45.1992" lon="5.5518">
        <ele>1278.02</ele>
        <time>2022-10-28T09:15:58.000Z</time>
      </trkpt>
      <trkpt lat="45.19937" lon="5.55198">
        <ele>1280.41</ele>
        <time>2022-10-28T09:16:10.000Z</time>
      </trkpt>
      <trkpt lat="45.19953" lon="5.55213">
        <ele>1282.24</ele>
        <time>2022-10-28T09:16:20.000Z</time>
      </trkpt>
      <trkpt lat="45.19968" lon="5.55228">
        <ele>1283.61</ele>
        <time>2022-10-28T09:16:28.000Z</time>
      </trkpt>
      <trkpt lat="45.19971" lon="5.55258">
        <ele>1283.75</ele>
        <time>2022-10-28T09:16:34.000Z</time>
      </trkpt>
      <trkpt lat="45.19972" lon="5.55299">
        <ele>1282.53</ele>
        <time>2022-10-28T09:16:38.000Z</time>
      </trkpt>
      <trkpt lat="45.19976" lon="5.55327">
        <ele>1281.09</ele>
        <time>2022-10-28T09:16:40.000Z</time>
      </trkpt>
      <trkpt lat="45.19986" lon="5.5536">
        <ele>1277.68</ele>
        <time>2022-10-28T09:16:44.000Z</time>
      </trkpt>
      <trkpt lat="45.19999" lon="5.55384">
        <ele>1275.18</ele>
        <time>2022-10-28T09:16:50.000Z</time>
      </trkpt>
      <trkpt lat="45.2001" lon="5.55426">
        <ele>1270.99</ele>
        <time>2022-10-28T09:16:54.000Z</time>
      </trkpt>
      <trkpt lat="45.2002" lon="5.55451">
        <ele>1269.26</ele>
        <time>2022-10-28T09:16:56.000Z</time>
      </trkpt>
      <trkpt lat="45.20043" lon="5.55475">
        <ele>1269.21</ele>
        <time>2022-10-28T09:17:00.000Z</time>
      </trkpt>
      <trkpt lat="45.20063" lon="5.55463">
        <ele>1273.77</ele>
        <time>2022-10-28T09:17:10.000Z</time>
      </trkpt>
      <trkpt lat="45.20082" lon="5.55466">
        <ele>1276.3</ele>
        <time>2022-10-28T09:17:20.000Z</time>
      </trkpt>
      <trkpt lat="45.20104" lon="5.55463">
        <ele>1277.86</ele>
        <time>2022-10-28T09:17:28.000Z</time>
      </trkpt>
      <trkpt lat="45.20126" lon="5.55462">
        <ele>1279.11</ele>
        <time>2022-10-28T09:17:34.000Z</time>
      </trkpt>
      <trkpt lat="45.20146" lon="5.55461">
        <ele>1280.14</ele>
        <time>2022-10-28T09:17:38.000Z</time>
      </trkpt>
      <trkpt lat="45.20166" lon="5.55454">
        <ele>1282.69</ele>
        <time>2022-10-28T09:17:42.000Z</time>
      </trkpt>
      <trkpt lat="45.20187" lon="5.55456">
        <ele>1285.3</ele>
        <time>2022-10-28T09:17:48.000Z</time>
      </trkpt>
      <trkpt lat="45.20208" lon="5.5547">
        <ele>1285.51</ele>
        <time>2022-10-28T09:17:56.000Z</time>
      </trkpt>
      <trkpt lat="45.20224" lon="5.55487">
        <ele>1284.56</ele>
        <time>2022-10-28T09:18:04.000Z</time>
      </trkpt>
      <trkpt lat="45.20243" lon="5.55503">
        <ele>1283.03</ele>
        <time>2022-10-28T09:18:12.000Z</time>
      </trkpt>
      <trkpt lat="45.20264" lon="5.55504">
        <ele>1283.5</ele>
        <time>2022-10-28T09:18:20.000Z</time>
      </trkpt>
      <trkpt lat="45.20288" lon="5.55509">
        <ele>1283.33</ele>
        <time>2022-10-28T09:18:26.000Z</time>
      </trkpt>
      <trkpt lat="45.20308" lon="5.55513">
        <ele>1283.13</ele>
        <time>2022-10-28T09:18:32.000Z</time>
      </trkpt>
      <trkpt lat="45.20335" lon="5.55516">
        <ele>1283.84</ele>
        <time>2022-10-28T09:18:38.000Z</time>
      </trkpt>
      <trkpt lat="45.20356" lon="5.55525">
        <ele>1285.42</ele>
        <time>2022-10-28T09:18:44.000Z</time>
      </trkpt>
      <trkpt lat="45.20373" lon="5.55536">
        <ele>1287.57</ele>
        <time>2022-10-28T09:18:58.000Z</time>
      </trkpt>
      <trkpt lat="45.2039" lon="5.55552">
        <ele>1289.35</ele>
        <time>2022-10-28T09:19:14.000Z</time>
      </trkpt>
      <trkpt lat="45.20411" lon="5.55548">
        <ele>1293.21</ele>
        <time>2022-10-28T09:19:30.000Z</time>
      </trkpt>
      <trkpt lat="45.20431" lon="5.55555">
        <ele>1295.51</ele>
        <time>2022-10-28T09:19:44.000Z</time>
      </trkpt>
      <trkpt lat="45.20451" lon="5.55565">
        <ele>1296.76</ele>
        <time>2022-10-28T09:19:54.000Z</time>
      </trkpt>
      <trkpt lat="45.20471" lon="5.55563">
        <ele>1298.22</ele>
        <time>2022-10-28T09:20:04.000Z</time>
      </trkpt>
      <trkpt lat="45.20491" lon="5.55557">
        <ele>1299.51</ele>
        <time>2022-10-28T09:20:14.000Z</time>
      </trkpt>
      <trkpt lat="45.2051" lon="5.55545">
        <ele>1300.44</ele>
        <time>2022-10-28T09:20:26.000Z</time>
      </trkpt>
      <trkpt lat="45.20527" lon="5.55533">
        <ele>1301.33</ele>
        <time>2022-10-28T09:20:34.000Z</time>
      </trkpt>
      <trkpt lat="45.20545" lon="5.55517">
        <ele>1302.9</ele>
        <time>2022-10-28T09:20:44.000Z</time>
      </trkpt>
      <trkpt lat="45.20563" lon="5.55501">
        <ele>1304.93</ele>
        <time>2022-10-28T09:20:54.000Z</time>
      </trkpt>
      <trkpt lat="45.2058" lon="5.55489">
        <ele>1306.93</ele>
        <time>2022-10-28T09:21:06.000Z</time>
      </trkpt>
      <trkpt lat="45.20609" lon="5.55476">
        <ele>1308.31</ele>
        <time>2022-10-28T09:21:26.000Z</time>
      </trkpt>
      <trkpt lat="45.20628" lon="5.55472">
        <ele>1307.95</ele>
        <time>2022-10-28T09:21:36.000Z</time>
      </trkpt>
      <trkpt lat="45.20646" lon="5.55466">
        <ele>1307.32</ele>
        <time>2022-10-28T09:21:48.000Z</time>
      </trkpt>
      <trkpt lat="45.20663" lon="5.55451">
        <ele>1307.64</ele>
        <time>2022-10-28T09:21:56.000Z</time>
      </trkpt>
      <trkpt lat="45.20681" lon="5.55435">
        <ele>1308.87</ele>
        <time>2022-10-28T09:22:02.000Z</time>
      </trkpt>
      <trkpt lat="45.20699" lon="5.55426">
        <ele>1310.36</ele>
        <time>2022-10-28T09:22:12.000Z</time>
      </trkpt>
      <trkpt lat="45.20718" lon="5.55423">
        <ele>1313.34</ele>
        <time>2022-10-28T09:22:26.000Z</time>
      </trkpt>
      <trkpt lat="45.20737" lon="5.55424">
        <ele>1317.27</ele>
        <time>2022-10-28T09:22:40.000Z</time>
      </trkpt>
      <trkpt lat="45.20757" lon="5.55427">
        <ele>1321.42</ele>
        <time>2022-10-28T09:22:54.000Z</time>
      </trkpt>
      <trkpt lat="45.20776" lon="5.55423">
        <ele>1326.78</ele>
        <time>2022-10-28T09:23:08.000Z</time>
      </trkpt>
      <trkpt lat="45.20795" lon="5.55418">
        <ele>1329.73</ele>
        <time>2022-10-28T09:23:20.000Z</time>
      </trkpt>
      <trkpt lat="45.20813" lon="5.55411">
        <ele>1331.75</ele>
        <time>2022-10-28T09:23:36.000Z</time>
      </trkpt>
      <trkpt lat="45.20832" lon="5.55401">
        <ele>1333.24</ele>
        <time>2022-10-28T09:23:52.000Z</time>
      </trkpt>
      <trkpt lat="45.2085" lon="5.55389">
        <ele>1335.24</ele>
        <time>2022-10-28T09:24:02.000Z</time>
      </trkpt>
      <trkpt lat="45.20869" lon="5.55379">
        <ele>1336.72</ele>
        <time>2022-10-28T09:24:18.000Z</time>
      </trkpt>
      <trkpt lat="45.20888" lon="5.55372">
        <ele>1337.88</ele>
        <time>2022-10-28T09:24:34.000Z</time>
      </trkpt>
      <trkpt lat="45.20906" lon="5.55363">
        <ele>1340.16</ele>
        <time>2022-10-28T09:24:46.000Z</time>
      </trkpt>
      <trkpt lat="45.20925" lon="5.55363">
        <ele>1341.34</ele>
        <time>2022-10-28T09:25:00.000Z</time>
      </trkpt>
      <trkpt lat="45.20947" lon="5.55365">
        <ele>1342.5</ele>
        <time>2022-10-28T09:25:20.000Z</time>
      </trkpt>
      <trkpt lat="45.20973" lon="5.55365">
        <ele>1344.28</ele>
        <time>2022-10-28T09:25:40.000Z</time>
      </trkpt>
      <trkpt lat="45.20993" lon="5.55363">
        <ele>1345.89</ele>
        <time>2022-10-28T09:25:50.000Z</time>
      </trkpt>
      <trkpt lat="45.21013" lon="5.5536">
        <ele>1347.73</ele>
        <time>2022-10-28T09:26:04.000Z</time>
      </trkpt>
      <trkpt lat="45.21034" lon="5.55362">
        <ele>1347.79</ele>
        <time>2022-10-28T09:26:16.000Z</time>
      </trkpt>
      <trkpt lat="45.21056" lon="5.55363">
        <ele>1347.52</ele>
        <time>2022-10-28T09:26:24.000Z</time>
      </trkpt>
      <trkpt lat="45.21075" lon="5.55361">
        <ele>1348.63</ele>
        <time>2022-10-28T09:26:30.000Z</time>
      </trkpt>
      <trkpt lat="45.21095" lon="5.55361">
        <ele>1349.38</ele>
        <time>2022-10-28T09:26:38.000Z</time>
      </trkpt>
      <trkpt lat="45.21116" lon="5.55361">
        <ele>1350.33</ele>
        <time>2022-10-28T09:26:48.000Z</time>
      </trkpt>
      <trkpt lat="45.21141" lon="5.55368">
        <ele>1350.94</ele>
        <time>2022-10-28T09:26:56.000Z</time>
      </trkpt>
      <trkpt lat="45.21161" lon="5.5538">
        <ele>1350.21</ele>
        <time>2022-10-28T09:27:04.000Z</time>
      </trkpt>
      <trkpt lat="45.21184" lon="5.55384">
        <ele>1351.09</ele>
        <time>2022-10-28T09:27:14.000Z</time>
      </trkpt>
      <trkpt lat="45.21206" lon="5.55385">
        <ele>1352.41</ele>
        <time>2022-10-28T09:27:20.000Z</time>
      </trkpt>
      <trkpt lat="45.21232" lon="5.55386">
        <ele>1354.07</ele>
        <time>2022-10-28T09:27:26.000Z</time>
      </trkpt>
      <trkpt lat="45.2125" lon="5.55391">
        <ele>1354.54</ele>
        <time>2022-10-28T09:27:32.000Z</time>
      </trkpt>
      <trkpt lat="45.21274" lon="5.55393">
        <ele>1355.66</ele>
        <time>2022-10-28T09:27:40.000Z</time>
      </trkpt>
      <trkpt lat="45.21297" lon="5.55402">
        <ele>1355.67</ele>
        <time>2022-10-28T09:27:48.000Z</time>
      </trkpt>
      <trkpt lat="45.21318" lon="5.55408">
        <ele>1356.29</ele>
        <time>2022-10-28T09:27:56.000Z</time>
      </trkpt>
      <trkpt lat="45.21341" lon="5.55411">
        <ele>1359.18</ele>
        <time>2022-10-28T09:28:06.000Z</time>
      </trkpt>
      <trkpt lat="45.21363" lon="5.55411">
        <ele>1361.98</ele>
        <time>2022-10-28T09:28:14.000Z</time>
      </trkpt>
      <trkpt lat="45.21383" lon="5.55413">
        <ele>1363.3</ele>
        <time>2022-10-28T09:28:24.000Z</time>
      </trkpt>
      <trkpt lat="45.21401" lon="5.55409">
        <ele>1365.12</ele>
        <time>2022-10-28T09:28:34.000Z</time>
      </trkpt>
      <trkpt lat="45.21422" lon="5.55407">
        <ele>1366.13</ele>
        <time>2022-10-28T09:28:44.000Z</time>
      </trkpt>
      <trkpt lat="45.2144" lon="5.55411">
        <ele>1366.07</ele>
        <time>2022-10-28T09:28:52.000Z</time>
      </trkpt>
      <trkpt lat="45.21459" lon="5.5542">
        <ele>1364.57</ele>
        <time>2022-10-28T09:29:02.000Z</time>
      </trkpt>
      <trkpt lat="45.21479" lon="5.5543">
        <ele>1362.95</ele>
        <time>2022-10-28T09:29:10.000Z</time>
      </trkpt>
      <trkpt lat="45.21501" lon="5.55439">
        <ele>1361.39</ele>
        <time>2022-10-28T09:29:18.000Z</time>
      </trkpt>
      <trkpt lat="45.21522" lon="5.55434">
        <ele>1362.24</ele>
        <time>2022-10-28T09:29:28.000Z</time>
      </trkpt>
      <trkpt lat="45.21543" lon="5.55432">
        <ele>1362.7</ele>
        <time>2022-10-28T09:29:36.000Z</time>
      </trkpt>
      <trkpt lat="45.21562" lon="5.5543">
        <ele>1362.93</ele>
        <time>2022-10-28T09:29:42.000Z</time>
      </trkpt>
      <trkpt lat="45.21583" lon="5.55421">
        <ele>1364.75</ele>
        <time>2022-10-28T09:29:50.000Z</time>
      </trkpt>
      <trkpt lat="45.21601" lon="5.55412">
        <ele>1365.65</ele>
        <time>2022-10-28T09:29:56.000Z</time>
      </trkpt>
      <trkpt lat="45.21621" lon="5.55412">
        <ele>1363.17</ele>
        <time>2022-10-28T09:30:02.000Z</time>
      </trkpt>
      <trkpt lat="45.21644" lon="5.55414">
        <ele>1358.13</ele>
        <time>2022-10-28T09:30:08.000Z</time>
      </trkpt>
      <trkpt lat="45.21664" lon="5.55409">
        <ele>1356.05</ele>
        <time>2022-10-28T09:30:12.000Z</time>
      </trkpt>
      <trkpt lat="45.21685" lon="5.55401">
        <ele>1355.2</ele>
        <time>2022-10-28T09:31:28.000Z</time>
      </trkpt>
      <trkpt lat="45.21706" lon="5.55386">
        <ele>1356.85</ele>
        <time>2022-10-28T09:31:36.000Z</time>
      </trkpt>
      <trkpt lat="45.21726" lon="5.5538">
        <ele>1357.62</ele>
        <time>2022-10-28T09:31:44.000Z</time>
      </trkpt>
      <trkpt lat="45.21744" lon="5.55384">
        <ele>1356.49</ele>
        <time>2022-10-28T09:31:54.000Z</time>
      </trkpt>
      <trkpt lat="45.21763" lon="5.55398">
        <ele>1354.32</ele>
        <time>2022-10-28T09:33:22.000Z</time>
      </trkpt>
      <trkpt lat="45.2178" lon="5.55409">
        <ele>1352.57</ele>
        <time>2022-10-28T09:33:30.000Z</time>
      </trkpt>
      <trkpt lat="45.21796" lon="5.55422">
        <ele>1351.04</ele>
        <time>2022-10-28T09:33:38.000Z</time>
      </trkpt>
      <trkpt lat="45.2179" lon="5.55454">
        <ele>1345.04</ele>
        <time>2022-10-28T09:33:48.000Z</time>
      </trkpt>
      <trkpt lat="45.21769" lon="5.55464">
        <ele>1341.36</ele>
        <time>2022-10-28T09:33:56.000Z</time>
      </trkpt>
      <trkpt lat="45.21748" lon="5.55454">
        <ele>1341.68</ele>
        <time>2022-10-28T09:34:02.000Z</time>
      </trkpt>
      <trkpt lat="45.21728" lon="5.55451">
        <ele>1341.87</ele>
        <time>2022-10-28T09:34:06.000Z</time>
      </trkpt>
      <trkpt lat="45.21716" lon="5.5548">
        <ele>1335.96</ele>
        <time>2022-10-28T09:34:12.000Z</time>
      </trkpt>
      <trkpt lat="45.21725" lon="5.55508">
        <ele>1329.32</ele>
        <time>2022-10-28T09:34:16.000Z</time>
      </trkpt>
      <trkpt lat="45.21751" lon="5.55511">
        <ele>1328.9</ele>
        <time>2022-10-28T09:34:20.000Z</time>
      </trkpt>
      <trkpt lat="45.21775" lon="5.5553">
        <ele>1326.83</ele>
        <time>2022-10-28T09:34:26.000Z</time>
      </trkpt>
      <trkpt lat="45.21794" lon="5.55558">
        <ele>1323.18</ele>
        <time>2022-10-28T09:34:30.000Z</time>
      </trkpt>
      <trkpt lat="45.21808" lon="5.55583">
        <ele>1320.71</ele>
        <time>2022-10-28T09:34:34.000Z</time>
      </trkpt>
      <trkpt lat="45.21818" lon="5.55605">
        <ele>1319</ele>
        <time>2022-10-28T09:34:38.000Z</time>
      </trkpt>
      <trkpt lat="45.2182" lon="5.55634">
        <ele>1316.06</ele>
        <time>2022-10-28T09:34:44.000Z</time>
      </trkpt>
      <trkpt lat="45.21807" lon="5.55665">
        <ele>1311.85</ele>
        <time>2022-10-28T09:34:50.000Z</time>
      </trkpt>
      <trkpt lat="45.21793" lon="5.55695">
        <ele>1309.15</ele>
        <time>2022-10-28T09:34:54.000Z</time>
      </trkpt>
      <trkpt lat="45.21784" lon="5.55723">
        <ele>1305.54</ele>
        <time>2022-10-28T09:35:00.000Z</time>
      </trkpt>
      <trkpt lat="45.21797" lon="5.55751">
        <ele>1303.28</ele>
        <time>2022-10-28T09:35:54.000Z</time>
      </trkpt>
      <trkpt lat="45.21812" lon="5.55773">
        <ele>1301.68</ele>
        <time>2022-10-28T09:35:58.000Z</time>
      </trkpt>
      <trkpt lat="45.21831" lon="5.55788">
        <ele>1300.5</ele>
        <time>2022-10-28T09:36:02.000Z</time>
      </trkpt>
      <trkpt lat="45.21825" lon="5.55813">
        <ele>1298.86</ele>
        <time>2022-10-28T09:36:12.000Z</time>
      </trkpt>
      <trkpt lat="45.21806" lon="5.55835">
        <ele>1298.08</ele>
        <time>2022-10-28T09:36:18.000Z</time>
      </trkpt>
      <trkpt lat="45.218" lon="5.55866">
        <ele>1296.87</ele>
        <time>2022-10-28T09:36:26.000Z</time>
      </trkpt>
      <trkpt lat="45.21803" lon="5.55898">
        <ele>1296.49</ele>
        <time>2022-10-28T09:36:36.000Z</time>
      </trkpt>
      <trkpt lat="45.21817" lon="5.55922">
        <ele>1296.16</ele>
        <time>2022-10-28T09:36:42.000Z</time>
      </trkpt>
      <trkpt lat="45.2183" lon="5.55946">
        <ele>1295.7</ele>
        <time>2022-10-28T09:36:48.000Z</time>
      </trkpt>
      <trkpt lat="45.21844" lon="5.55973">
        <ele>1294.59</ele>
        <time>2022-10-28T09:36:54.000Z</time>
      </trkpt>
      <trkpt lat="45.21855" lon="5.55995">
        <ele>1293.91</ele>
        <time>2022-10-28T09:36:58.000Z</time>
      </trkpt>
      <trkpt lat="45.21848" lon="5.56023">
        <ele>1292.26</ele>
        <time>2022-10-28T09:37:02.000Z</time>
      </trkpt>
      <trkpt lat="45.21825" lon="5.56027">
        <ele>1289.72</ele>
        <time>2022-10-28T09:37:08.000Z</time>
      </trkpt>
      <trkpt lat="45.21826" lon="5.56052">
        <ele>1288.6</ele>
        <time>2022-10-28T09:37:18.000Z</time>
      </trkpt>
      <trkpt lat="45.21836" lon="5.56081">
        <ele>1287.68</ele>
        <time>2022-10-28T09:37:24.000Z</time>
      </trkpt>
      <trkpt lat="45.21847" lon="5.5611">
        <ele>1289.22</ele>
        <time>2022-10-28T09:37:30.000Z</time>
      </trkpt>
      <trkpt lat="45.21861" lon="5.56134">
        <ele>1289.91</ele>
        <time>2022-10-28T09:37:36.000Z</time>
      </trkpt>
      <trkpt lat="45.21874" lon="5.56159">
        <ele>1289.79</ele>
        <time>2022-10-28T09:37:42.000Z</time>
      </trkpt>
      <trkpt lat="45.21887" lon="5.5618">
        <ele>1289.51</ele>
        <time>2022-10-28T09:37:48.000Z</time>
      </trkpt>
      <trkpt lat="45.219" lon="5.56202">
        <ele>1289.79</ele>
        <time>2022-10-28T09:37:54.000Z</time>
      </trkpt>
      <trkpt lat="45.21914" lon="5.56221">
        <ele>1290.8</ele>
        <time>2022-10-28T09:38:00.000Z</time>
      </trkpt>
      <trkpt lat="45.21926" lon="5.56243">
        <ele>1292.25</ele>
        <time>2022-10-28T09:38:06.000Z</time>
      </trkpt>
      <trkpt lat="45.2194" lon="5.5627">
        <ele>1294.29</ele>
        <time>2022-10-28T09:38:14.000Z</time>
      </trkpt>
      <trkpt lat="45.21953" lon="5.56293">
        <ele>1296.16</ele>
        <time>2022-10-28T09:38:22.000Z</time>
      </trkpt>
      <trkpt lat="45.21968" lon="5.56318">
        <ele>1297.72</ele>
        <time>2022-10-28T09:38:30.000Z</time>
      </trkpt>
      <trkpt lat="45.2198" lon="5.56342">
        <ele>1299.2</ele>
        <time>2022-10-28T09:38:38.000Z</time>
      </trkpt>
      <trkpt lat="45.21988" lon="5.56372">
        <ele>1300.56</ele>
        <time>2022-10-28T09:38:48.000Z</time>
      </trkpt>
      <trkpt lat="45.22" lon="5.56398">
        <ele>1301.55</ele>
        <time>2022-10-28T09:38:58.000Z</time>
      </trkpt>
      <trkpt lat="45.22013" lon="5.56421">
        <ele>1302.86</ele>
        <time>2022-10-28T09:39:08.000Z</time>
      </trkpt>
      <trkpt lat="45.22028" lon="5.5644">
        <ele>1303.67</ele>
        <time>2022-10-28T09:39:20.000Z</time>
      </trkpt>
      <trkpt lat="45.22038" lon="5.56466">
        <ele>1305.46</ele>
        <time>2022-10-28T09:39:30.000Z</time>
      </trkpt>
      <trkpt lat="45.2205" lon="5.56489">
        <ele>1306.12</ele>
        <time>2022-10-28T09:39:40.000Z</time>
      </trkpt>
      <trkpt lat="45.2206" lon="5.56517">
        <ele>1306.89</ele>
        <time>2022-10-28T09:39:50.000Z</time>
      </trkpt>
      <trkpt lat="45.22065" lon="5.56542">
        <ele>1308.35</ele>
        <time>2022-10-28T09:39:58.000Z</time>
      </trkpt>
      <trkpt lat="45.22073" lon="5.56569">
        <ele>1309.38</ele>
        <time>2022-10-28T09:40:06.000Z</time>
      </trkpt>
      <trkpt lat="45.2208" lon="5.56598">
        <ele>1310.58</ele>
        <time>2022-10-28T09:40:14.000Z</time>
      </trkpt>
      <trkpt lat="45.22085" lon="5.56631">
        <ele>1311.59</ele>
        <time>2022-10-28T09:40:22.000Z</time>
      </trkpt>
      <trkpt lat="45.2209" lon="5.56656">
        <ele>1312.1</ele>
        <time>2022-10-28T09:40:28.000Z</time>
      </trkpt>
      <trkpt lat="45.22093" lon="5.56682">
        <ele>1312.77</ele>
        <time>2022-10-28T09:40:34.000Z</time>
      </trkpt>
      <trkpt lat="45.22097" lon="5.56707">
        <ele>1313.8</ele>
        <time>2022-10-28T09:40:40.000Z</time>
      </trkpt>
      <trkpt lat="45.22101" lon="5.56732">
        <ele>1314.84</ele>
        <time>2022-10-28T09:40:46.000Z</time>
      </trkpt>
      <trkpt lat="45.22105" lon="5.56757">
        <ele>1315.75</ele>
        <time>2022-10-28T09:40:52.000Z</time>
      </trkpt>
      <trkpt lat="45.2211" lon="5.56785">
        <ele>1316.17</ele>
        <time>2022-10-28T09:41:00.000Z</time>
      </trkpt>
      <trkpt lat="45.22117" lon="5.56809">
        <ele>1317.44</ele>
        <time>2022-10-28T09:41:10.000Z</time>
      </trkpt>
      <trkpt lat="45.2213" lon="5.56831">
        <ele>1318.6</ele>
        <time>2022-10-28T09:41:22.000Z</time>
      </trkpt>
      <trkpt lat="45.22142" lon="5.56854">
        <ele>1320.75</ele>
        <time>2022-10-28T09:41:36.000Z</time>
      </trkpt>
      <trkpt lat="45.22152" lon="5.56876">
        <ele>1324.2</ele>
        <time>2022-10-28T09:41:50.000Z</time>
      </trkpt>
      <trkpt lat="45.22163" lon="5.56895">
        <ele>1327.15</ele>
        <time>2022-10-28T09:42:06.000Z</time>
      </trkpt>
      <trkpt lat="45.22176" lon="5.56915">
        <ele>1329.45</ele>
        <time>2022-10-28T09:42:20.000Z</time>
      </trkpt>
      <trkpt lat="45.22191" lon="5.56938">
        <ele>1331.97</ele>
        <time>2022-10-28T09:42:44.000Z</time>
      </trkpt>
      <trkpt lat="45.22214" lon="5.56951">
        <ele>1335.6</ele>
        <time>2022-10-28T09:43:08.000Z</time>
      </trkpt>
      <trkpt lat="45.22236" lon="5.5696">
        <ele>1338.92</ele>
        <time>2022-10-28T09:43:32.000Z</time>
      </trkpt>
      <trkpt lat="45.22259" lon="5.56968">
        <ele>1341.69</ele>
        <time>2022-10-28T09:43:52.000Z</time>
      </trkpt>
      <trkpt lat="45.22274" lon="5.56985">
        <ele>1345.28</ele>
        <time>2022-10-28T09:44:46.000Z</time>
      </trkpt>
      <trkpt lat="45.22292" lon="5.56997">
        <ele>1347.76</ele>
        <time>2022-10-28T09:45:04.000Z</time>
      </trkpt>
      <trkpt lat="45.22314" lon="5.57007">
        <ele>1349.81</ele>
        <time>2022-10-28T09:45:14.000Z</time>
      </trkpt>
      <trkpt lat="45.22332" lon="5.57015">
        <ele>1351.55</ele>
        <time>2022-10-28T09:45:30.000Z</time>
      </trkpt>
      <trkpt lat="45.22351" lon="5.57029">
        <ele>1354.05</ele>
        <time>2022-10-28T09:45:42.000Z</time>
      </trkpt>
      <trkpt lat="45.22345" lon="5.57054">
        <ele>1358.11</ele>
        <time>2022-10-28T09:46:08.000Z</time>
      </trkpt>
      <trkpt lat="45.22327" lon="5.57057">
        <ele>1358.21</ele>
        <time>2022-10-28T09:46:24.000Z</time>
      </trkpt>
      <trkpt lat="45.22322" lon="5.57084">
        <ele>1362.37</ele>
        <time>2022-10-28T09:46:50.000Z</time>
      </trkpt>
      <trkpt lat="45.22328" lon="5.5711">
        <ele>1366.22</ele>
        <time>2022-10-28T09:47:04.000Z</time>
      </trkpt>
      <trkpt lat="45.22323" lon="5.57136">
        <ele>1369.2</ele>
        <time>2022-10-28T09:47:26.000Z</time>
      </trkpt>
      <trkpt lat="45.22309" lon="5.57157">
        <ele>1370.23</ele>
        <time>2022-10-28T09:47:42.000Z</time>
      </trkpt>
      <trkpt lat="45.22299" lon="5.57179">
        <ele>1371.57</ele>
        <time>2022-10-28T09:47:52.000Z</time>
      </trkpt>
      <trkpt lat="45.22309" lon="5.57201">
        <ele>1373.53</ele>
        <time>2022-10-28T09:48:12.000Z</time>
      </trkpt>
      <trkpt lat="45.22324" lon="5.57219">
        <ele>1375.35</ele>
        <time>2022-10-28T09:48:20.000Z</time>
      </trkpt>
      <trkpt lat="45.22338" lon="5.57237">
        <ele>1377.26</ele>
        <time>2022-10-28T09:48:30.000Z</time>
      </trkpt>
      <trkpt lat="45.22355" lon="5.57223">
        <ele>1377.62</ele>
        <time>2022-10-28T09:48:40.000Z</time>
      </trkpt>
      <trkpt lat="45.22374" lon="5.57222">
        <ele>1378.85</ele>
        <time>2022-10-28T09:48:52.000Z</time>
      </trkpt>
      <trkpt lat="45.22393" lon="5.57233">
        <ele>1381.26</ele>
        <time>2022-10-28T09:49:06.000Z</time>
      </trkpt>
      <trkpt lat="45.22412" lon="5.57226">
        <ele>1383.54</ele>
        <time>2022-10-28T09:49:18.000Z</time>
      </trkpt>
      <trkpt lat="45.22428" lon="5.57211">
        <ele>1386.27</ele>
        <time>2022-10-28T09:49:30.000Z</time>
      </trkpt>
      <trkpt lat="45.2244" lon="5.57191">
        <ele>1387.95</ele>
        <time>2022-10-28T09:49:44.000Z</time>
      </trkpt>
      <trkpt lat="45.22454" lon="5.57171">
        <ele>1389.57</ele>
        <time>2022-10-28T09:50:00.000Z</time>
      </trkpt>
      <trkpt lat="45.22472" lon="5.57157">
        <ele>1390.49</ele>
        <time>2022-10-28T09:50:14.000Z</time>
      </trkpt>
      <trkpt lat="45.2249" lon="5.57151">
        <ele>1391</ele>
        <time>2022-10-28T09:50:26.000Z</time>
      </trkpt>
      <trkpt lat="45.22508" lon="5.57151">
        <ele>1391.97</ele>
        <time>2022-10-28T09:50:38.000Z</time>
      </trkpt>
      <trkpt lat="45.2253" lon="5.57152">
        <ele>1393.28</ele>
        <time>2022-10-28T09:50:52.000Z</time>
      </trkpt>
      <trkpt lat="45.22549" lon="5.57159">
        <ele>1395.13</ele>
        <time>2022-10-28T09:51:04.000Z</time>
      </trkpt>
      <trkpt lat="45.22565" lon="5.57172">
        <ele>1397.67</ele>
        <time>2022-10-28T09:51:14.000Z</time>
      </trkpt>
      <trkpt lat="45.22579" lon="5.57195">
        <ele>1401.56</ele>
        <time>2022-10-28T09:51:26.000Z</time>
      </trkpt>
      <trkpt lat="45.22588" lon="5.57217">
        <ele>1405.9</ele>
        <time>2022-10-28T09:51:40.000Z</time>
      </trkpt>
      <trkpt lat="45.2259" lon="5.57243">
        <ele>1409.48</ele>
        <time>2022-10-28T09:51:52.000Z</time>
      </trkpt>
      <trkpt lat="45.22595" lon="5.5727">
        <ele>1412.37</ele>
        <time>2022-10-28T09:52:04.000Z</time>
      </trkpt>
      <trkpt lat="45.22608" lon="5.57292">
        <ele>1415.36</ele>
        <time>2022-10-28T09:52:18.000Z</time>
      </trkpt>
      <trkpt lat="45.22626" lon="5.57302">
        <ele>1417.01</ele>
        <time>2022-10-28T09:52:30.000Z</time>
      </trkpt>
      <trkpt lat="45.22644" lon="5.57315">
        <ele>1417.51</ele>
        <time>2022-10-28T09:52:40.000Z</time>
      </trkpt>
      <trkpt lat="45.22664" lon="5.57333">
        <ele>1416.22</ele>
        <time>2022-10-28T09:52:48.000Z</time>
      </trkpt>
      <trkpt lat="45.22684" lon="5.57348">
        <ele>1414.04</ele>
        <time>2022-10-28T09:52:54.000Z</time>
      </trkpt>
      <trkpt lat="45.22705" lon="5.57357">
        <ele>1412.17</ele>
        <time>2022-10-28T09:52:58.000Z</time>
      </trkpt>
      <trkpt lat="45.22733" lon="5.57371">
        <ele>1409.66</ele>
        <time>2022-10-28T09:53:02.000Z</time>
      </trkpt>
      <trkpt lat="45.22762" lon="5.57387">
        <ele>1407.22</ele>
        <time>2022-10-28T09:53:06.000Z</time>
      </trkpt>
      <trkpt lat="45.22793" lon="5.57398">
        <ele>1406.2</ele>
        <time>2022-10-28T09:53:10.000Z</time>
      </trkpt>
      <trkpt lat="45.22813" lon="5.57408">
        <ele>1405.84</ele>
        <time>2022-10-28T09:53:14.000Z</time>
      </trkpt>
      <trkpt lat="45.22831" lon="5.57415">
        <ele>1406.02</ele>
        <time>2022-10-28T09:53:20.000Z</time>
      </trkpt>
      <trkpt lat="45.2285" lon="5.57418">
        <ele>1407.46</ele>
        <time>2022-10-28T09:53:28.000Z</time>
      </trkpt>
      <trkpt lat="45.2287" lon="5.57423">
        <ele>1409.29</ele>
        <time>2022-10-28T09:53:40.000Z</time>
      </trkpt>
      <trkpt lat="45.22891" lon="5.57422">
        <ele>1411.98</ele>
        <time>2022-10-28T09:53:52.000Z</time>
      </trkpt>
      <trkpt lat="45.22912" lon="5.5742">
        <ele>1413.92</ele>
        <time>2022-10-28T09:54:02.000Z</time>
      </trkpt>
      <trkpt lat="45.22931" lon="5.57415">
        <ele>1416.7</ele>
        <time>2022-10-28T09:54:12.000Z</time>
      </trkpt>
      <trkpt lat="45.22951" lon="5.57413">
        <ele>1419.25</ele>
        <time>2022-10-28T09:54:28.000Z</time>
      </trkpt>
      <trkpt lat="45.2297" lon="5.57417">
        <ele>1420.57</ele>
        <time>2022-10-28T09:54:42.000Z</time>
      </trkpt>
      <trkpt lat="45.22988" lon="5.57422">
        <ele>1421.88</ele>
        <time>2022-10-28T09:54:56.000Z</time>
      </trkpt>
      <trkpt lat="45.23007" lon="5.57415">
        <ele>1424.7</ele>
        <time>2022-10-28T09:55:08.000Z</time>
      </trkpt>
      <trkpt lat="45.23025" lon="5.57413">
        <ele>1427.2</ele>
        <time>2022-10-28T09:55:22.000Z</time>
      </trkpt>
      <trkpt lat="45.23046" lon="5.57415">
        <ele>1429.64</ele>
        <time>2022-10-28T09:55:36.000Z</time>
      </trkpt>
      <trkpt lat="45.23064" lon="5.57431">
        <ele>1431.04</ele>
        <time>2022-10-28T09:55:46.000Z</time>
      </trkpt>
      <trkpt lat="45.23076" lon="5.57452">
        <ele>1431.88</ele>
        <time>2022-10-28T09:55:56.000Z</time>
      </trkpt>
      <trkpt lat="45.23086" lon="5.57476">
        <ele>1433.41</ele>
        <time>2022-10-28T09:56:06.000Z</time>
      </trkpt>
      <trkpt lat="45.23093" lon="5.57502">
        <ele>1435.08</ele>
        <time>2022-10-28T09:56:16.000Z</time>
      </trkpt>
      <trkpt lat="45.23095" lon="5.57529">
        <ele>1436.47</ele>
        <time>2022-10-28T09:56:24.000Z</time>
      </trkpt>
      <trkpt lat="45.23097" lon="5.57557">
        <ele>1438.95</ele>
        <time>2022-10-28T09:56:36.000Z</time>
      </trkpt>
      <trkpt lat="45.23097" lon="5.57583">
        <ele>1441.24</ele>
        <time>2022-10-28T09:56:46.000Z</time>
      </trkpt>
      <trkpt lat="45.23097" lon="5.57613">
        <ele>1444.47</ele>
        <time>2022-10-28T09:56:58.000Z</time>
      </trkpt>
      <trkpt lat="45.2311" lon="5.57631">
        <ele>1447.86</ele>
        <time>2022-10-28T09:57:14.000Z</time>
      </trkpt>
      <trkpt lat="45.23127" lon="5.57614">
        <ele>1449.28</ele>
        <time>2022-10-28T09:57:30.000Z</time>
      </trkpt>
      <trkpt lat="45.23132" lon="5.57588">
        <ele>1447.57</ele>
        <time>2022-10-28T09:57:40.000Z</time>
      </trkpt>
      <trkpt lat="45.2314" lon="5.57564">
        <ele>1446.86</ele>
        <time>2022-10-28T09:57:48.000Z</time>
      </trkpt>
      <trkpt lat="45.23155" lon="5.57538">
        <ele>1448.28</ele>
        <time>2022-10-28T09:57:56.000Z</time>
      </trkpt>
      <trkpt lat="45.23172" lon="5.57521">
        <ele>1450.27</ele>
        <time>2022-10-28T09:58:04.000Z</time>
      </trkpt>
      <trkpt lat="45.23189" lon="5.5751">
        <ele>1451.98</ele>
        <time>2022-10-28T09:58:12.000Z</time>
      </trkpt>
      <trkpt lat="45.23207" lon="5.57493">
        <ele>1453.87</ele>
        <time>2022-10-28T09:58:20.000Z</time>
      </trkpt>
      <trkpt lat="45.23222" lon="5.57477">
        <ele>1455.94</ele>
        <time>2022-10-28T09:58:28.000Z</time>
      </trkpt>
      <trkpt lat="45.23239" lon="5.57469">
        <ele>1457.53</ele>
        <time>2022-10-28T09:58:40.000Z</time>
      </trkpt>
      <trkpt lat="45.23259" lon="5.57477">
        <ele>1458.57</ele>
        <time>2022-10-28T09:58:50.000Z</time>
      </trkpt>
      <trkpt lat="45.23281" lon="5.57485">
        <ele>1459.68</ele>
        <time>2022-10-28T09:58:58.000Z</time>
      </trkpt>
      <trkpt lat="45.23303" lon="5.57497">
        <ele>1460.28</ele>
        <time>2022-10-28T09:59:06.000Z</time>
      </trkpt>
      <trkpt lat="45.23322" lon="5.57513">
        <ele>1460.73</ele>
        <time>2022-10-28T09:59:12.000Z</time>
      </trkpt>
      <trkpt lat="45.23345" lon="5.57527">
        <ele>1460.48</ele>
        <time>2022-10-28T09:59:18.000Z</time>
      </trkpt>
      <trkpt lat="45.23367" lon="5.57538">
        <ele>1460.7</ele>
        <time>2022-10-28T09:59:24.000Z</time>
      </trkpt>
      <trkpt lat="45.23388" lon="5.5754">
        <ele>1462.51</ele>
        <time>2022-10-28T09:59:32.000Z</time>
      </trkpt>
      <trkpt lat="45.23407" lon="5.57543">
        <ele>1464.88</ele>
        <time>2022-10-28T09:59:50.000Z</time>
      </trkpt>
      <trkpt lat="45.23423" lon="5.5756">
        <ele>1466.81</ele>
        <time>2022-10-28T10:00:06.000Z</time>
      </trkpt>
      <trkpt lat="45.2344" lon="5.57569">
        <ele>1469.4</ele>
        <time>2022-10-28T10:00:24.000Z</time>
      </trkpt>
      <trkpt lat="45.23463" lon="5.57578">
        <ele>1473.19</ele>
        <time>2022-10-28T10:00:50.000Z</time>
      </trkpt>
      <trkpt lat="45.23482" lon="5.57578">
        <ele>1477</ele>
        <time>2022-10-28T10:01:06.000Z</time>
      </trkpt>
      <trkpt lat="45.23499" lon="5.57587">
        <ele>1480.41</ele>
        <time>2022-10-28T10:01:22.000Z</time>
      </trkpt>
      <trkpt lat="45.23515" lon="5.57602">
        <ele>1483.98</ele>
        <time>2022-10-28T10:01:36.000Z</time>
      </trkpt>
      <trkpt lat="45.23525" lon="5.57626">
        <ele>1484.6</ele>
        <time>2022-10-28T10:01:50.000Z</time>
      </trkpt>
      <trkpt lat="45.23536" lon="5.57647">
        <ele>1484.59</ele>
        <time>2022-10-28T10:02:06.000Z</time>
      </trkpt>
      <trkpt lat="45.23556" lon="5.57649">
        <ele>1487.36</ele>
        <time>2022-10-28T10:02:20.000Z</time>
      </trkpt>
      <trkpt lat="45.23572" lon="5.5766">
        <ele>1489.36</ele>
        <time>2022-10-28T10:02:34.000Z</time>
      </trkpt>
      <trkpt lat="45.23589" lon="5.57673">
        <ele>1491.41</ele>
        <time>2022-10-28T10:02:48.000Z</time>
      </trkpt>
      <trkpt lat="45.23606" lon="5.57687">
        <ele>1493.64</ele>
        <time>2022-10-28T10:03:02.000Z</time>
      </trkpt>
      <trkpt lat="45.23628" lon="5.57703">
        <ele>1494.97</ele>
        <time>2022-10-28T10:03:14.000Z</time>
      </trkpt>
      <trkpt lat="45.23647" lon="5.57693">
        <ele>1498.32</ele>
        <time>2022-10-28T10:03:24.000Z</time>
      </trkpt>
      <trkpt lat="45.23667" lon="5.5769">
        <ele>1499.48</ele>
        <time>2022-10-28T10:03:34.000Z</time>
      </trkpt>
      <trkpt lat="45.23687" lon="5.57686">
        <ele>1500.75</ele>
        <time>2022-10-28T10:03:40.000Z</time>
      </trkpt>
      <trkpt lat="45.23705" lon="5.57694">
        <ele>1500.87</ele>
        <time>2022-10-28T10:03:46.000Z</time>
      </trkpt>
      <trkpt lat="45.23721" lon="5.57704">
        <ele>1501.46</ele>
        <time>2022-10-28T10:03:58.000Z</time>
      </trkpt>
      <trkpt lat="45.23739" lon="5.57712">
        <ele>1504.01</ele>
        <time>2022-10-28T10:04:10.000Z</time>
      </trkpt>
      <trkpt lat="45.23758" lon="5.57719">
        <ele>1506.68</ele>
        <time>2022-10-28T10:04:22.000Z</time>
      </trkpt>
      <trkpt lat="45.23776" lon="5.57723">
        <ele>1508.56</ele>
        <time>2022-10-28T10:04:34.000Z</time>
      </trkpt>
      <trkpt lat="45.23798" lon="5.57725">
        <ele>1510.06</ele>
        <time>2022-10-28T10:04:44.000Z</time>
      </trkpt>
      <trkpt lat="45.23819" lon="5.57737">
        <ele>1509.72</ele>
        <time>2022-10-28T10:04:52.000Z</time>
      </trkpt>
      <trkpt lat="45.23841" lon="5.57748">
        <ele>1508.77</ele>
        <time>2022-10-28T10:05:00.000Z</time>
      </trkpt>
      <trkpt lat="45.23863" lon="5.57754">
        <ele>1508.39</ele>
        <time>2022-10-28T10:05:08.000Z</time>
      </trkpt>
      <trkpt lat="45.23884" lon="5.57761">
        <ele>1507.85</ele>
        <time>2022-10-28T10:06:20.000Z</time>
      </trkpt>
      <trkpt lat="45.23894" lon="5.57789">
        <ele>1502.83</ele>
        <time>2022-10-28T10:06:26.000Z</time>
      </trkpt>
      <trkpt lat="45.23906" lon="5.57808">
        <ele>1498.1</ele>
        <time>2022-10-28T10:06:30.000Z</time>
      </trkpt>
      <trkpt lat="45.23928" lon="5.5781">
        <ele>1496.09</ele>
        <time>2022-10-28T10:06:34.000Z</time>
      </trkpt>
      <trkpt lat="45.23948" lon="5.57799">
        <ele>1497.7</ele>
        <time>2022-10-28T10:06:40.000Z</time>
      </trkpt>
      <trkpt lat="45.23966" lon="5.5778">
        <ele>1500.97</ele>
        <time>2022-10-28T10:06:50.000Z</time>
      </trkpt>
      <trkpt lat="45.23981" lon="5.57763">
        <ele>1504.13</ele>
        <time>2022-10-28T10:06:58.000Z</time>
      </trkpt>
      <trkpt lat="45.23998" lon="5.57747">
        <ele>1507.04</ele>
        <time>2022-10-28T10:07:10.000Z</time>
      </trkpt>
      <trkpt lat="45.24023" lon="5.57756">
        <ele>1506.62</ele>
        <time>2022-10-28T10:07:20.000Z</time>
      </trkpt>
      <trkpt lat="45.24047" lon="5.57772">
        <ele>1504.61</ele>
        <time>2022-10-28T10:07:24.000Z</time>
      </trkpt>
      <trkpt lat="45.24065" lon="5.57789">
        <ele>1502.56</ele>
        <time>2022-10-28T10:08:36.000Z</time>
      </trkpt>
      <trkpt lat="45.24082" lon="5.57807">
        <ele>1500.27</ele>
        <time>2022-10-28T10:08:42.000Z</time>
      </trkpt>
      <trkpt lat="45.24103" lon="5.57821">
        <ele>1500.66</ele>
        <time>2022-10-28T10:08:48.000Z</time>
      </trkpt>
      <trkpt lat="45.24127" lon="5.57848">
        <ele>1498.59</ele>
        <time>2022-10-28T10:08:54.000Z</time>
      </trkpt>
      <trkpt lat="45.24152" lon="5.57875">
        <ele>1496.46</ele>
        <time>2022-10-28T10:08:58.000Z</time>
      </trkpt>
      <trkpt lat="45.24168" lon="5.57887">
        <ele>1498.39</ele>
        <time>2022-10-28T10:09:02.000Z</time>
      </trkpt>
      <trkpt lat="45.24182" lon="5.57906">
        <ele>1500.3</ele>
        <time>2022-10-28T10:09:12.000Z</time>
      </trkpt>
      <trkpt lat="45.24187" lon="5.57931">
        <ele>1499.44</ele>
        <time>2022-10-28T10:09:20.000Z</time>
      </trkpt>
      <trkpt lat="45.24183" lon="5.57959">
        <ele>1498.05</ele>
        <time>2022-10-28T10:10:08.000Z</time>
      </trkpt>
      <trkpt lat="45.24178" lon="5.57985">
        <ele>1497.68</ele>
        <time>2022-10-28T10:10:16.000Z</time>
      </trkpt>
      <trkpt lat="45.24174" lon="5.58012">
        <ele>1498.39</ele>
        <time>2022-10-28T10:10:26.000Z</time>
      </trkpt>
      <trkpt lat="45.2417" lon="5.58039">
        <ele>1499.13</ele>
        <time>2022-10-28T10:10:36.000Z</time>
      </trkpt>
      <trkpt lat="45.24166" lon="5.58066">
        <ele>1499.88</ele>
        <time>2022-10-28T10:10:46.000Z</time>
      </trkpt>
      <trkpt lat="45.24153" lon="5.58092">
        <ele>1498.63</ele>
        <time>2022-10-28T10:10:50.000Z</time>
      </trkpt>
      <trkpt lat="45.24145" lon="5.58121">
        <ele>1499.16</ele>
        <time>2022-10-28T10:10:56.000Z</time>
      </trkpt>
      <trkpt lat="45.24138" lon="5.58153">
        <ele>1501.79</ele>
        <time>2022-10-28T10:11:04.000Z</time>
      </trkpt>
      <trkpt lat="45.2413" lon="5.58178">
        <ele>1501.68</ele>
        <time>2022-10-28T10:11:08.000Z</time>
      </trkpt>
      <trkpt lat="45.24129" lon="5.58209">
        <ele>1503.89</ele>
        <time>2022-10-28T10:11:18.000Z</time>
      </trkpt>
      <trkpt lat="45.24131" lon="5.58235">
        <ele>1506.8</ele>
        <time>2022-10-28T10:11:26.000Z</time>
      </trkpt>
      <trkpt lat="45.24126" lon="5.58269">
        <ele>1505.22</ele>
        <time>2022-10-28T10:11:36.000Z</time>
      </trkpt>
      <trkpt lat="45.24127" lon="5.58302">
        <ele>1504.04</ele>
        <time>2022-10-28T10:11:40.000Z</time>
      </trkpt>
      <trkpt lat="45.24133" lon="5.58333">
        <ele>1504.1</ele>
        <time>2022-10-28T10:11:46.000Z</time>
      </trkpt>
      <trkpt lat="45.24145" lon="5.58362">
        <ele>1506.21</ele>
        <time>2022-10-28T10:11:50.000Z</time>
      </trkpt>
      <trkpt lat="45.24148" lon="5.58403">
        <ele>1505.29</ele>
        <time>2022-10-28T10:11:54.000Z</time>
      </trkpt>
      <trkpt lat="45.24139" lon="5.58448">
        <ele>1501.32</ele>
        <time>2022-10-28T10:11:58.000Z</time>
      </trkpt>
      <trkpt lat="45.24129" lon="5.58472">
        <ele>1499.05</ele>
        <time>2022-10-28T10:12:00.000Z</time>
      </trkpt>
      <trkpt lat="45.24107" lon="5.58498">
        <ele>1496.59</ele>
        <time>2022-10-28T10:12:04.000Z</time>
      </trkpt>
      <trkpt lat="45.24075" lon="5.58512">
        <ele>1495.27</ele>
        <time>2022-10-28T10:12:08.000Z</time>
      </trkpt>
      <trkpt lat="45.2405" lon="5.58509">
        <ele>1494.45</ele>
        <time>2022-10-28T10:12:12.000Z</time>
      </trkpt>
      <trkpt lat="45.24032" lon="5.58507">
        <ele>1493.27</ele>
        <time>2022-10-28T10:12:16.000Z</time>
      </trkpt>
      <trkpt lat="45.24012" lon="5.58508">
        <ele>1492.16</ele>
        <time>2022-10-28T10:12:20.000Z</time>
      </trkpt>
      <trkpt lat="45.23994" lon="5.58515">
        <ele>1492.08</ele>
        <time>2022-10-28T10:12:24.000Z</time>
      </trkpt>
      <trkpt lat="45.23973" lon="5.58531">
        <ele>1491.83</ele>
        <time>2022-10-28T10:12:30.000Z</time>
      </trkpt>
      <trkpt lat="45.23954" lon="5.58549">
        <ele>1490.76</ele>
        <time>2022-10-28T10:13:28.000Z</time>
      </trkpt>
      <trkpt lat="45.23938" lon="5.58563">
        <ele>1489.55</ele>
        <time>2022-10-28T10:13:42.000Z</time>
      </trkpt>
      <trkpt lat="45.23921" lon="5.58577">
        <ele>1489.64</ele>
        <time>2022-10-28T10:13:52.000Z</time>
      </trkpt>
      <trkpt lat="45.23903" lon="5.58594">
        <ele>1492.32</ele>
        <time>2022-10-28T10:13:58.000Z</time>
      </trkpt>
      <trkpt lat="45.23882" lon="5.58608">
        <ele>1495.8</ele>
        <time>2022-10-28T10:14:04.000Z</time>
      </trkpt>
      <trkpt lat="45.23864" lon="5.58611">
        <ele>1496</ele>
        <time>2022-10-28T10:14:08.000Z</time>
      </trkpt>
      <trkpt lat="45.23843" lon="5.58616">
        <ele>1495.47</ele>
        <time>2022-10-28T10:14:16.000Z</time>
      </trkpt>
      <trkpt lat="45.23824" lon="5.58625">
        <ele>1495.89</ele>
        <time>2022-10-28T10:14:34.000Z</time>
      </trkpt>
      <trkpt lat="45.23807" lon="5.58642">
        <ele>1499.01</ele>
        <time>2022-10-28T10:14:44.000Z</time>
      </trkpt>
      <trkpt lat="45.23793" lon="5.5866">
        <ele>1502.37</ele>
        <time>2022-10-28T10:14:54.000Z</time>
      </trkpt>
      <trkpt lat="45.2378" lon="5.58679">
        <ele>1505.03</ele>
        <time>2022-10-28T10:15:10.000Z</time>
      </trkpt>
      <trkpt lat="45.23771" lon="5.58701">
        <ele>1508.46</ele>
        <time>2022-10-28T10:15:28.000Z</time>
      </trkpt>
      <trkpt lat="45.23762" lon="5.58724">
        <ele>1511.72</ele>
        <time>2022-10-28T10:15:48.000Z</time>
      </trkpt>
      <trkpt lat="45.23763" lon="5.58753">
        <ele>1516.2</ele>
        <time>2022-10-28T10:16:04.000Z</time>
      </trkpt>
      <trkpt lat="45.23759" lon="5.58781">
        <ele>1517.98</ele>
        <time>2022-10-28T10:16:18.000Z</time>
      </trkpt>
      <trkpt lat="45.23762" lon="5.58808">
        <ele>1519.65</ele>
        <time>2022-10-28T10:16:30.000Z</time>
      </trkpt>
      <trkpt lat="45.23766" lon="5.58835">
        <ele>1520.93</ele>
        <time>2022-10-28T10:16:40.000Z</time>
      </trkpt>
      <trkpt lat="45.2377" lon="5.58862">
        <ele>1523.47</ele>
        <time>2022-10-28T10:16:48.000Z</time>
      </trkpt>
      <trkpt lat="45.23764" lon="5.58888">
        <ele>1524.95</ele>
        <time>2022-10-28T10:17:04.000Z</time>
      </trkpt>
      <trkpt lat="45.23752" lon="5.58906">
        <ele>1524.41</ele>
        <time>2022-10-28T10:17:18.000Z</time>
      </trkpt>
      <trkpt lat="45.23736" lon="5.58924">
        <ele>1524.12</ele>
        <time>2022-10-28T10:17:30.000Z</time>
      </trkpt>
      <trkpt lat="45.23714" lon="5.58944">
        <ele>1524.05</ele>
        <time>2022-10-28T10:17:38.000Z</time>
      </trkpt>
      <trkpt lat="45.23699" lon="5.58962">
        <ele>1524.38</ele>
        <time>2022-10-28T10:17:44.000Z</time>
      </trkpt>
      <trkpt lat="45.23683" lon="5.5898">
        <ele>1525.37</ele>
        <time>2022-10-28T10:17:50.000Z</time>
      </trkpt>
      <trkpt lat="45.23664" lon="5.58997">
        <ele>1526.28</ele>
        <time>2022-10-28T10:17:58.000Z</time>
      </trkpt>
      <trkpt lat="45.23649" lon="5.59011">
        <ele>1525.8</ele>
        <time>2022-10-28T10:18:06.000Z</time>
      </trkpt>
      <trkpt lat="45.23637" lon="5.59035">
        <ele>1527.7</ele>
        <time>2022-10-28T10:18:16.000Z</time>
      </trkpt>
      <trkpt lat="45.23617" lon="5.59046">
        <ele>1526.1</ele>
        <time>2022-10-28T10:18:22.000Z</time>
      </trkpt>
      <trkpt lat="45.236" lon="5.59057">
        <ele>1525.29</ele>
        <time>2022-10-28T10:18:26.000Z</time>
      </trkpt>
      <trkpt lat="45.23585" lon="5.59077">
        <ele>1528.12</ele>
        <time>2022-10-28T10:18:36.000Z</time>
      </trkpt>
      <trkpt lat="45.23603" lon="5.59086">
        <ele>1532.08</ele>
        <time>2022-10-28T10:19:04.000Z</time>
      </trkpt>
      <trkpt lat="45.23622" lon="5.59087">
        <ele>1534</ele>
        <time>2022-10-28T10:19:16.000Z</time>
      </trkpt>
      <trkpt lat="45.23641" lon="5.59091">
        <ele>1536.58</ele>
        <time>2022-10-28T10:19:30.000Z</time>
      </trkpt>
      <trkpt lat="45.23639" lon="5.59119">
        <ele>1539.12</ele>
        <time>2022-10-28T10:19:46.000Z</time>
      </trkpt>
      <trkpt lat="45.23621" lon="5.59129">
        <ele>1539.51</ele>
        <time>2022-10-28T10:19:56.000Z</time>
      </trkpt>
      <trkpt lat="45.23602" lon="5.59142">
        <ele>1541.01</ele>
        <time>2022-10-28T10:20:08.000Z</time>
      </trkpt>
      <trkpt lat="45.23586" lon="5.59161">
        <ele>1543.27</ele>
        <time>2022-10-28T10:20:20.000Z</time>
      </trkpt>
      <trkpt lat="45.2357" lon="5.59175">
        <ele>1544.17</ele>
        <time>2022-10-28T10:20:32.000Z</time>
      </trkpt>
      <trkpt lat="45.23584" lon="5.59195">
        <ele>1547.83</ele>
        <time>2022-10-28T10:21:00.000Z</time>
      </trkpt>
      <trkpt lat="45.2358" lon="5.59224">
        <ele>1552.62</ele>
        <time>2022-10-28T10:21:14.000Z</time>
      </trkpt>
      <trkpt lat="45.23564" lon="5.59242">
        <ele>1553.5</ele>
        <time>2022-10-28T10:21:24.000Z</time>
      </trkpt>
      <trkpt lat="45.23546" lon="5.5925">
        <ele>1553.88</ele>
        <time>2022-10-28T10:21:34.000Z</time>
      </trkpt>
      <trkpt lat="45.23526" lon="5.59247">
        <ele>1553.68</ele>
        <time>2022-10-28T10:21:48.000Z</time>
      </trkpt>
      <trkpt lat="45.2351" lon="5.59258">
        <ele>1556.54</ele>
        <time>2022-10-28T10:22:02.000Z</time>
      </trkpt>
      <trkpt lat="45.23489" lon="5.59263">
        <ele>1558.85</ele>
        <time>2022-10-28T10:22:24.000Z</time>
      </trkpt>
      <trkpt lat="45.23469" lon="5.59263">
        <ele>1560.64</ele>
        <time>2022-10-28T10:22:32.000Z</time>
      </trkpt>
      <trkpt lat="45.2345" lon="5.59266">
        <ele>1562.82</ele>
        <time>2022-10-28T10:22:44.000Z</time>
      </trkpt>
      <trkpt lat="45.23437" lon="5.59287">
        <ele>1564.56</ele>
        <time>2022-10-28T10:22:58.000Z</time>
      </trkpt>
      <trkpt lat="45.23442" lon="5.59314">
        <ele>1564.62</ele>
        <time>2022-10-28T10:23:10.000Z</time>
      </trkpt>
      <trkpt lat="45.23459" lon="5.59339">
        <ele>1565.08</ele>
        <time>2022-10-28T10:23:16.000Z</time>
      </trkpt>
      <trkpt lat="45.23474" lon="5.59357">
        <ele>1567.17</ele>
        <time>2022-10-28T10:23:28.000Z</time>
      </trkpt>
      <trkpt lat="45.2349" lon="5.59373">
        <ele>1568.76</ele>
        <time>2022-10-28T10:23:40.000Z</time>
      </trkpt>
      <trkpt lat="45.23506" lon="5.59389">
        <ele>1568.43</ele>
        <time>2022-10-28T10:23:52.000Z</time>
      </trkpt>
      <trkpt lat="45.23522" lon="5.59404">
        <ele>1565.44</ele>
        <time>2022-10-28T10:24:08.000Z</time>
      </trkpt>
      <trkpt lat="45.23537" lon="5.59422">
        <ele>1554.45</ele>
        <time>2022-10-28T10:24:24.000Z</time>
      </trkpt>
      <trkpt lat="45.23549" lon="5.59444">
        <ele>1544.54</ele>
        <time>2022-10-28T10:24:42.000Z</time>
      </trkpt>
      <trkpt lat="45.23561" lon="5.59466">
        <ele>1515.01</ele>
        <time>2022-10-28T10:25:02.000Z</time>
      </trkpt>
      <trkpt lat="45.23547" lon="5.59483">
        <ele>1546.57</ele>
        <time>2022-10-28T10:25:22.000Z</time>
      </trkpt>
      <trkpt lat="45.2353" lon="5.59492">
        <ele>1573.84</ele>
        <time>2022-10-28T10:25:40.000Z</time>
      </trkpt>
      <trkpt lat="45.2351" lon="5.59496">
        <ele>1582.73</ele>
        <time>2022-10-28T10:26:00.000Z</time>
      </trkpt>
      <trkpt lat="45.23524" lon="5.59521">
        <ele>1577.8</ele>
        <time>2022-10-28T10:26:52.000Z</time>
      </trkpt>
      <trkpt lat="45.23536" lon="5.59547">
        <ele>1556.05</ele>
        <time>2022-10-28T10:27:26.000Z</time>
      </trkpt>
      <trkpt lat="45.23542" lon="5.5958">
        <ele>1547.56</ele>
        <time>2022-10-28T10:27:58.000Z</time>
      </trkpt>
      <trkpt lat="45.23541" lon="5.59611">
        <ele>1562.84</ele>
        <time>2022-10-28T10:28:42.000Z</time>
      </trkpt>
      <trkpt lat="45.23538" lon="5.59641">
        <ele>1573.51</ele>
        <time>2022-10-28T10:29:24.000Z</time>
      </trkpt>
      <trkpt lat="45.23525" lon="5.59665">
        <ele>1596.13</ele>
        <time>2022-10-28T10:30:14.000Z</time>
      </trkpt>
      <trkpt lat="45.23535" lon="5.59692">
        <ele>1588.23</ele>
        <time>2022-10-28T10:30:50.000Z</time>
      </trkpt>
      <trkpt lat="45.23537" lon="5.5972">
        <ele>1581.89</ele>
        <time>2022-10-28T10:31:28.000Z</time>
      </trkpt>
      <trkpt lat="45.23529" lon="5.59744">
        <ele>1599.18</ele>
        <time>2022-10-28T10:32:00.000Z</time>
      </trkpt>
      <trkpt lat="45.23526" lon="5.59771">
        <ele>1602.81</ele>
        <time>2022-10-28T10:32:30.000Z</time>
      </trkpt>
      <trkpt lat="45.23515" lon="5.59793">
        <ele>1600.41</ele>
        <time>2022-10-28T10:38:36.000Z</time>
      </trkpt>
      <trkpt lat="45.23493" lon="5.59819">
        <ele>1603.24</ele>
        <time>2022-10-28T11:04:30.000Z</time>
      </trkpt>
      <trkpt lat="45.23471" lon="5.59826">
        <ele>1613.56</ele>
        <time>2022-10-28T11:05:08.000Z</time>
      </trkpt>
      <trkpt lat="45.23453" lon="5.59839">
        <ele>1615.77</ele>
        <time>2022-10-28T11:05:30.000Z</time>
      </trkpt>
      <trkpt lat="45.23434" lon="5.59842">
        <ele>1622.52</ele>
        <time>2022-10-28T11:05:34.000Z</time>
      </trkpt>
      <trkpt lat="45.23412" lon="5.59846">
        <ele>1624.65</ele>
        <time>2022-10-28T11:05:40.000Z</time>
      </trkpt>
      <trkpt lat="45.23394" lon="5.5983">
        <ele>1623.65</ele>
        <time>2022-10-28T11:05:48.000Z</time>
      </trkpt>
      <trkpt lat="45.23379" lon="5.59813">
        <ele>1621.47</ele>
        <time>2022-10-28T11:06:04.000Z</time>
      </trkpt>
      <trkpt lat="45.23364" lon="5.59795">
        <ele>1619.93</ele>
        <time>2022-10-28T11:06:16.000Z</time>
      </trkpt>
      <trkpt lat="45.23351" lon="5.59773">
        <ele>1618.75</ele>
        <time>2022-10-28T11:06:28.000Z</time>
      </trkpt>
      <trkpt lat="45.23336" lon="5.59747">
        <ele>1617.72</ele>
        <time>2022-10-28T11:06:36.000Z</time>
      </trkpt>
      <trkpt lat="45.23322" lon="5.59718">
        <ele>1616.88</ele>
        <time>2022-10-28T11:06:42.000Z</time>
      </trkpt>
      <trkpt lat="45.23314" lon="5.59694">
        <ele>1615.93</ele>
        <time>2022-10-28T11:06:48.000Z</time>
      </trkpt>
      <trkpt lat="45.23306" lon="5.59668">
        <ele>1615.14</ele>
        <time>2022-10-28T11:06:54.000Z</time>
      </trkpt>
      <trkpt lat="45.23289" lon="5.5965">
        <ele>1613.68</ele>
        <time>2022-10-28T11:07:00.000Z</time>
      </trkpt>
      <trkpt lat="45.23271" lon="5.5963">
        <ele>1611.64</ele>
        <time>2022-10-28T11:07:04.000Z</time>
      </trkpt>
      <trkpt lat="45.2325" lon="5.59609">
        <ele>1609.4</ele>
        <time>2022-10-28T11:07:08.000Z</time>
      </trkpt>
      <trkpt lat="45.23228" lon="5.59584">
        <ele>1606.88</ele>
        <time>2022-10-28T11:07:12.000Z</time>
      </trkpt>
      <trkpt lat="45.23213" lon="5.59558">
        <ele>1606.31</ele>
        <time>2022-10-28T11:07:16.000Z</time>
      </trkpt>
      <trkpt lat="45.23196" lon="5.59546">
        <ele>1605.86</ele>
        <time>2022-10-28T11:07:20.000Z</time>
      </trkpt>
      <trkpt lat="45.23174" lon="5.59536">
        <ele>1605.27</ele>
        <time>2022-10-28T11:07:28.000Z</time>
      </trkpt>
      <trkpt lat="45.23155" lon="5.5952">
        <ele>1604.51</ele>
        <time>2022-10-28T11:07:34.000Z</time>
      </trkpt>
      <trkpt lat="45.23141" lon="5.59491">
        <ele>1604.26</ele>
        <time>2022-10-28T11:07:40.000Z</time>
      </trkpt>
      <trkpt lat="45.23126" lon="5.5946">
        <ele>1603.08</ele>
        <time>2022-10-28T11:07:46.000Z</time>
      </trkpt>
      <trkpt lat="45.23113" lon="5.59435">
        <ele>1601.75</ele>
        <time>2022-10-28T11:07:50.000Z</time>
      </trkpt>
      <trkpt lat="45.23096" lon="5.59421">
        <ele>1600.82</ele>
        <time>2022-10-28T11:07:54.000Z</time>
      </trkpt>
      <trkpt lat="45.23077" lon="5.59412">
        <ele>1600.95</ele>
        <time>2022-10-28T11:07:58.000Z</time>
      </trkpt>
      <trkpt lat="45.23059" lon="5.59408">
        <ele>1601.69</ele>
        <time>2022-10-28T11:08:04.000Z</time>
      </trkpt>
      <trkpt lat="45.2304" lon="5.59399">
        <ele>1602.99</ele>
        <time>2022-10-28T11:08:12.000Z</time>
      </trkpt>
      <trkpt lat="45.23024" lon="5.59386">
        <ele>1604.26</ele>
        <time>2022-10-28T11:08:20.000Z</time>
      </trkpt>
      <trkpt lat="45.23006" lon="5.59376">
        <ele>1606.17</ele>
        <time>2022-10-28T11:08:28.000Z</time>
      </trkpt>
      <trkpt lat="45.2299" lon="5.5936">
        <ele>1607.45</ele>
        <time>2022-10-28T11:08:38.000Z</time>
      </trkpt>
      <trkpt lat="45.22969" lon="5.59359">
        <ele>1608.88</ele>
        <time>2022-10-28T11:08:50.000Z</time>
      </trkpt>
      <trkpt lat="45.2295" lon="5.5935">
        <ele>1608.8</ele>
        <time>2022-10-28T11:08:58.000Z</time>
      </trkpt>
      <trkpt lat="45.22932" lon="5.59358">
        <ele>1609.29</ele>
        <time>2022-10-28T11:09:08.000Z</time>
      </trkpt>
      <trkpt lat="45.22912" lon="5.5937">
        <ele>1609.71</ele>
        <time>2022-10-28T11:09:18.000Z</time>
      </trkpt>
      <trkpt lat="45.22896" lon="5.59383">
        <ele>1609.25</ele>
        <time>2022-10-28T11:09:26.000Z</time>
      </trkpt>
      <trkpt lat="45.22875" lon="5.59386">
        <ele>1609.11</ele>
        <time>2022-10-28T11:09:34.000Z</time>
      </trkpt>
      <trkpt lat="45.22853" lon="5.59382">
        <ele>1608.82</ele>
        <time>2022-10-28T11:09:42.000Z</time>
      </trkpt>
      <trkpt lat="45.2283" lon="5.59371">
        <ele>1608.14</ele>
        <time>2022-10-28T11:09:50.000Z</time>
      </trkpt>
      <trkpt lat="45.22809" lon="5.5937">
        <ele>1607.07</ele>
        <time>2022-10-28T11:09:56.000Z</time>
      </trkpt>
      <trkpt lat="45.22785" lon="5.59373">
        <ele>1605.61</ele>
        <time>2022-10-28T11:10:02.000Z</time>
      </trkpt>
      <trkpt lat="45.22764" lon="5.59381">
        <ele>1604.69</ele>
        <time>2022-10-28T11:10:06.000Z</time>
      </trkpt>
      <trkpt lat="45.22744" lon="5.59391">
        <ele>1604.05</ele>
        <time>2022-10-28T11:10:10.000Z</time>
      </trkpt>
      <trkpt lat="45.22724" lon="5.59403">
        <ele>1603.53</ele>
        <time>2022-10-28T11:10:16.000Z</time>
      </trkpt>
      <trkpt lat="45.22701" lon="5.59393">
        <ele>1604.44</ele>
        <time>2022-10-28T11:10:22.000Z</time>
      </trkpt>
      <trkpt lat="45.22682" lon="5.5938">
        <ele>1604.7</ele>
        <time>2022-10-28T11:10:30.000Z</time>
      </trkpt>
      <trkpt lat="45.2266" lon="5.59392">
        <ele>1604.98</ele>
        <time>2022-10-28T11:10:40.000Z</time>
      </trkpt>
      <trkpt lat="45.2264" lon="5.59392">
        <ele>1605</ele>
        <time>2022-10-28T11:10:46.000Z</time>
      </trkpt>
      <trkpt lat="45.22621" lon="5.59392">
        <ele>1605</ele>
        <time>2022-10-28T11:10:52.000Z</time>
      </trkpt>
      <trkpt lat="45.22602" lon="5.59391">
        <ele>1605</ele>
        <time>2022-10-28T11:10:58.000Z</time>
      </trkpt>
      <trkpt lat="45.22579" lon="5.59387">
        <ele>1605</ele>
        <time>2022-10-28T11:11:04.000Z</time>
      </trkpt>
      <trkpt lat="45.2256" lon="5.59392">
        <ele>1604.93</ele>
        <time>2022-10-28T11:11:08.000Z</time>
      </trkpt>
      <trkpt lat="45.2254" lon="5.59393">
        <ele>1604.86</ele>
        <time>2022-10-28T11:11:14.000Z</time>
      </trkpt>
      <trkpt lat="45.22518" lon="5.59388">
        <ele>1605.53</ele>
        <time>2022-10-28T11:11:20.000Z</time>
      </trkpt>
      <trkpt lat="45.22499" lon="5.59384">
        <ele>1606.86</ele>
        <time>2022-10-28T11:11:26.000Z</time>
      </trkpt>
      <trkpt lat="45.22481" lon="5.59382">
        <ele>1607.59</ele>
        <time>2022-10-28T11:11:32.000Z</time>
      </trkpt>
      <trkpt lat="45.22458" lon="5.59383">
        <ele>1607.99</ele>
        <time>2022-10-28T11:11:40.000Z</time>
      </trkpt>
      <trkpt lat="45.22436" lon="5.59381">
        <ele>1608.22</ele>
        <time>2022-10-28T11:11:46.000Z</time>
      </trkpt>
      <trkpt lat="45.22416" lon="5.59374">
        <ele>1608.91</ele>
        <time>2022-10-28T11:11:52.000Z</time>
      </trkpt>
      <trkpt lat="45.22396" lon="5.59368">
        <ele>1609.17</ele>
        <time>2022-10-28T11:11:58.000Z</time>
      </trkpt>
      <trkpt lat="45.22377" lon="5.59372">
        <ele>1609.56</ele>
        <time>2022-10-28T11:12:04.000Z</time>
      </trkpt>
      <trkpt lat="45.22359" lon="5.59377">
        <ele>1610.01</ele>
        <time>2022-10-28T11:12:10.000Z</time>
      </trkpt>
      <trkpt lat="45.22341" lon="5.59374">
        <ele>1610.68</ele>
        <time>2022-10-28T11:12:20.000Z</time>
      </trkpt>
      <trkpt lat="45.22323" lon="5.59365">
        <ele>1611.31</ele>
        <time>2022-10-28T11:12:28.000Z</time>
      </trkpt>
      <trkpt lat="45.22304" lon="5.5936">
        <ele>1611.97</ele>
        <time>2022-10-28T11:12:36.000Z</time>
      </trkpt>
      <trkpt lat="45.22284" lon="5.59349">
        <ele>1612.41</ele>
        <time>2022-10-28T11:12:46.000Z</time>
      </trkpt>
      <trkpt lat="45.22263" lon="5.59329">
        <ele>1612.31</ele>
        <time>2022-10-28T11:12:56.000Z</time>
      </trkpt>
      <trkpt lat="45.22248" lon="5.59311">
        <ele>1611.48</ele>
        <time>2022-10-28T11:13:02.000Z</time>
      </trkpt>
      <trkpt lat="45.22238" lon="5.5929">
        <ele>1609.95</ele>
        <time>2022-10-28T11:13:24.000Z</time>
      </trkpt>
      <trkpt lat="45.22221" lon="5.59269">
        <ele>1607.53</ele>
        <time>2022-10-28T11:13:28.000Z</time>
      </trkpt>
      <trkpt lat="45.22194" lon="5.59239">
        <ele>1602.9</ele>
        <time>2022-10-28T11:13:32.000Z</time>
      </trkpt>
      <trkpt lat="45.2217" lon="5.5923">
        <ele>1599.1</ele>
        <time>2022-10-28T11:13:36.000Z</time>
      </trkpt>
      <trkpt lat="45.22147" lon="5.59238">
        <ele>1598.05</ele>
        <time>2022-10-28T11:13:40.000Z</time>
      </trkpt>
      <trkpt lat="45.22124" lon="5.59244">
        <ele>1597.31</ele>
        <time>2022-10-28T11:13:44.000Z</time>
      </trkpt>
      <trkpt lat="45.22102" lon="5.59248">
        <ele>1596.8</ele>
        <time>2022-10-28T11:13:48.000Z</time>
      </trkpt>
      <trkpt lat="45.2208" lon="5.59244">
        <ele>1596.32</ele>
        <time>2022-10-28T11:13:52.000Z</time>
      </trkpt>
      <trkpt lat="45.22057" lon="5.59238">
        <ele>1595.5</ele>
        <time>2022-10-28T11:13:56.000Z</time>
      </trkpt>
      <trkpt lat="45.22036" lon="5.59245">
        <ele>1595.37</ele>
        <time>2022-10-28T11:14:00.000Z</time>
      </trkpt>
      <trkpt lat="45.22013" lon="5.59255">
        <ele>1595.51</ele>
        <time>2022-10-28T11:14:04.000Z</time>
      </trkpt>
      <trkpt lat="45.21988" lon="5.59261">
        <ele>1594.72</ele>
        <time>2022-10-28T11:14:08.000Z</time>
      </trkpt>
      <trkpt lat="45.21963" lon="5.59262">
        <ele>1593.52</ele>
        <time>2022-10-28T11:14:12.000Z</time>
      </trkpt>
      <trkpt lat="45.21939" lon="5.59257">
        <ele>1591.84</ele>
        <time>2022-10-28T11:14:16.000Z</time>
      </trkpt>
      <trkpt lat="45.21915" lon="5.59264">
        <ele>1591.14</ele>
        <time>2022-10-28T11:14:20.000Z</time>
      </trkpt>
      <trkpt lat="45.21893" lon="5.59264">
        <ele>1591.03</ele>
        <time>2022-10-28T11:14:24.000Z</time>
      </trkpt>
      <trkpt lat="45.2187" lon="5.59267">
        <ele>1591.21</ele>
        <time>2022-10-28T11:14:30.000Z</time>
      </trkpt>
      <trkpt lat="45.21844" lon="5.59265">
        <ele>1590.6</ele>
        <time>2022-10-28T11:14:36.000Z</time>
      </trkpt>
      <trkpt lat="45.21825" lon="5.59267">
        <ele>1589.8</ele>
        <time>2022-10-28T11:14:40.000Z</time>
      </trkpt>
      <trkpt lat="45.21809" lon="5.59282">
        <ele>1589.42</ele>
        <time>2022-10-28T11:14:44.000Z</time>
      </trkpt>
      <trkpt lat="45.21798" lon="5.59304">
        <ele>1588.72</ele>
        <time>2022-10-28T11:14:48.000Z</time>
      </trkpt>
      <trkpt lat="45.21787" lon="5.59336">
        <ele>1587.49</ele>
        <time>2022-10-28T11:14:52.000Z</time>
      </trkpt>
      <trkpt lat="45.21766" lon="5.59373">
        <ele>1583.09</ele>
        <time>2022-10-28T11:14:56.000Z</time>
      </trkpt>
      <trkpt lat="45.21747" lon="5.5941">
        <ele>1577.43</ele>
        <time>2022-10-28T11:15:00.000Z</time>
      </trkpt>
      <trkpt lat="45.21742" lon="5.59415">
        <ele>1575.8</ele>
        <extensions>
          <visugpx:TrkExtension xmlns:visugpx="https://www.visugpx.com/editgpx/">
            <visugpx:node>8</visugpx:node>
            </visugpx:TrkExtension>
        </extensions>
      </trkpt>
      <trkpt lat="45.21743" lon="5.59416">
        <ele>1575.8</ele>
      </trkpt>
      <trkpt lat="45.21739" lon="5.59423">
        <ele>1575.2</ele>
      </trkpt>
      <trkpt lat="45.21729" lon="5.59426">
        <ele>1574.8</ele>
      </trkpt>
      <trkpt lat="45.2172" lon="5.59426">
        <ele>1574.9</ele>
      </trkpt>
      <trkpt lat="45.21712" lon="5.59423">
        <ele>1575.6</ele>
      </trkpt>
      <trkpt lat="45.21678" lon="5.59402">
        <ele>1582.9</ele>
      </trkpt>
      <trkpt lat="45.21669" lon="5.59394">
        <ele>1586.1</ele>
      </trkpt>
      <trkpt lat="45.21663" lon="5.5938">
        <ele>1588.3</ele>
      </trkpt>
      <trkpt lat="45.2166" lon="5.59296">
        <ele>1589.6</ele>
      </trkpt>
      <trkpt lat="45.21658" lon="5.59287">
        <ele>1590.2</ele>
      </trkpt>
      <trkpt lat="45.21636" lon="5.59236">
        <ele>1593.3</ele>
      </trkpt>
      <trkpt lat="45.21625" lon="5.59221">
        <ele>1594.4</ele>
      </trkpt>
      <trkpt lat="45.21578" lon="5.59165">
        <ele>1598.7</ele>
      </trkpt>
      <trkpt lat="45.21568" lon="5.59157">
        <ele>1600.2</ele>
      </trkpt>
      <trkpt lat="45.21534" lon="5.59153">
        <ele>1604.2</ele>
      </trkpt>
      <trkpt lat="45.21517" lon="5.59147">
        <ele>1606.2</ele>
      </trkpt>
      <trkpt lat="45.21509" lon="5.59146">
        <ele>1607</ele>
      </trkpt>
      <trkpt lat="45.21502" lon="5.5915">
        <ele>1607.8</ele>
      </trkpt>
      <trkpt lat="45.21494" lon="5.59158">
        <ele>1608.6</ele>
      </trkpt>
      <trkpt lat="45.2149" lon="5.5916">
        <ele>1609.1</ele>
      </trkpt>
      <trkpt lat="45.21482" lon="5.59158">
        <ele>1609.9</ele>
      </trkpt>
      <trkpt lat="45.21468" lon="5.59144">
        <ele>1611.6</ele>
      </trkpt>
      <trkpt lat="45.21455" lon="5.59127">
        <ele>1614.1</ele>
      </trkpt>
      <trkpt lat="45.21444" lon="5.5911">
        <ele>1616.1</ele>
      </trkpt>
      <trkpt lat="45.21436" lon="5.5909">
        <ele>1617.4</ele>
      </trkpt>
      <trkpt lat="45.21431" lon="5.59083">
        <ele>1618</ele>
      </trkpt>
      <trkpt lat="45.21425" lon="5.59078">
        <ele>1618.5</ele>
      </trkpt>
      <trkpt lat="45.214" lon="5.59066">
        <ele>1620.2</ele>
      </trkpt>
      <trkpt lat="45.21356" lon="5.59029">
        <ele>1625.3</ele>
      </trkpt>
      <trkpt lat="45.21347" lon="5.59021">
        <ele>1626.3</ele>
      </trkpt>
      <trkpt lat="45.21335" lon="5.59028">
        <ele>1626.9</ele>
      </trkpt>
      <trkpt lat="45.21326" lon="5.59036">
        <ele>1627.4</ele>
      </trkpt>
      <trkpt lat="45.21305" lon="5.59065">
        <ele>1627.7</ele>
      </trkpt>
      <trkpt lat="45.21297" lon="5.59071">
        <ele>1627.3</ele>
      </trkpt>
      <trkpt lat="45.2129" lon="5.59074">
        <ele>1627</ele>
      </trkpt>
      <trkpt lat="45.21259" lon="5.59074">
        <ele>1625.8</ele>
      </trkpt>
      <trkpt lat="45.21247" lon="5.59077">
        <ele>1624.9</ele>
      </trkpt>
      <trkpt lat="45.21227" lon="5.59096">
        <ele>1621.8</ele>
      </trkpt>
      <trkpt lat="45.21204" lon="5.59112">
        <ele>1620.2</ele>
      </trkpt>
      <trkpt lat="45.21195" lon="5.5912">
        <ele>1619.4</ele>
      </trkpt>
      <trkpt lat="45.21181" lon="5.59145">
        <ele>1616.7</ele>
      </trkpt>
      <trkpt lat="45.21166" lon="5.59162">
        <ele>1615.7</ele>
      </trkpt>
      <trkpt lat="45.2115" lon="5.59169">
        <ele>1615.3</ele>
      </trkpt>
      <trkpt lat="45.21143" lon="5.59167">
        <ele>1615.8</ele>
      </trkpt>
      <trkpt lat="45.21138" lon="5.59163">
        <ele>1616.3</ele>
      </trkpt>
      <trkpt lat="45.21125" lon="5.59129">
        <ele>1618.2</ele>
      </trkpt>
      <trkpt lat="45.2112" lon="5.5912">
        <ele>1618.8</ele>
      </trkpt>
      <trkpt lat="45.21114" lon="5.59113">
        <ele>1619</ele>
      </trkpt>
      <trkpt lat="45.21085" lon="5.59091">
        <ele>1616.7</ele>
      </trkpt>
      <trkpt lat="45.21068" lon="5.5908">
        <ele>1615.4</ele>
      </trkpt>
      <trkpt lat="45.21061" lon="5.59074">
        <ele>1614.7</ele>
      </trkpt>
      <trkpt lat="45.21055" lon="5.59061">
        <ele>1614</ele>
      </trkpt>
      <trkpt lat="45.21048" lon="5.59052">
        <ele>1613.3</ele>
      </trkpt>
      <trkpt lat="45.21037" lon="5.5905">
        <ele>1612.2</ele>
      </trkpt>
      <trkpt lat="45.21022" lon="5.59053">
        <ele>1611.7</ele>
      </trkpt>
      <trkpt lat="45.21016" lon="5.59056">
        <ele>1612</ele>
      </trkpt>
      <trkpt lat="45.21009" lon="5.59078">
        <ele>1614.2</ele>
      </trkpt>
      <trkpt lat="45.21004" lon="5.59087">
        <ele>1615</ele>
      </trkpt>
      <trkpt lat="45.20996" lon="5.5912">
        <ele>1616.3</ele>
      </trkpt>
      <trkpt lat="45.20995" lon="5.59121">
        <ele>1616.4</ele>
        <extensions>
          <visugpx:TrkExtension xmlns:visugpx="https://www.visugpx.com/editgpx/">
            <visugpx:node>9</visugpx:node>
            </visugpx:TrkExtension>
        </extensions>
      </trkpt>
      <trkpt lat="45.20994" lon="5.59134">
        <ele>1616.4</ele>
      </trkpt>
      <trkpt lat="45.20995" lon="5.59155">
        <ele>1615.2</ele>
      </trkpt>
      <trkpt lat="45.20994" lon="5.59168">
        <ele>1614.3</ele>
      </trkpt>
      <trkpt lat="45.20993" lon="5.59174">
        <ele>1614</ele>
      </trkpt>
      <trkpt lat="45.20988" lon="5.59179">
        <ele>1614</ele>
      </trkpt>
      <trkpt lat="45.2094" lon="5.59179">
        <ele>1615.1</ele>
      </trkpt>
      <trkpt lat="45.20923" lon="5.59163">
        <ele>1614.9</ele>
      </trkpt>
      <trkpt lat="45.20895" lon="5.59124">
        <ele>1614.5</ele>
      </trkpt>
      <trkpt lat="45.20877" lon="5.59115">
        <ele>1613.8</ele>
      </trkpt>
      <trkpt lat="45.20841" lon="5.59105">
        <ele>1612.5</ele>
      </trkpt>
      <trkpt lat="45.20825" lon="5.59105">
        <ele>1612.2</ele>
      </trkpt>
      <trkpt lat="45.20818" lon="5.59108">
        <ele>1612.1</ele>
      </trkpt>
      <trkpt lat="45.20793" lon="5.59129">
        <ele>1610.4</ele>
      </trkpt>
      <trkpt lat="45.20777" lon="5.59136">
        <ele>1610.2</ele>
      </trkpt>
      <trkpt lat="45.20739" lon="5.59158">
        <ele>1609.9</ele>
      </trkpt>
      <trkpt lat="45.20729" lon="5.59166">
        <ele>1609.8</ele>
      </trkpt>
      <trkpt lat="45.20721" lon="5.59175">
        <ele>1609.4</ele>
      </trkpt>
      <trkpt lat="45.20709" lon="5.5921">
        <ele>1608.2</ele>
      </trkpt>
      <trkpt lat="45.20701" lon="5.59218">
        <ele>1608.6</ele>
      </trkpt>
      <trkpt lat="45.20686" lon="5.59219">
        <ele>1609.3</ele>
      </trkpt>
      <trkpt lat="45.20625" lon="5.59211">
        <ele>1612.5</ele>
      </trkpt>
      <trkpt lat="45.20598" lon="5.59223">
        <ele>1613.5</ele>
      </trkpt>
      <trkpt lat="45.20543" lon="5.59264">
        <ele>1616.9</ele>
      </trkpt>
      <trkpt lat="45.20521" lon="5.59277">
        <ele>1618.2</ele>
      </trkpt>
      <trkpt lat="45.20503" lon="5.5929">
        <ele>1618.8</ele>
      </trkpt>
      <trkpt lat="45.20513" lon="5.59286">
        <ele>1618.34</ele>
        <time>2022-10-28T12:00:30.000Z</time>
      </trkpt>
      <trkpt lat="45.20504" lon="5.59293">
        <ele>1618.8</ele>
        <extensions>
          <visugpx:TrkExtension xmlns:visugpx="https://www.visugpx.com/editgpx/">
            <visugpx:node>10</visugpx:node>
            </visugpx:TrkExtension>
        </extensions>
      </trkpt>
      <trkpt lat="45.20497" lon="5.59298">
        <ele>1619.1</ele>
        <time>2022-10-28T12:00:42.000Z</time>
      </trkpt>
      <trkpt lat="45.20478" lon="5.59309">
        <ele>1619.64</ele>
        <time>2022-10-28T12:00:52.000Z</time>
      </trkpt>
      <trkpt lat="45.20458" lon="5.59311">
        <ele>1620.62</ele>
        <time>2022-10-28T12:01:04.000Z</time>
      </trkpt>
      <trkpt lat="45.20439" lon="5.59308">
        <ele>1622.21</ele>
        <time>2022-10-28T12:01:20.000Z</time>
      </trkpt>
      <trkpt lat="45.2042" lon="5.5931">
        <ele>1623.22</ele>
        <time>2022-10-28T12:01:32.000Z</time>
      </trkpt>
      <trkpt lat="45.20401" lon="5.59308">
        <ele>1624.69</ele>
        <time>2022-10-28T12:01:42.000Z</time>
      </trkpt>
      <trkpt lat="45.20383" lon="5.59305">
        <ele>1626.31</ele>
        <time>2022-10-28T12:01:52.000Z</time>
      </trkpt>
      <trkpt lat="45.20363" lon="5.59299">
        <ele>1627.94</ele>
        <time>2022-10-28T12:02:04.000Z</time>
      </trkpt>
      <trkpt lat="45.20343" lon="5.59291">
        <ele>1629.11</ele>
        <time>2022-10-28T12:02:16.000Z</time>
      </trkpt>
      <trkpt lat="45.20324" lon="5.59281">
        <ele>1629.84</ele>
        <time>2022-10-28T12:02:26.000Z</time>
      </trkpt>
      <trkpt lat="45.20302" lon="5.59274">
        <ele>1630.01</ele>
        <time>2022-10-28T12:02:36.000Z</time>
      </trkpt>
      <trkpt lat="45.2028" lon="5.5927">
        <ele>1630.24</ele>
        <time>2022-10-28T12:02:44.000Z</time>
      </trkpt>
      <trkpt lat="45.20259" lon="5.59264">
        <ele>1630.48</ele>
        <time>2022-10-28T12:02:52.000Z</time>
      </trkpt>
      <trkpt lat="45.20239" lon="5.59255">
        <ele>1630.78</ele>
        <time>2022-10-28T12:03:00.000Z</time>
      </trkpt>
      <trkpt lat="45.2022" lon="5.59247">
        <ele>1631</ele>
        <time>2022-10-28T12:03:08.000Z</time>
      </trkpt>
      <trkpt lat="45.20197" lon="5.59241">
        <ele>1631</ele>
        <time>2022-10-28T12:03:16.000Z</time>
      </trkpt>
      <trkpt lat="45.20174" lon="5.59236">
        <ele>1631</ele>
        <time>2022-10-28T12:03:24.000Z</time>
      </trkpt>
      <trkpt lat="45.20151" lon="5.59235">
        <ele>1630.55</ele>
        <time>2022-10-28T12:03:30.000Z</time>
      </trkpt>
      <trkpt lat="45.20128" lon="5.59229">
        <ele>1630.25</ele>
        <time>2022-10-28T12:03:36.000Z</time>
      </trkpt>
      <trkpt lat="45.20106" lon="5.59222">
        <ele>1630.97</ele>
        <time>2022-10-28T12:03:44.000Z</time>
      </trkpt>
      <trkpt lat="45.20088" lon="5.59222">
        <ele>1631.02</ele>
        <time>2022-10-28T12:03:50.000Z</time>
      </trkpt>
      <trkpt lat="45.20069" lon="5.59218">
        <ele>1631.18</ele>
        <time>2022-10-28T12:03:56.000Z</time>
      </trkpt>
      <trkpt lat="45.20049" lon="5.59211">
        <ele>1631.72</ele>
        <time>2022-10-28T12:04:02.000Z</time>
      </trkpt>
      <trkpt lat="45.20029" lon="5.59205">
        <ele>1632.2</ele>
        <time>2022-10-28T12:04:08.000Z</time>
      </trkpt>
      <trkpt lat="45.20007" lon="5.59199">
        <ele>1631.97</ele>
        <time>2022-10-28T12:04:14.000Z</time>
      </trkpt>
      <trkpt lat="45.19984" lon="5.59194">
        <ele>1631.49</ele>
        <time>2022-10-28T12:04:20.000Z</time>
      </trkpt>
      <trkpt lat="45.1996" lon="5.59192">
        <ele>1631.04</ele>
        <time>2022-10-28T12:04:26.000Z</time>
      </trkpt>
      <trkpt lat="45.19936" lon="5.59192">
        <ele>1630.91</ele>
        <time>2022-10-28T12:04:32.000Z</time>
      </trkpt>
      <trkpt lat="45.19913" lon="5.59188">
        <ele>1630.89</ele>
        <time>2022-10-28T12:04:38.000Z</time>
      </trkpt>
      <trkpt lat="45.19892" lon="5.5918">
        <ele>1631.33</ele>
        <time>2022-10-28T12:04:46.000Z</time>
      </trkpt>
      <trkpt lat="45.19872" lon="5.5918">
        <ele>1631.48</ele>
        <time>2022-10-28T12:04:52.000Z</time>
      </trkpt>
      <trkpt lat="45.19853" lon="5.5919">
        <ele>1631.8</ele>
        <time>2022-10-28T12:04:58.000Z</time>
      </trkpt>
      <trkpt lat="45.19832" lon="5.59192">
        <ele>1631.96</ele>
        <time>2022-10-28T12:05:06.000Z</time>
      </trkpt>
      <trkpt lat="45.19813" lon="5.59188">
        <ele>1632.42</ele>
        <time>2022-10-28T12:05:14.000Z</time>
      </trkpt>
      <trkpt lat="45.1979" lon="5.59193">
        <ele>1633.39</ele>
        <time>2022-10-28T12:05:24.000Z</time>
      </trkpt>
      <trkpt lat="45.19771" lon="5.59206">
        <ele>1633.5</ele>
        <time>2022-10-28T12:05:32.000Z</time>
      </trkpt>
      <trkpt lat="45.19751" lon="5.59219">
        <ele>1633.23</ele>
        <time>2022-10-28T12:05:40.000Z</time>
      </trkpt>
      <trkpt lat="45.19771" lon="5.59206">
        <ele>1633.38</ele>
        <time>2022-10-28T12:06:20.000Z</time>
      </trkpt>
      <trkpt lat="45.19786" lon="5.59192">
        <ele>1633.6</ele>
        <time>2022-10-28T12:06:28.000Z</time>
      </trkpt>
      <trkpt lat="45.19765" lon="5.59195">
        <ele>1634.37</ele>
        <time>2022-10-28T12:06:40.000Z</time>
      </trkpt>
      <trkpt lat="45.19747" lon="5.59192">
        <ele>1635.16</ele>
        <time>2022-10-28T12:06:54.000Z</time>
      </trkpt>
      <trkpt lat="45.19728" lon="5.59186">
        <ele>1636.72</ele>
        <time>2022-10-28T12:07:10.000Z</time>
      </trkpt>
      <trkpt lat="45.19708" lon="5.59176">
        <ele>1638.81</ele>
        <time>2022-10-28T12:07:48.000Z</time>
      </trkpt>
      <trkpt lat="45.19688" lon="5.59167">
        <ele>1641.97</ele>
        <time>2022-10-28T12:08:26.000Z</time>
      </trkpt>
      <trkpt lat="45.1966" lon="5.59161">
        <ele>1643.89</ele>
        <time>2022-10-28T12:09:00.000Z</time>
      </trkpt>
      <trkpt lat="45.19642" lon="5.59163">
        <ele>1644.68</ele>
        <time>2022-10-28T12:09:08.000Z</time>
      </trkpt>
      <trkpt lat="45.19622" lon="5.59169">
        <ele>1645.26</ele>
        <time>2022-10-28T12:09:18.000Z</time>
      </trkpt>
      <trkpt lat="45.196" lon="5.59175">
        <ele>1645.41</ele>
        <time>2022-10-28T12:09:28.000Z</time>
      </trkpt>
      <trkpt lat="45.19583" lon="5.59183">
        <ele>1645.71</ele>
        <time>2022-10-28T12:09:36.000Z</time>
      </trkpt>
      <trkpt lat="45.19565" lon="5.59188">
        <ele>1647.09</ele>
        <time>2022-10-28T12:09:42.000Z</time>
      </trkpt>
      <trkpt lat="45.19545" lon="5.5919">
        <ele>1649.21</ele>
        <time>2022-10-28T12:09:48.000Z</time>
      </trkpt>
      <trkpt lat="45.19525" lon="5.59196">
        <ele>1650.66</ele>
        <time>2022-10-28T12:09:54.000Z</time>
      </trkpt>
      <trkpt lat="45.19504" lon="5.59207">
        <ele>1650.67</ele>
        <time>2022-10-28T12:10:00.000Z</time>
      </trkpt>
      <trkpt lat="45.19484" lon="5.59212">
        <ele>1650.9</ele>
        <time>2022-10-28T12:10:06.000Z</time>
      </trkpt>
      <trkpt lat="45.19463" lon="5.59217">
        <ele>1650.89</ele>
        <time>2022-10-28T12:10:12.000Z</time>
      </trkpt>
      <trkpt lat="45.19445" lon="5.59233">
        <ele>1650.05</ele>
        <time>2022-10-28T12:10:18.000Z</time>
      </trkpt>
      <trkpt lat="45.19427" lon="5.59244">
        <ele>1648.58</ele>
        <time>2022-10-28T12:10:24.000Z</time>
      </trkpt>
      <trkpt lat="45.19404" lon="5.59246">
        <ele>1647.62</ele>
        <time>2022-10-28T12:10:30.000Z</time>
      </trkpt>
      <trkpt lat="45.19379" lon="5.59248">
        <ele>1645.7</ele>
        <time>2022-10-28T12:10:36.000Z</time>
      </trkpt>
      <trkpt lat="45.19359" lon="5.59244">
        <ele>1644.34</ele>
        <time>2022-10-28T12:10:40.000Z</time>
      </trkpt>
      <trkpt lat="45.19339" lon="5.59239">
        <ele>1642.62</ele>
        <time>2022-10-28T12:10:44.000Z</time>
      </trkpt>
      <trkpt lat="45.1932" lon="5.59237">
        <ele>1641.1</ele>
        <time>2022-10-28T12:10:48.000Z</time>
      </trkpt>
      <trkpt lat="45.19301" lon="5.5923">
        <ele>1639.89</ele>
        <time>2022-10-28T12:10:52.000Z</time>
      </trkpt>
      <trkpt lat="45.19278" lon="5.59226">
        <ele>1637.76</ele>
        <time>2022-10-28T12:10:58.000Z</time>
      </trkpt>
      <trkpt lat="45.19258" lon="5.5922">
        <ele>1637.06</ele>
        <time>2022-10-28T12:11:08.000Z</time>
      </trkpt>
      <trkpt lat="45.1924" lon="5.59214">
        <ele>1636.44</ele>
        <time>2022-10-28T12:11:16.000Z</time>
      </trkpt>
      <trkpt lat="45.19222" lon="5.59208">
        <ele>1637.48</ele>
        <time>2022-10-28T12:11:28.000Z</time>
      </trkpt>
      <trkpt lat="45.19204" lon="5.59211">
        <ele>1640.5</ele>
        <time>2022-10-28T12:11:42.000Z</time>
      </trkpt>
      <trkpt lat="45.19186" lon="5.59197">
        <ele>1645.11</ele>
        <time>2022-10-28T12:12:00.000Z</time>
      </trkpt>
      <trkpt lat="45.19168" lon="5.59195">
        <ele>1649.31</ele>
        <time>2022-10-28T12:12:18.000Z</time>
      </trkpt>
      <trkpt lat="45.1915" lon="5.59189">
        <ele>1652.57</ele>
        <time>2022-10-28T12:12:38.000Z</time>
      </trkpt>
      <trkpt lat="45.19131" lon="5.5918">
        <ele>1656.46</ele>
        <time>2022-10-28T12:12:58.000Z</time>
      </trkpt>
      <trkpt lat="45.19114" lon="5.59171">
        <ele>1660.93</ele>
        <time>2022-10-28T12:13:16.000Z</time>
      </trkpt>
      <trkpt lat="45.19095" lon="5.59166">
        <ele>1664.13</ele>
        <time>2022-10-28T12:13:34.000Z</time>
      </trkpt>
      <trkpt lat="45.19077" lon="5.59161">
        <ele>1665.59</ele>
        <time>2022-10-28T12:13:50.000Z</time>
      </trkpt>
      <trkpt lat="45.19058" lon="5.59151">
        <ele>1668.2</ele>
        <time>2022-10-28T12:14:08.000Z</time>
      </trkpt>
      <trkpt lat="45.1904" lon="5.59146">
        <ele>1671.14</ele>
        <time>2022-10-28T12:14:26.000Z</time>
      </trkpt>
      <trkpt lat="45.1902" lon="5.59141">
        <ele>1674.81</ele>
        <time>2022-10-28T12:14:40.000Z</time>
      </trkpt>
      <trkpt lat="45.19001" lon="5.5914">
        <ele>1677.41</ele>
        <time>2022-10-28T12:14:54.000Z</time>
      </trkpt>
      <trkpt lat="45.18983" lon="5.59141">
        <ele>1677.93</ele>
        <time>2022-10-28T12:15:08.000Z</time>
      </trkpt>
      <trkpt lat="45.18964" lon="5.59136">
        <ele>1681.13</ele>
        <time>2022-10-28T12:15:22.000Z</time>
      </trkpt>
      <trkpt lat="45.18945" lon="5.59141">
        <ele>1682.04</ele>
        <time>2022-10-28T12:15:38.000Z</time>
      </trkpt>
      <trkpt lat="45.18925" lon="5.5914">
        <ele>1686.15</ele>
        <time>2022-10-28T12:15:54.000Z</time>
      </trkpt>
      <trkpt lat="45.18904" lon="5.59143">
        <ele>1687.26</ele>
        <time>2022-10-28T12:16:10.000Z</time>
      </trkpt>
      <trkpt lat="45.18883" lon="5.59143">
        <ele>1689.35</ele>
        <time>2022-10-28T12:16:26.000Z</time>
      </trkpt>
      <trkpt lat="45.18864" lon="5.59141">
        <ele>1691.47</ele>
        <time>2022-10-28T12:16:38.000Z</time>
      </trkpt>
      <trkpt lat="45.18845" lon="5.59145">
        <ele>1692.55</ele>
        <time>2022-10-28T12:16:50.000Z</time>
      </trkpt>
      <trkpt lat="45.18825" lon="5.59147">
        <ele>1694.22</ele>
        <time>2022-10-28T12:26:40.000Z</time>
      </trkpt>
      <trkpt lat="45.18807" lon="5.59163">
        <ele>1693.88</ele>
        <time>2022-10-28T12:26:50.000Z</time>
      </trkpt>
      <trkpt lat="45.18794" lon="5.59181">
        <ele>1690.02</ele>
        <time>2022-10-28T12:26:58.000Z</time>
      </trkpt>
      <trkpt lat="45.18777" lon="5.59193">
        <ele>1690.6</ele>
        <time>2022-10-28T12:27:06.000Z</time>
      </trkpt>
      <trkpt lat="45.18758" lon="5.59195">
        <ele>1695.11</ele>
        <time>2022-10-28T12:27:14.000Z</time>
      </trkpt>
      <trkpt lat="45.18739" lon="5.5921">
        <ele>1695.27</ele>
        <time>2022-10-28T12:27:22.000Z</time>
      </trkpt>
      <trkpt lat="45.18723" lon="5.59225">
        <ele>1696.79</ele>
        <time>2022-10-28T12:27:34.000Z</time>
      </trkpt>
      <trkpt lat="45.18706" lon="5.59238">
        <ele>1697.15</ele>
        <time>2022-10-28T12:27:44.000Z</time>
      </trkpt>
      <trkpt lat="45.18691" lon="5.59259">
        <ele>1696.74</ele>
        <time>2022-10-28T12:27:52.000Z</time>
      </trkpt>
      <trkpt lat="45.18669" lon="5.59261">
        <ele>1696.92</ele>
        <time>2022-10-28T12:28:02.000Z</time>
      </trkpt>
      <trkpt lat="45.18649" lon="5.5925">
        <ele>1695.43</ele>
        <time>2022-10-28T12:28:14.000Z</time>
      </trkpt>
      <trkpt lat="45.18635" lon="5.59232">
        <ele>1694.8</ele>
        <time>2022-10-28T12:28:24.000Z</time>
      </trkpt>
      <trkpt lat="45.18623" lon="5.59211">
        <ele>1695.5</ele>
        <time>2022-10-28T12:28:42.000Z</time>
      </trkpt>
      <trkpt lat="45.18611" lon="5.59189">
        <ele>1698.74</ele>
        <time>2022-10-28T12:28:48.000Z</time>
      </trkpt>
      <trkpt lat="45.18592" lon="5.59169">
        <ele>1698.96</ele>
        <time>2022-10-28T12:28:54.000Z</time>
      </trkpt>
      <trkpt lat="45.18571" lon="5.59149">
        <ele>1697.19</ele>
        <time>2022-10-28T12:29:00.000Z</time>
      </trkpt>
      <trkpt lat="45.18565" lon="5.59119">
        <ele>1701.11</ele>
        <time>2022-10-28T12:29:08.000Z</time>
      </trkpt>
      <trkpt lat="45.18544" lon="5.59103">
        <ele>1697.19</ele>
        <time>2022-10-28T12:29:18.000Z</time>
      </trkpt>
      <trkpt lat="45.18525" lon="5.59074">
        <ele>1696.32</ele>
        <time>2022-10-28T12:29:24.000Z</time>
      </trkpt>
      <trkpt lat="45.18509" lon="5.59055">
        <ele>1694.15</ele>
        <time>2022-10-28T12:29:28.000Z</time>
      </trkpt>
      <trkpt lat="45.1849" lon="5.59037">
        <ele>1691.04</ele>
        <time>2022-10-28T12:29:32.000Z</time>
      </trkpt>
      <trkpt lat="45.18481" lon="5.59014">
        <ele>1690.72</ele>
        <time>2022-10-28T12:29:36.000Z</time>
      </trkpt>
      <trkpt lat="45.18472" lon="5.58988">
        <ele>1691.5</ele>
        <time>2022-10-28T12:29:40.000Z</time>
      </trkpt>
      <trkpt lat="45.18459" lon="5.58969">
        <ele>1688.73</ele>
        <time>2022-10-28T12:29:46.000Z</time>
      </trkpt>
      <trkpt lat="45.18444" lon="5.58955">
        <ele>1686.48</ele>
        <time>2022-10-28T12:29:50.000Z</time>
      </trkpt>
      <trkpt lat="45.18427" lon="5.58938">
        <ele>1683.75</ele>
        <time>2022-10-28T12:29:54.000Z</time>
      </trkpt>
      <trkpt lat="45.18403" lon="5.58916">
        <ele>1679.24</ele>
        <time>2022-10-28T12:30:00.000Z</time>
      </trkpt>
      <trkpt lat="45.18381" lon="5.58893">
        <ele>1675.7</ele>
        <time>2022-10-28T12:30:06.000Z</time>
      </trkpt>
      <trkpt lat="45.1837" lon="5.58866">
        <ele>1676.87</ele>
        <time>2022-10-28T12:30:10.000Z</time>
      </trkpt>
      <trkpt lat="45.18348" lon="5.5884">
        <ele>1674.4</ele>
        <time>2022-10-28T12:30:14.000Z</time>
      </trkpt>
      <trkpt lat="45.18322" lon="5.58813">
        <ele>1670.06</ele>
        <time>2022-10-28T12:30:18.000Z</time>
      </trkpt>
      <trkpt lat="45.18294" lon="5.58804">
        <ele>1663.82</ele>
        <time>2022-10-28T12:30:22.000Z</time>
      </trkpt>
      <trkpt lat="45.18267" lon="5.58792">
        <ele>1657.97</ele>
        <time>2022-10-28T12:30:26.000Z</time>
      </trkpt>
      <trkpt lat="45.18253" lon="5.58772">
        <ele>1658.01</ele>
        <time>2022-10-28T12:30:48.000Z</time>
      </trkpt>
      <trkpt lat="45.18238" lon="5.58756">
        <ele>1657.04</ele>
        <time>2022-10-28T12:30:52.000Z</time>
      </trkpt>
      <trkpt lat="45.18212" lon="5.58745">
        <ele>1653.33</ele>
        <time>2022-10-28T12:30:58.000Z</time>
      </trkpt>
      <trkpt lat="45.18193" lon="5.58747">
        <ele>1647.37</ele>
        <time>2022-10-28T12:31:06.000Z</time>
      </trkpt>
      <trkpt lat="45.1818" lon="5.58722">
        <ele>1650.55</ele>
        <time>2022-10-28T12:31:18.000Z</time>
      </trkpt>
      <trkpt lat="45.18156" lon="5.58705">
        <ele>1650.31</ele>
        <time>2022-10-28T12:31:24.000Z</time>
      </trkpt>
      <trkpt lat="45.18139" lon="5.58696">
        <ele>1650.47</ele>
        <time>2022-10-28T12:31:28.000Z</time>
      </trkpt>
      <trkpt lat="45.18115" lon="5.58684">
        <ele>1649.68</ele>
        <time>2022-10-28T12:31:34.000Z</time>
      </trkpt>
      <trkpt lat="45.18094" lon="5.58667">
        <ele>1650.37</ele>
        <time>2022-10-28T12:31:40.000Z</time>
      </trkpt>
      <trkpt lat="45.18077" lon="5.58655">
        <ele>1649.4</ele>
        <time>2022-10-28T12:31:44.000Z</time>
      </trkpt>
      <trkpt lat="45.18056" lon="5.58645">
        <ele>1647.31</ele>
        <time>2022-10-28T12:31:48.000Z</time>
      </trkpt>
      <trkpt lat="45.1803" lon="5.58626">
        <ele>1644.79</ele>
        <time>2022-10-28T12:31:52.000Z</time>
      </trkpt>
      <trkpt lat="45.18003" lon="5.58606">
        <ele>1643.09</ele>
        <time>2022-10-28T12:31:56.000Z</time>
      </trkpt>
      <trkpt lat="45.17975" lon="5.58591">
        <ele>1642.24</ele>
        <time>2022-10-28T12:32:00.000Z</time>
      </trkpt>
      <trkpt lat="45.17954" lon="5.5859">
        <ele>1641.74</ele>
        <time>2022-10-28T12:32:08.000Z</time>
      </trkpt>
      <trkpt lat="45.17936" lon="5.58585">
        <ele>1643.03</ele>
        <time>2022-10-28T12:32:20.000Z</time>
      </trkpt>
      <trkpt lat="45.17916" lon="5.58582">
        <ele>1645.08</ele>
        <time>2022-10-28T12:32:34.000Z</time>
      </trkpt>
      <trkpt lat="45.17897" lon="5.58578">
        <ele>1647.59</ele>
        <time>2022-10-28T12:32:48.000Z</time>
      </trkpt>
      <trkpt lat="45.17877" lon="5.58585">
        <ele>1649.52</ele>
        <time>2022-10-28T12:33:02.000Z</time>
      </trkpt>
      <trkpt lat="45.1786" lon="5.58593">
        <ele>1651.05</ele>
        <time>2022-10-28T12:33:16.000Z</time>
      </trkpt>
      <trkpt lat="45.17843" lon="5.58608">
        <ele>1651.33</ele>
        <time>2022-10-28T12:33:36.000Z</time>
      </trkpt>
      <trkpt lat="45.17826" lon="5.5862">
        <ele>1651.52</ele>
        <time>2022-10-28T12:33:50.000Z</time>
      </trkpt>
      <trkpt lat="45.17806" lon="5.58624">
        <ele>1654.22</ele>
        <time>2022-10-28T12:34:06.000Z</time>
      </trkpt>
      <trkpt lat="45.17789" lon="5.58634">
        <ele>1654.22</ele>
        <time>2022-10-28T12:34:18.000Z</time>
      </trkpt>
      <trkpt lat="45.17771" lon="5.58642">
        <ele>1654.09</ele>
        <time>2022-10-28T12:34:30.000Z</time>
      </trkpt>
      <trkpt lat="45.1775" lon="5.58641">
        <ele>1657.15</ele>
        <time>2022-10-28T12:34:40.000Z</time>
      </trkpt>
      <trkpt lat="45.17732" lon="5.58647">
        <ele>1657.66</ele>
        <time>2022-10-28T12:34:48.000Z</time>
      </trkpt>
      <trkpt lat="45.17714" lon="5.58652">
        <ele>1658.3</ele>
        <time>2022-10-28T12:34:56.000Z</time>
      </trkpt>
      <trkpt lat="45.17695" lon="5.58652">
        <ele>1659.5</ele>
        <time>2022-10-28T12:35:06.000Z</time>
      </trkpt>
      <trkpt lat="45.17676" lon="5.58652">
        <ele>1660.88</ele>
        <time>2022-10-28T12:35:20.000Z</time>
      </trkpt>
      <trkpt lat="45.17657" lon="5.58642">
        <ele>1665.64</ele>
        <time>2022-10-28T12:35:34.000Z</time>
      </trkpt>
      <trkpt lat="45.17639" lon="5.58631">
        <ele>1670.22</ele>
        <time>2022-10-28T12:35:48.000Z</time>
      </trkpt>
      <trkpt lat="45.17619" lon="5.58622">
        <ele>1671.68</ele>
        <time>2022-10-28T12:36:02.000Z</time>
      </trkpt>
      <trkpt lat="45.17602" lon="5.58606">
        <ele>1674.5</ele>
        <time>2022-10-28T12:36:12.000Z</time>
      </trkpt>
      <trkpt lat="45.17583" lon="5.58595">
        <ele>1674.87</ele>
        <time>2022-10-28T12:36:20.000Z</time>
      </trkpt>
      <trkpt lat="45.1756" lon="5.58585">
        <ele>1675.45</ele>
        <time>2022-10-28T12:36:28.000Z</time>
      </trkpt>
      <trkpt lat="45.17541" lon="5.58581">
        <ele>1674.42</ele>
        <time>2022-10-28T12:36:34.000Z</time>
      </trkpt>
      <trkpt lat="45.17523" lon="5.58563">
        <ele>1675.51</ele>
        <time>2022-10-28T12:36:40.000Z</time>
      </trkpt>
      <trkpt lat="45.17508" lon="5.58549">
        <ele>1676.44</ele>
        <time>2022-10-28T12:36:44.000Z</time>
      </trkpt>
      <trkpt lat="45.17486" lon="5.5855">
        <ele>1674.41</ele>
        <time>2022-10-28T12:36:48.000Z</time>
      </trkpt>
      <trkpt lat="45.17465" lon="5.58547">
        <ele>1671.18</ele>
        <time>2022-10-28T12:36:54.000Z</time>
      </trkpt>
      <trkpt lat="45.17442" lon="5.58537">
        <ele>1668.05</ele>
        <time>2022-10-28T12:37:00.000Z</time>
      </trkpt>
      <trkpt lat="45.17425" lon="5.5852">
        <ele>1666.06</ele>
        <time>2022-10-28T12:43:17.000Z</time>
      </trkpt>
      <trkpt lat="45.17402" lon="5.58501">
        <ele>1663.39</ele>
        <time>2022-10-28T12:43:23.000Z</time>
      </trkpt>
      <trkpt lat="45.17385" lon="5.58488">
        <ele>1660.49</ele>
        <time>2022-10-28T12:43:27.000Z</time>
      </trkpt>
      <trkpt lat="45.1737" lon="5.58471">
        <ele>1658.75</ele>
        <time>2022-10-28T12:43:33.000Z</time>
      </trkpt>
      <trkpt lat="45.17352" lon="5.58459">
        <ele>1655.56</ele>
        <time>2022-10-28T12:43:41.000Z</time>
      </trkpt>
      <trkpt lat="45.1733" lon="5.58451">
        <ele>1650.09</ele>
        <time>2022-10-28T12:43:51.000Z</time>
      </trkpt>
      <trkpt lat="45.17314" lon="5.58432">
        <ele>1646.63</ele>
        <time>2022-10-28T12:44:01.000Z</time>
      </trkpt>
      <trkpt lat="45.17297" lon="5.58406">
        <ele>1645.3</ele>
        <time>2022-10-28T12:44:07.000Z</time>
      </trkpt>
      <trkpt lat="45.17308" lon="5.5838">
        <ele>1647.3</ele>
        <time>2022-10-28T12:44:17.000Z</time>
      </trkpt>
      <trkpt lat="45.17324" lon="5.58359">
        <ele>1647.3</ele>
        <time>2022-10-28T12:44:25.000Z</time>
      </trkpt>
      <trkpt lat="45.17339" lon="5.58345">
        <ele>1647.08</ele>
        <time>2022-10-28T12:44:31.000Z</time>
      </trkpt>
      <trkpt lat="45.17358" lon="5.58326">
        <ele>1646.77</ele>
        <time>2022-10-28T12:44:39.000Z</time>
      </trkpt>
      <trkpt lat="45.17373" lon="5.58301">
        <ele>1643.48</ele>
        <time>2022-10-28T12:44:45.000Z</time>
      </trkpt>
      <trkpt lat="45.17388" lon="5.58277">
        <ele>1640.88</ele>
        <time>2022-10-28T12:44:49.000Z</time>
      </trkpt>
      <trkpt lat="45.17402" lon="5.58253">
        <ele>1638.46</ele>
        <time>2022-10-28T12:44:53.000Z</time>
      </trkpt>
      <trkpt lat="45.17416" lon="5.58232">
        <ele>1636.5</ele>
        <time>2022-10-28T12:44:57.000Z</time>
      </trkpt>
      <trkpt lat="45.17432" lon="5.58207">
        <ele>1633.19</ele>
        <time>2022-10-28T12:45:03.000Z</time>
      </trkpt>
      <trkpt lat="45.17447" lon="5.58174">
        <ele>1627.28</ele>
        <time>2022-10-28T12:45:09.000Z</time>
      </trkpt>
      <trkpt lat="45.17466" lon="5.58144">
        <ele>1620.87</ele>
        <time>2022-10-28T12:45:13.000Z</time>
      </trkpt>
      <trkpt lat="45.17481" lon="5.5812">
        <ele>1615.98</ele>
        <time>2022-10-28T12:45:19.000Z</time>
      </trkpt>
      <trkpt lat="45.17502" lon="5.58099">
        <ele>1614.82</ele>
        <time>2022-10-28T12:45:39.000Z</time>
      </trkpt>
      <trkpt lat="45.17522" lon="5.58082">
        <ele>1614.14</ele>
        <time>2022-10-28T12:45:47.000Z</time>
      </trkpt>
      <trkpt lat="45.1754" lon="5.5807">
        <ele>1613.77</ele>
        <time>2022-10-28T12:45:53.000Z</time>
      </trkpt>
      <trkpt lat="45.17526" lon="5.58041">
        <ele>1610.63</ele>
        <time>2022-10-28T12:46:01.000Z</time>
      </trkpt>
      <trkpt lat="45.17508" lon="5.58024">
        <ele>1605.31</ele>
        <time>2022-10-28T12:46:05.000Z</time>
      </trkpt>
      <trkpt lat="45.17512" lon="5.57998">
        <ele>1600.65</ele>
        <time>2022-10-28T12:46:13.000Z</time>
      </trkpt>
      <trkpt lat="45.17528" lon="5.57979">
        <ele>1601.18</ele>
        <time>2022-10-28T12:46:21.000Z</time>
      </trkpt>
      <trkpt lat="45.17511" lon="5.57962">
        <ele>1594.04</ele>
        <time>2022-10-28T12:46:29.000Z</time>
      </trkpt>
      <trkpt lat="45.17495" lon="5.57945">
        <ele>1585.47</ele>
        <time>2022-10-28T12:46:33.000Z</time>
      </trkpt>
      <trkpt lat="45.17507" lon="5.57923">
        <ele>1583.32</ele>
        <time>2022-10-28T12:46:37.000Z</time>
      </trkpt>
      <trkpt lat="45.17522" lon="5.57908">
        <ele>1584.38</ele>
        <time>2022-10-28T12:46:41.000Z</time>
      </trkpt>
      <trkpt lat="45.17507" lon="5.5788">
        <ele>1576.39</ele>
        <time>2022-10-28T12:46:51.000Z</time>
      </trkpt>
      <trkpt lat="45.17495" lon="5.5786">
        <ele>1568.09</ele>
        <time>2022-10-28T12:46:57.000Z</time>
      </trkpt>
      <trkpt lat="45.17509" lon="5.57843">
        <ele>1569.93</ele>
        <time>2022-10-28T12:47:01.000Z</time>
      </trkpt>
      <trkpt lat="45.17525" lon="5.57822">
        <ele>1570.72</ele>
        <time>2022-10-28T12:47:07.000Z</time>
      </trkpt>
      <trkpt lat="45.17542" lon="5.57804">
        <ele>1569.45</ele>
        <time>2022-10-28T12:47:13.000Z</time>
      </trkpt>
      <trkpt lat="45.17521" lon="5.57784">
        <ele>1564.15</ele>
        <time>2022-10-28T12:47:21.000Z</time>
      </trkpt>
      <trkpt lat="45.17503" lon="5.57773">
        <ele>1559.41</ele>
        <time>2022-10-28T12:47:25.000Z</time>
      </trkpt>
      <trkpt lat="45.17488" lon="5.57758">
        <ele>1552.43</ele>
        <time>2022-10-28T12:47:33.000Z</time>
      </trkpt>
      <trkpt lat="45.17505" lon="5.57737">
        <ele>1551.19</ele>
        <time>2022-10-28T12:47:41.000Z</time>
      </trkpt>
      <trkpt lat="45.17527" lon="5.57729">
        <ele>1549.84</ele>
        <time>2022-10-28T12:47:47.000Z</time>
      </trkpt>
      <trkpt lat="45.17517" lon="5.57706">
        <ele>1544.29</ele>
        <time>2022-10-28T12:47:59.000Z</time>
      </trkpt>
      <trkpt lat="45.17503" lon="5.57688">
        <ele>1540.67</ele>
        <time>2022-10-28T12:48:03.000Z</time>
      </trkpt>
      <trkpt lat="45.17482" lon="5.57659">
        <ele>1534.46</ele>
        <time>2022-10-28T12:48:07.000Z</time>
      </trkpt>
      <trkpt lat="45.17462" lon="5.57636">
        <ele>1528.19</ele>
        <time>2022-10-28T12:48:11.000Z</time>
      </trkpt>
      <trkpt lat="45.17449" lon="5.57616">
        <ele>1522.77</ele>
        <time>2022-10-28T12:48:43.000Z</time>
      </trkpt>
      <trkpt lat="45.17438" lon="5.57641">
        <ele>1518.67</ele>
        <time>2022-10-28T12:48:59.000Z</time>
      </trkpt>
      <trkpt lat="45.1743" lon="5.57667">
        <ele>1514.45</ele>
        <time>2022-10-28T12:49:09.000Z</time>
      </trkpt>
      <trkpt lat="45.17425" lon="5.57693">
        <ele>1511.26</ele>
        <time>2022-10-28T12:49:15.000Z</time>
      </trkpt>
      <trkpt lat="45.17422" lon="5.57721">
        <ele>1509.26</ele>
        <time>2022-10-28T12:49:19.000Z</time>
      </trkpt>
      <trkpt lat="45.17416" lon="5.57747">
        <ele>1507.21</ele>
        <time>2022-10-28T12:49:25.000Z</time>
      </trkpt>
      <trkpt lat="45.17404" lon="5.57769">
        <ele>1502.11</ele>
        <time>2022-10-28T12:49:31.000Z</time>
      </trkpt>
      <trkpt lat="45.17388" lon="5.57786">
        <ele>1493.82</ele>
        <time>2022-10-28T12:49:39.000Z</time>
      </trkpt>
      <trkpt lat="45.17373" lon="5.57801">
        <ele>1487.71</ele>
        <time>2022-10-28T12:49:49.000Z</time>
      </trkpt>
      <trkpt lat="45.17357" lon="5.57817">
        <ele>1481.54</ele>
        <time>2022-10-28T12:49:57.000Z</time>
      </trkpt>
      <trkpt lat="45.17338" lon="5.57835">
        <ele>1476.4</ele>
        <time>2022-10-28T12:50:03.000Z</time>
      </trkpt>
      <trkpt lat="45.17316" lon="5.57845">
        <ele>1470.4</ele>
        <time>2022-10-28T12:50:09.000Z</time>
      </trkpt>
      <trkpt lat="45.17317" lon="5.57818">
        <ele>1465</ele>
        <time>2022-10-28T12:50:21.000Z</time>
      </trkpt>
      <trkpt lat="45.17298" lon="5.57823">
        <ele>1460.14</ele>
        <time>2022-10-28T12:50:57.000Z</time>
      </trkpt>
      <trkpt lat="45.1728" lon="5.57837">
        <ele>1459.51</ele>
        <time>2022-10-28T12:51:05.000Z</time>
      </trkpt>
      <trkpt lat="45.17256" lon="5.57848">
        <ele>1459.04</ele>
        <time>2022-10-28T12:51:11.000Z</time>
      </trkpt>
      <trkpt lat="45.17235" lon="5.57849">
        <ele>1458.4</ele>
        <time>2022-10-28T12:51:15.000Z</time>
      </trkpt>
      <trkpt lat="45.17214" lon="5.57843">
        <ele>1456.72</ele>
        <time>2022-10-28T12:51:19.000Z</time>
      </trkpt>
      <trkpt lat="45.17195" lon="5.57847">
        <ele>1457.97</ele>
        <time>2022-10-28T12:51:23.000Z</time>
      </trkpt>
      <trkpt lat="45.17173" lon="5.57845">
        <ele>1459.05</ele>
        <time>2022-10-28T12:51:27.000Z</time>
      </trkpt>
      <trkpt lat="45.17153" lon="5.57843">
        <ele>1459.68</ele>
        <time>2022-10-28T12:51:31.000Z</time>
      </trkpt>
      <trkpt lat="45.17128" lon="5.57848">
        <ele>1462.4</ele>
        <time>2022-10-28T12:51:37.000Z</time>
      </trkpt>
      <trkpt lat="45.17103" lon="5.5784">
        <ele>1462.25</ele>
        <time>2022-10-28T12:51:43.000Z</time>
      </trkpt>
      <trkpt lat="45.17079" lon="5.5783">
        <ele>1461.4</ele>
        <time>2022-10-28T12:51:49.000Z</time>
      </trkpt>
      <trkpt lat="45.1706" lon="5.57823">
        <ele>1461.12</ele>
        <time>2022-10-28T12:51:55.000Z</time>
      </trkpt>
      <trkpt lat="45.1704" lon="5.57816">
        <ele>1460.84</ele>
        <time>2022-10-28T12:52:01.000Z</time>
      </trkpt>
      <trkpt lat="45.17021" lon="5.57812">
        <ele>1460.55</ele>
        <time>2022-10-28T12:52:07.000Z</time>
      </trkpt>
      <trkpt lat="45.17001" lon="5.57808">
        <ele>1459.8</ele>
        <time>2022-10-28T12:52:13.000Z</time>
      </trkpt>
      <trkpt lat="45.16978" lon="5.57812">
        <ele>1461.78</ele>
        <time>2022-10-28T12:52:19.000Z</time>
      </trkpt>
      <trkpt lat="45.16956" lon="5.57821">
        <ele>1465.14</ele>
        <time>2022-10-28T12:52:25.000Z</time>
      </trkpt>
      <trkpt lat="45.16927" lon="5.57818">
        <ele>1463.98</ele>
        <time>2022-10-28T12:52:31.000Z</time>
      </trkpt>
      <trkpt lat="45.16904" lon="5.57807">
        <ele>1460.32</ele>
        <time>2022-10-28T12:52:35.000Z</time>
      </trkpt>
      <trkpt lat="45.16879" lon="5.57807">
        <ele>1459.92</ele>
        <time>2022-10-28T12:52:39.000Z</time>
      </trkpt>
      <trkpt lat="45.16856" lon="5.57799">
        <ele>1459.49</ele>
        <time>2022-10-28T12:52:43.000Z</time>
      </trkpt>
      <trkpt lat="45.16837" lon="5.57767">
        <ele>1453.77</ele>
        <time>2022-10-28T12:52:47.000Z</time>
      </trkpt>
      <trkpt lat="45.16814" lon="5.57737">
        <ele>1448.63</ele>
        <time>2022-10-28T12:52:51.000Z</time>
      </trkpt>
      <trkpt lat="45.16784" lon="5.57719">
        <ele>1447.07</ele>
        <time>2022-10-28T12:52:55.000Z</time>
      </trkpt>
      <trkpt lat="45.16749" lon="5.57711">
        <ele>1446.73</ele>
        <time>2022-10-28T12:52:59.000Z</time>
      </trkpt>
      <trkpt lat="45.16732" lon="5.57701">
        <ele>1445.06</ele>
        <time>2022-10-28T12:53:01.000Z</time>
      </trkpt>
      <trkpt lat="45.16714" lon="5.57696">
        <ele>1443.43</ele>
        <time>2022-10-28T12:53:03.000Z</time>
      </trkpt>
      <trkpt lat="45.16694" lon="5.57697">
        <ele>1442.11</ele>
        <time>2022-10-28T12:53:05.000Z</time>
      </trkpt>
      <trkpt lat="45.16675" lon="5.577">
        <ele>1441.46</ele>
        <time>2022-10-28T12:53:07.000Z</time>
      </trkpt>
      <trkpt lat="45.16643" lon="5.57712">
        <ele>1442.39</ele>
        <time>2022-10-28T12:53:11.000Z</time>
      </trkpt>
      <trkpt lat="45.16617" lon="5.57719">
        <ele>1443.91</ele>
        <time>2022-10-28T12:53:15.000Z</time>
      </trkpt>
      <trkpt lat="45.16593" lon="5.57727">
        <ele>1446.31</ele>
        <time>2022-10-28T12:53:19.000Z</time>
      </trkpt>
      <trkpt lat="45.16571" lon="5.57724">
        <ele>1447.99</ele>
        <time>2022-10-28T12:53:23.000Z</time>
      </trkpt>
      <trkpt lat="45.16554" lon="5.57703">
        <ele>1446.14</ele>
        <time>2022-10-28T12:53:27.000Z</time>
      </trkpt>
      <trkpt lat="45.16544" lon="5.57681">
        <ele>1443.7</ele>
        <time>2022-10-28T12:53:31.000Z</time>
      </trkpt>
      <trkpt lat="45.16537" lon="5.57649">
        <ele>1438.37</ele>
        <time>2022-10-28T12:53:37.000Z</time>
      </trkpt>
      <trkpt lat="45.16524" lon="5.57627">
        <ele>1436.47</ele>
        <time>2022-10-28T12:53:43.000Z</time>
      </trkpt>
      <trkpt lat="45.16546" lon="5.57621">
        <ele>1427.31</ele>
        <time>2022-10-28T12:53:55.000Z</time>
      </trkpt>
      <trkpt lat="45.16566" lon="5.57627">
        <ele>1421.87</ele>
        <time>2022-10-28T12:54:01.000Z</time>
      </trkpt>
      <trkpt lat="45.16561" lon="5.57596">
        <ele>1414.28</ele>
        <time>2022-10-28T12:54:27.000Z</time>
      </trkpt>
      <trkpt lat="45.16581" lon="5.57583">
        <ele>1403.87</ele>
        <time>2022-10-28T12:54:47.000Z</time>
      </trkpt>
      <trkpt lat="45.16595" lon="5.57599">
        <ele>1404.38</ele>
        <time>2022-10-28T12:54:57.000Z</time>
      </trkpt>
      <trkpt lat="45.16591" lon="5.57571">
        <ele>1397.86</ele>
        <time>2022-10-28T12:55:13.000Z</time>
      </trkpt>
      <trkpt lat="45.16609" lon="5.57573">
        <ele>1393.48</ele>
        <time>2022-10-28T12:55:23.000Z</time>
      </trkpt>
      <trkpt lat="45.16601" lon="5.57538">
        <ele>1387.73</ele>
        <time>2022-10-28T12:55:35.000Z</time>
      </trkpt>
      <trkpt lat="45.16616" lon="5.5752">
        <ele>1380.57</ele>
        <time>2022-10-28T12:55:51.000Z</time>
      </trkpt>
      <trkpt lat="45.16611" lon="5.57495">
        <ele>1377.67</ele>
        <time>2022-10-28T12:55:57.000Z</time>
      </trkpt>
      <trkpt lat="45.16608" lon="5.57455">
        <ele>1373.46</ele>
        <time>2022-10-28T12:56:03.000Z</time>
      </trkpt>
      <trkpt lat="45.16603" lon="5.57425">
        <ele>1370.77</ele>
        <time>2022-10-28T12:56:07.000Z</time>
      </trkpt>
      <trkpt lat="45.16596" lon="5.57398">
        <ele>1369.96</ele>
        <time>2022-10-28T12:56:11.000Z</time>
      </trkpt>
      <trkpt lat="45.16593" lon="5.57373">
        <ele>1369.41</ele>
        <time>2022-10-28T12:56:15.000Z</time>
      </trkpt>
      <trkpt lat="45.1659" lon="5.57342">
        <ele>1367.9</ele>
        <time>2022-10-28T12:56:21.000Z</time>
      </trkpt>
      <trkpt lat="45.16589" lon="5.57316">
        <ele>1366.47</ele>
        <time>2022-10-28T12:56:25.000Z</time>
      </trkpt>
      <trkpt lat="45.16587" lon="5.57288">
        <ele>1365.99</ele>
        <time>2022-10-28T12:56:31.000Z</time>
      </trkpt>
      <trkpt lat="45.16594" lon="5.57261">
        <ele>1361.2</ele>
        <time>2022-10-28T12:56:35.000Z</time>
      </trkpt>
      <trkpt lat="45.166" lon="5.57225">
        <ele>1354.31</ele>
        <time>2022-10-28T12:56:41.000Z</time>
      </trkpt>
      <trkpt lat="45.1661" lon="5.572">
        <ele>1344.64</ele>
        <time>2022-10-28T12:56:49.000Z</time>
      </trkpt>
      <trkpt lat="45.16616" lon="5.57224">
        <ele>1342.35</ele>
        <time>2022-10-28T12:56:57.000Z</time>
      </trkpt>
      <trkpt lat="45.1663" lon="5.57244">
        <ele>1335.93</ele>
        <time>2022-10-28T12:57:03.000Z</time>
      </trkpt>
      <trkpt lat="45.16639" lon="5.57266">
        <ele>1332.23</ele>
        <time>2022-10-28T12:57:07.000Z</time>
      </trkpt>
      <trkpt lat="45.16651" lon="5.57296">
        <ele>1329.51</ele>
        <time>2022-10-28T12:57:13.000Z</time>
      </trkpt>
      <trkpt lat="45.16656" lon="5.57263">
        <ele>1323.62</ele>
        <time>2022-10-28T12:57:21.000Z</time>
      </trkpt>
      <trkpt lat="45.16658" lon="5.57237">
        <ele>1319.44</ele>
        <time>2022-10-28T12:57:25.000Z</time>
      </trkpt>
      <trkpt lat="45.16658" lon="5.57203">
        <ele>1314.9</ele>
        <time>2022-10-28T12:57:31.000Z</time>
      </trkpt>
      <trkpt lat="45.16662" lon="5.57176">
        <ele>1310.07</ele>
        <time>2022-10-28T12:57:37.000Z</time>
      </trkpt>
      <trkpt lat="45.16658" lon="5.57148">
        <ele>1308.95</ele>
        <time>2022-10-28T12:57:47.000Z</time>
      </trkpt>
      <trkpt lat="45.1668" lon="5.57172">
        <ele>1301.24</ele>
        <time>2022-10-28T12:57:57.000Z</time>
      </trkpt>
      <trkpt lat="45.16689" lon="5.57149">
        <ele>1294.15</ele>
        <time>2022-10-28T12:58:09.000Z</time>
      </trkpt>
      <trkpt lat="45.16682" lon="5.57121">
        <ele>1294.01</ele>
        <time>2022-10-28T12:58:15.000Z</time>
      </trkpt>
      <trkpt lat="45.1668" lon="5.57094">
        <ele>1293.39</ele>
        <time>2022-10-28T12:58:25.000Z</time>
      </trkpt>
      <trkpt lat="45.16682" lon="5.57062">
        <ele>1291.23</ele>
        <time>2022-10-28T12:58:33.000Z</time>
      </trkpt>
      <trkpt lat="45.16688" lon="5.57026">
        <ele>1287.73</ele>
        <time>2022-10-28T12:58:37.000Z</time>
      </trkpt>
      <trkpt lat="45.16696" lon="5.56998">
        <ele>1280.82</ele>
        <time>2022-10-28T12:58:43.000Z</time>
      </trkpt>
      <trkpt lat="45.16708" lon="5.56966">
        <ele>1273.49</ele>
        <time>2022-10-28T12:58:49.000Z</time>
      </trkpt>
      <trkpt lat="45.1672" lon="5.56937">
        <ele>1268.43</ele>
        <time>2022-10-28T12:58:53.000Z</time>
      </trkpt>
      <trkpt lat="45.16732" lon="5.56901">
        <ele>1265.42</ele>
        <time>2022-10-28T12:58:57.000Z</time>
      </trkpt>
      <trkpt lat="45.16744" lon="5.56876">
        <ele>1262.35</ele>
        <time>2022-10-28T12:59:01.000Z</time>
      </trkpt>
      <trkpt lat="45.16752" lon="5.56904">
        <ele>1254.22</ele>
        <time>2022-10-28T12:59:15.000Z</time>
      </trkpt>
      <trkpt lat="45.16756" lon="5.56944">
        <ele>1248.33</ele>
        <time>2022-10-28T12:59:19.000Z</time>
      </trkpt>
      <trkpt lat="45.1676" lon="5.56976">
        <ele>1244.74</ele>
        <time>2022-10-28T12:59:23.000Z</time>
      </trkpt>
      <trkpt lat="45.16774" lon="5.56947">
        <ele>1239.34</ele>
        <time>2022-10-28T12:59:53.000Z</time>
      </trkpt>
      <trkpt lat="45.16783" lon="5.56915">
        <ele>1236.64</ele>
        <time>2022-10-28T12:59:57.000Z</time>
      </trkpt>
      <trkpt lat="45.16798" lon="5.56883">
        <ele>1231.29</ele>
        <time>2022-10-28T13:00:01.000Z</time>
      </trkpt>
      <trkpt lat="45.16807" lon="5.56849">
        <ele>1228.34</ele>
        <time>2022-10-28T13:00:05.000Z</time>
      </trkpt>
      <trkpt lat="45.16818" lon="5.56815">
        <ele>1224.55</ele>
        <time>2022-10-28T13:00:09.000Z</time>
      </trkpt>
      <trkpt lat="45.16831" lon="5.56782">
        <ele>1219.36</ele>
        <time>2022-10-28T13:00:13.000Z</time>
      </trkpt>
      <trkpt lat="45.16843" lon="5.56749">
        <ele>1214.5</ele>
        <time>2022-10-28T13:00:17.000Z</time>
      </trkpt>
      <trkpt lat="45.16849" lon="5.56725">
        <ele>1212.08</ele>
        <time>2022-10-28T13:00:23.000Z</time>
      </trkpt>
      <trkpt lat="45.16853" lon="5.56753">
        <ele>1206.59</ele>
        <time>2022-10-28T13:00:47.000Z</time>
      </trkpt>
      <trkpt lat="45.16855" lon="5.56782">
        <ele>1202.08</ele>
        <time>2022-10-28T13:00:51.000Z</time>
      </trkpt>
      <trkpt lat="45.16857" lon="5.56817">
        <ele>1198.2</ele>
        <time>2022-10-28T13:00:55.000Z</time>
      </trkpt>
      <trkpt lat="45.1686" lon="5.56856">
        <ele>1193.7</ele>
        <time>2022-10-28T13:00:59.000Z</time>
      </trkpt>
      <trkpt lat="45.16859" lon="5.56897">
        <ele>1193.46</ele>
        <time>2022-10-28T13:01:07.000Z</time>
      </trkpt>
      <trkpt lat="45.16867" lon="5.56927">
        <ele>1190.74</ele>
        <time>2022-10-28T13:01:11.000Z</time>
      </trkpt>
      <trkpt lat="45.16881" lon="5.56948">
        <ele>1187.14</ele>
        <time>2022-10-28T13:01:15.000Z</time>
      </trkpt>
      <trkpt lat="45.16893" lon="5.56928">
        <ele>1183.73</ele>
        <time>2022-10-28T13:01:33.000Z</time>
      </trkpt>
      <trkpt lat="45.169" lon="5.56903">
        <ele>1181.67</ele>
        <time>2022-10-28T13:01:37.000Z</time>
      </trkpt>
      <trkpt lat="45.16903" lon="5.56876">
        <ele>1179.48</ele>
        <time>2022-10-28T13:01:49.000Z</time>
      </trkpt>
      <trkpt lat="45.1691" lon="5.56845">
        <ele>1176.72</ele>
        <time>2022-10-28T13:01:53.000Z</time>
      </trkpt>
      <trkpt lat="45.16926" lon="5.56808">
        <ele>1173.86</ele>
        <time>2022-10-28T13:01:57.000Z</time>
      </trkpt>
      <trkpt lat="45.16931" lon="5.56772">
        <ele>1171.55</ele>
        <time>2022-10-28T13:02:01.000Z</time>
      </trkpt>
      <trkpt lat="45.16927" lon="5.56745">
        <ele>1169.69</ele>
        <time>2022-10-28T13:02:09.000Z</time>
      </trkpt>
      <trkpt lat="45.16932" lon="5.56712">
        <ele>1168.54</ele>
        <time>2022-10-28T13:02:13.000Z</time>
      </trkpt>
      <trkpt lat="45.16946" lon="5.56673">
        <ele>1164.55</ele>
        <time>2022-10-28T13:02:17.000Z</time>
      </trkpt>
      <trkpt lat="45.1696" lon="5.56654">
        <ele>1162.01</ele>
        <time>2022-10-28T13:02:19.000Z</time>
      </trkpt>
      <trkpt lat="45.16975" lon="5.56636">
        <ele>1158.27</ele>
        <time>2022-10-28T13:02:21.000Z</time>
      </trkpt>
      <trkpt lat="45.16993" lon="5.56611">
        <ele>1152.82</ele>
        <time>2022-10-28T13:02:25.000Z</time>
      </trkpt>
      <trkpt lat="45.16989" lon="5.56569">
        <ele>1147.44</ele>
        <time>2022-10-28T13:02:29.000Z</time>
      </trkpt>
      <trkpt lat="45.16997" lon="5.56536">
        <ele>1143.91</ele>
        <time>2022-10-28T13:02:33.000Z</time>
      </trkpt>
      <trkpt lat="45.17008" lon="5.56494">
        <ele>1139</ele>
        <time>2022-10-28T13:02:37.000Z</time>
      </trkpt>
      <trkpt lat="45.17027" lon="5.56456">
        <ele>1130.61</ele>
        <time>2022-10-28T13:02:41.000Z</time>
      </trkpt>
      <trkpt lat="45.17045" lon="5.56413">
        <ele>1125.85</ele>
        <time>2022-10-28T13:02:45.000Z</time>
      </trkpt>
      <trkpt lat="45.17045" lon="5.56385">
        <ele>1124.63</ele>
        <time>2022-10-28T13:02:47.000Z</time>
      </trkpt>
      <trkpt lat="45.17046" lon="5.56357">
        <ele>1124.4</ele>
        <time>2022-10-28T13:02:49.000Z</time>
      </trkpt>
      <trkpt lat="45.17049" lon="5.56309">
        <ele>1123.97</ele>
        <time>2022-10-28T13:02:53.000Z</time>
      </trkpt>
      <trkpt lat="45.17052" lon="5.56264">
        <ele>1122.69</ele>
        <time>2022-10-28T13:02:57.000Z</time>
      </trkpt>
      <trkpt lat="45.17053" lon="5.56234">
        <ele>1121.27</ele>
        <time>2022-10-28T13:03:01.000Z</time>
      </trkpt>
      <trkpt lat="45.17053" lon="5.56206">
        <ele>1119.99</ele>
        <time>2022-10-28T13:03:07.000Z</time>
      </trkpt>
      <trkpt lat="45.17057" lon="5.56175">
        <ele>1118.94</ele>
        <time>2022-10-28T13:03:13.000Z</time>
      </trkpt>
      <trkpt lat="45.17067" lon="5.56143">
        <ele>1117.86</ele>
        <time>2022-10-28T13:03:19.000Z</time>
      </trkpt>
      <trkpt lat="45.17084" lon="5.56119">
        <ele>1116.33</ele>
        <time>2022-10-28T13:03:23.000Z</time>
      </trkpt>
      <trkpt lat="45.17102" lon="5.56096">
        <ele>1115.22</ele>
        <time>2022-10-28T13:03:27.000Z</time>
      </trkpt>
      <trkpt lat="45.17126" lon="5.56075">
        <ele>1113.61</ele>
        <time>2022-10-28T13:03:31.000Z</time>
      </trkpt>
      <trkpt lat="45.17153" lon="5.56055">
        <ele>1111.76</ele>
        <time>2022-10-28T13:03:35.000Z</time>
      </trkpt>
      <trkpt lat="45.17182" lon="5.56039">
        <ele>1110.04</ele>
        <time>2022-10-28T13:03:39.000Z</time>
      </trkpt>
      <trkpt lat="45.17211" lon="5.56027">
        <ele>1108.23</ele>
        <time>2022-10-28T13:03:43.000Z</time>
      </trkpt>
      <trkpt lat="45.17243" lon="5.56009">
        <ele>1105.65</ele>
        <time>2022-10-28T13:03:47.000Z</time>
      </trkpt>
      <trkpt lat="45.1726" lon="5.55999">
        <ele>1104.17</ele>
        <time>2022-10-28T13:03:49.000Z</time>
      </trkpt>
      <trkpt lat="45.1728" lon="5.55988">
        <ele>1102.7</ele>
        <time>2022-10-28T13:03:51.000Z</time>
      </trkpt>
      <trkpt lat="45.17299" lon="5.55977">
        <ele>1101.21</ele>
        <time>2022-10-28T13:03:53.000Z</time>
      </trkpt>
      <trkpt lat="45.1733" lon="5.55989">
        <ele>1099.21</ele>
        <time>2022-10-28T13:03:57.000Z</time>
      </trkpt>
      <trkpt lat="45.17343" lon="5.56011">
        <ele>1098.07</ele>
        <time>2022-10-28T13:03:59.000Z</time>
      </trkpt>
      <trkpt lat="45.17355" lon="5.56033">
        <ele>1096.47</ele>
        <time>2022-10-28T13:04:01.000Z</time>
      </trkpt>
      <trkpt lat="45.17381" lon="5.56051">
        <ele>1095.58</ele>
        <time>2022-10-28T13:04:05.000Z</time>
      </trkpt>
      <trkpt lat="45.17389" lon="5.56027">
        <ele>1095.12</ele>
        <time>2022-10-28T13:04:11.000Z</time>
      </trkpt>
      <trkpt lat="45.17381" lon="5.55998">
        <ele>1093.81</ele>
        <time>2022-10-28T13:04:15.000Z</time>
      </trkpt>
      <trkpt lat="45.17375" lon="5.55962">
        <ele>1092.57</ele>
        <time>2022-10-28T13:04:19.000Z</time>
      </trkpt>
      <trkpt lat="45.17367" lon="5.55922">
        <ele>1090.68</ele>
        <time>2022-10-28T13:04:23.000Z</time>
      </trkpt>
      <trkpt lat="45.17357" lon="5.55882">
        <ele>1089.28</ele>
        <time>2022-10-28T13:04:27.000Z</time>
      </trkpt>
      <trkpt lat="45.17339" lon="5.55847">
        <ele>1088.02</ele>
        <time>2022-10-28T13:04:31.000Z</time>
      </trkpt>
      <trkpt lat="45.17319" lon="5.55813">
        <ele>1086.3</ele>
        <time>2022-10-28T13:04:35.000Z</time>
      </trkpt>
      <trkpt lat="45.17298" lon="5.55779">
        <ele>1083.86</ele>
        <time>2022-10-28T13:04:39.000Z</time>
      </trkpt>
      <trkpt lat="45.17276" lon="5.55745">
        <ele>1082.93</ele>
        <time>2022-10-28T13:04:43.000Z</time>
      </trkpt>
      <trkpt lat="45.17253" lon="5.55711">
        <ele>1081.41</ele>
        <time>2022-10-28T13:04:47.000Z</time>
      </trkpt>
      <trkpt lat="45.17229" lon="5.55676">
        <ele>1080.03</ele>
        <time>2022-10-28T13:04:51.000Z</time>
      </trkpt>
      <trkpt lat="45.17204" lon="5.5564">
        <ele>1078.63</ele>
        <time>2022-10-28T13:04:55.000Z</time>
      </trkpt>
      <trkpt lat="45.17192" lon="5.55619">
        <ele>1078.05</ele>
        <time>2022-10-28T13:04:57.000Z</time>
      </trkpt>
      <trkpt lat="45.1718" lon="5.55598">
        <ele>1077.24</ele>
        <time>2022-10-28T13:04:59.000Z</time>
      </trkpt>
      <trkpt lat="45.17168" lon="5.55578">
        <ele>1076.06</ele>
        <time>2022-10-28T13:05:01.000Z</time>
      </trkpt>
      <trkpt lat="45.17157" lon="5.55557">
        <ele>1075.63</ele>
        <time>2022-10-28T13:05:03.000Z</time>
      </trkpt>
      <trkpt lat="45.17149" lon="5.55533">
        <ele>1075.37</ele>
        <time>2022-10-28T13:05:05.000Z</time>
      </trkpt>
      <trkpt lat="45.17129" lon="5.55493">
        <ele>1073.87</ele>
        <time>2022-10-28T13:05:09.000Z</time>
      </trkpt>
      <trkpt lat="45.17104" lon="5.55462">
        <ele>1072.63</ele>
        <time>2022-10-28T13:05:13.000Z</time>
      </trkpt>
      <trkpt lat="45.17078" lon="5.55433">
        <ele>1070.81</ele>
        <time>2022-10-28T13:05:17.000Z</time>
      </trkpt>
      <trkpt lat="45.17056" lon="5.55396">
        <ele>1070.29</ele>
        <time>2022-10-28T13:05:21.000Z</time>
      </trkpt>
      <trkpt lat="45.17054" lon="5.5535">
        <ele>1070.52</ele>
        <time>2022-10-28T13:05:25.000Z</time>
      </trkpt>
      <trkpt lat="45.17061" lon="5.55308">
        <ele>1070.4</ele>
        <time>2022-10-28T13:05:29.000Z</time>
      </trkpt>
      <trkpt lat="45.17064" lon="5.55267">
        <ele>1070.26</ele>
        <time>2022-10-28T13:05:33.000Z</time>
      </trkpt>
      <trkpt lat="45.17069" lon="5.55229">
        <ele>1069.23</ele>
        <time>2022-10-28T13:05:37.000Z</time>
      </trkpt>
      <trkpt lat="45.17073" lon="5.55193">
        <ele>1068.16</ele>
        <time>2022-10-28T13:05:41.000Z</time>
      </trkpt>
      <trkpt lat="45.17076" lon="5.55162">
        <ele>1068.16</ele>
        <time>2022-10-28T13:05:45.000Z</time>
      </trkpt>
      <trkpt lat="45.17086" lon="5.55138">
        <ele>1067.07</ele>
        <time>2022-10-28T13:05:49.000Z</time>
      </trkpt>
      <trkpt lat="45.17101" lon="5.5511">
        <ele>1065.27</ele>
        <time>2022-10-28T13:05:53.000Z</time>
      </trkpt>
      <trkpt lat="45.1711" lon="5.55067">
        <ele>1064.4</ele>
        <time>2022-10-28T13:05:57.000Z</time>
      </trkpt>
      <trkpt lat="45.17127" lon="5.55021">
        <ele>1062.63</ele>
        <time>2022-10-28T13:06:01.000Z</time>
      </trkpt>
      <trkpt lat="45.17139" lon="5.54998">
        <ele>1061.5</ele>
        <time>2022-10-28T13:06:03.000Z</time>
      </trkpt>
      <trkpt lat="45.1715" lon="5.54974">
        <ele>1060.28</ele>
        <time>2022-10-28T13:06:05.000Z</time>
      </trkpt>
      <trkpt lat="45.17162" lon="5.54949">
        <ele>1059.14</ele>
        <time>2022-10-28T13:06:07.000Z</time>
      </trkpt>
      <trkpt lat="45.17176" lon="5.54926">
        <ele>1058.12</ele>
        <time>2022-10-28T13:06:09.000Z</time>
      </trkpt>
      <trkpt lat="45.17192" lon="5.54905">
        <ele>1056.89</ele>
        <time>2022-10-28T13:06:11.000Z</time>
      </trkpt>
      <trkpt lat="45.17208" lon="5.54885">
        <ele>1055.29</ele>
        <time>2022-10-28T13:06:13.000Z</time>
      </trkpt>
      <trkpt lat="45.17223" lon="5.54862">
        <ele>1053.68</ele>
        <time>2022-10-28T13:06:15.000Z</time>
      </trkpt>
      <trkpt lat="45.17233" lon="5.54836">
        <ele>1053.35</ele>
        <time>2022-10-28T13:06:17.000Z</time>
      </trkpt>
      <trkpt lat="45.17239" lon="5.54807">
        <ele>1052.56</ele>
        <time>2022-10-28T13:06:19.000Z</time>
      </trkpt>
      <trkpt lat="45.17245" lon="5.54781">
        <ele>1051.94</ele>
        <time>2022-10-28T13:06:21.000Z</time>
      </trkpt>
      <trkpt lat="45.17252" lon="5.54756">
        <ele>1051.21</ele>
        <time>2022-10-28T13:06:23.000Z</time>
      </trkpt>
      <trkpt lat="45.17267" lon="5.54718">
        <ele>1049.93</ele>
        <time>2022-10-28T13:06:27.000Z</time>
      </trkpt>
      <trkpt lat="45.17279" lon="5.54683">
        <ele>1048.25</ele>
        <time>2022-10-28T13:06:31.000Z</time>
      </trkpt>
      <trkpt lat="45.17293" lon="5.5465">
        <ele>1047.16</ele>
        <time>2022-10-28T13:06:35.000Z</time>
      </trkpt>
      <trkpt lat="45.17308" lon="5.54617">
        <ele>1046.11</ele>
        <time>2022-10-28T13:06:39.000Z</time>
      </trkpt>
      <trkpt lat="45.17321" lon="5.54591">
        <ele>1044.99</ele>
        <time>2022-10-28T13:06:43.000Z</time>
      </trkpt>
      <trkpt lat="45.17332" lon="5.54569">
        <ele>1043.63</ele>
        <time>2022-10-28T13:06:51.000Z</time>
      </trkpt>
      <trkpt lat="45.17344" lon="5.54543">
        <ele>1042.7</ele>
        <time>2022-10-28T13:06:57.000Z</time>
      </trkpt>
      <trkpt lat="45.17353" lon="5.54521">
        <ele>1041.92</ele>
        <time>2022-10-28T13:07:01.000Z</time>
      </trkpt>
      <trkpt lat="45.17367" lon="5.54502">
        <ele>1041.35</ele>
        <time>2022-10-28T13:07:05.000Z</time>
      </trkpt>
      <trkpt lat="45.17374" lon="5.54479">
        <ele>1041.15</ele>
        <time>2022-10-28T13:07:09.000Z</time>
      </trkpt>
      <trkpt lat="45.17384" lon="5.54453">
        <ele>1040.9</ele>
        <time>2022-10-28T13:07:13.000Z</time>
      </trkpt>
      <trkpt lat="45.17397" lon="5.54426">
        <ele>1040.82</ele>
        <time>2022-10-28T13:07:17.000Z</time>
      </trkpt>
      <trkpt lat="45.1741" lon="5.54397">
        <ele>1040.56</ele>
        <time>2022-10-28T13:07:21.000Z</time>
      </trkpt>
      <trkpt lat="45.17423" lon="5.54368">
        <ele>1039</ele>
        <time>2022-10-28T13:07:25.000Z</time>
      </trkpt>
      <trkpt lat="45.17436" lon="5.54339">
        <ele>1035.65</ele>
        <time>2022-10-28T13:07:29.000Z</time>
      </trkpt>
      <trkpt lat="45.1745" lon="5.54313">
        <ele>1036.07</ele>
        <time>2022-10-28T13:07:33.000Z</time>
      </trkpt>
      <trkpt lat="45.17462" lon="5.5429">
        <ele>1037.62</ele>
        <time>2022-10-28T13:07:37.000Z</time>
      </trkpt>
      <trkpt lat="45.17474" lon="5.54264">
        <ele>1038.4</ele>
        <time>2022-10-28T13:07:43.000Z</time>
      </trkpt>
      <trkpt lat="45.17481" lon="5.54237">
        <ele>1038.99</ele>
        <time>2022-10-28T13:07:51.000Z</time>
        <extensions>
          <visugpx:TrkExtension xmlns:visugpx="https://www.visugpx.com/editgpx/">
            <visugpx:node>11</visugpx:node>
            </visugpx:TrkExtension>
        </extensions>
      </trkpt>
    </trkseg>
  </trk>
</gpx>